<?xml version="1.0" encoding="UTF-8" standalone="no" ?>
<gpx xmlns="http://www.topografix.com/GPX/1/1" xmlns:xsi="http://www.w3.org/2001/XMLSchema-instance" xsi:schemaLocation="http://www.topografix.com/GPX/1/1 http://www.topografix.com/GPX/1/1/gpx.xsd" version="1.1" creator="VisuGPX - https://www.visugpx.com">
  <metadata>
    <name>20180525-col-des-Lèques-Castellane</name>
    <desc><![CDATA[En partant Denis chute dans le torrent avec son VTT. Un peu plus loin des abeilles agressives attaquent Nicole et Janine ! Le col des Lèques atteint, nous poursuivons sur un sentier vers la forêt de pins à crochets. Arrêt pique-nique avant de repartir vers le site des Siréniens. Retour sur la route par un sentier capricieux, arrêts aux clues. Michèle et Janine, rentrent par la route par Castellane : 30 km, 700 m. ]]></desc>
  </metadata>
  <trk>
    <name><![CDATA[20180525-095342-153949-x-mm-MNT-F]]></name>
    <trkseg>
      <trkpt lat="43.8377" lon="6.49588">
        <ele>719</ele>
        <time>2018-05-25T07:53:42Z</time>
      </trkpt>
      <trkpt lat="43.83776" lon="6.49585">
        <ele>719</ele>
        <time>2018-05-25T07:53:46Z</time>
      </trkpt>
      <trkpt lat="43.8378" lon="6.49582">
        <ele>719</ele>
        <time>2018-05-25T07:53:48Z</time>
      </trkpt>
      <trkpt lat="43.8378" lon="6.49562">
        <ele>718</ele>
        <time>2018-05-25T07:53:55Z</time>
      </trkpt>
      <trkpt lat="43.8377" lon="6.49517">
        <ele>716</ele>
        <time>2018-05-25T07:54:10Z</time>
      </trkpt>
      <trkpt lat="43.83768" lon="6.49501">
        <ele>716</ele>
        <time>2018-05-25T07:54:21Z</time>
      </trkpt>
      <trkpt lat="43.83769" lon="6.49497">
        <ele>716</ele>
        <time>2018-05-25T07:54:39Z</time>
      </trkpt>
      <trkpt lat="43.83778" lon="6.49479">
        <ele>715</ele>
        <time>2018-05-25T07:54:46Z</time>
      </trkpt>
      <trkpt lat="43.83838" lon="6.49456">
        <ele>716</ele>
        <time>2018-05-25T07:54:59Z</time>
      </trkpt>
      <trkpt lat="43.83856" lon="6.49454">
        <ele>717</ele>
        <time>2018-05-25T07:55:03Z</time>
      </trkpt>
      <trkpt lat="43.83892" lon="6.49454">
        <ele>717</ele>
        <time>2018-05-25T07:55:15Z</time>
      </trkpt>
      <trkpt lat="43.83915" lon="6.49455">
        <ele>717</ele>
        <time>2018-05-25T07:55:26Z</time>
      </trkpt>
      <trkpt lat="43.83936" lon="6.49457">
        <ele>717</ele>
        <time>2018-05-25T07:55:37Z</time>
      </trkpt>
      <trkpt lat="43.83952" lon="6.49473">
        <ele>717</ele>
        <time>2018-05-25T07:55:49Z</time>
      </trkpt>
      <trkpt lat="43.83957" lon="6.49507">
        <ele>718</ele>
        <time>2018-05-25T07:55:59Z</time>
      </trkpt>
      <trkpt lat="43.83957" lon="6.49511">
        <ele>718</ele>
        <time>2018-05-25T07:56:00Z</time>
      </trkpt>
      <trkpt lat="43.83974" lon="6.49551">
        <ele>718</ele>
        <time>2018-05-25T07:56:13Z</time>
      </trkpt>
      <trkpt lat="43.83977" lon="6.49554">
        <ele>718</ele>
        <time>2018-05-25T07:56:15Z</time>
      </trkpt>
      <trkpt lat="43.83968" lon="6.49569">
        <ele>718</ele>
        <time>2018-05-25T07:56:25Z</time>
      </trkpt>
      <trkpt lat="43.83972" lon="6.4958">
        <ele>719</ele>
        <time>2018-05-25T07:56:29Z</time>
      </trkpt>
      <trkpt lat="43.83988" lon="6.4962">
        <ele>719</ele>
        <time>2018-05-25T07:56:44Z</time>
      </trkpt>
      <trkpt lat="43.84008" lon="6.49664">
        <ele>719</ele>
        <time>2018-05-25T07:57:01Z</time>
      </trkpt>
      <trkpt lat="43.84023" lon="6.49697">
        <ele>719</ele>
        <time>2018-05-25T07:57:15Z</time>
      </trkpt>
      <trkpt lat="43.84035" lon="6.49729">
        <ele>719</ele>
        <time>2018-05-25T07:57:29Z</time>
      </trkpt>
      <trkpt lat="43.84054" lon="6.49776">
        <ele>719</ele>
        <time>2018-05-25T07:57:49Z</time>
      </trkpt>
      <trkpt lat="43.84073" lon="6.49823">
        <ele>719</ele>
        <time>2018-05-25T07:58:07Z</time>
      </trkpt>
      <trkpt lat="43.84096" lon="6.49874">
        <ele>720</ele>
        <time>2018-05-25T07:58:24Z</time>
      </trkpt>
      <trkpt lat="43.84115" lon="6.49917">
        <ele>719</ele>
        <time>2018-05-25T07:58:39Z</time>
      </trkpt>
      <trkpt lat="43.84129" lon="6.49952">
        <ele>720</ele>
        <time>2018-05-25T07:58:51Z</time>
      </trkpt>
      <trkpt lat="43.84153" lon="6.50004">
        <ele>719</ele>
        <time>2018-05-25T07:59:07Z</time>
      </trkpt>
      <trkpt lat="43.84178" lon="6.50066">
        <ele>719</ele>
        <time>2018-05-25T07:59:24Z</time>
      </trkpt>
      <trkpt lat="43.84205" lon="6.50129">
        <ele>719</ele>
        <time>2018-05-25T07:59:42Z</time>
      </trkpt>
      <trkpt lat="43.84228" lon="6.50183">
        <ele>719</ele>
        <time>2018-05-25T07:59:57Z</time>
      </trkpt>
      <trkpt lat="43.84256" lon="6.50249">
        <ele>719</ele>
        <time>2018-05-25T08:00:15Z</time>
      </trkpt>
      <trkpt lat="43.84283" lon="6.50313">
        <ele>719</ele>
        <time>2018-05-25T08:00:33Z</time>
      </trkpt>
      <trkpt lat="43.84302" lon="6.50356">
        <ele>719</ele>
        <time>2018-05-25T08:00:47Z</time>
      </trkpt>
      <trkpt lat="43.84311" lon="6.50377">
        <ele>719</ele>
        <time>2018-05-25T08:00:55Z</time>
      </trkpt>
      <trkpt lat="43.84312" lon="6.5038">
        <ele>719</ele>
        <time>2018-05-25T08:00:56Z</time>
      </trkpt>
      <trkpt lat="43.84312" lon="6.50382">
        <ele>719</ele>
        <time>2018-05-25T08:00:57Z</time>
      </trkpt>
      <trkpt lat="43.84312" lon="6.50384">
        <ele>719</ele>
        <time>2018-05-25T08:00:58Z</time>
      </trkpt>
      <trkpt lat="43.84313" lon="6.50386">
        <ele>719</ele>
        <time>2018-05-25T08:00:59Z</time>
      </trkpt>
      <trkpt lat="43.84314" lon="6.50388">
        <ele>719</ele>
        <time>2018-05-25T08:01:00Z</time>
      </trkpt>
      <trkpt lat="43.84315" lon="6.5039">
        <ele>719</ele>
        <time>2018-05-25T08:01:01Z</time>
      </trkpt>
      <trkpt lat="43.84317" lon="6.50391">
        <ele>719</ele>
        <time>2018-05-25T08:01:02Z</time>
      </trkpt>
      <trkpt lat="43.84318" lon="6.50393">
        <ele>719</ele>
        <time>2018-05-25T08:01:03Z</time>
      </trkpt>
      <trkpt lat="43.84319" lon="6.50396">
        <ele>719</ele>
        <time>2018-05-25T08:01:04Z</time>
      </trkpt>
      <trkpt lat="43.8432" lon="6.50399">
        <ele>719</ele>
        <time>2018-05-25T08:01:05Z</time>
      </trkpt>
      <trkpt lat="43.84321" lon="6.50401">
        <ele>719</ele>
        <time>2018-05-25T08:01:06Z</time>
      </trkpt>
      <trkpt lat="43.84322" lon="6.50403">
        <ele>719</ele>
        <time>2018-05-25T08:01:07Z</time>
      </trkpt>
      <trkpt lat="43.84323" lon="6.50406">
        <ele>719</ele>
        <time>2018-05-25T08:01:08Z</time>
      </trkpt>
      <trkpt lat="43.84326" lon="6.50406">
        <ele>719</ele>
        <time>2018-05-25T08:01:09Z</time>
      </trkpt>
      <trkpt lat="43.84328" lon="6.50406">
        <ele>719</ele>
        <time>2018-05-25T08:01:10Z</time>
      </trkpt>
      <trkpt lat="43.84358" lon="6.504">
        <ele>719</ele>
        <time>2018-05-25T08:01:25Z</time>
      </trkpt>
      <trkpt lat="43.84388" lon="6.50394">
        <ele>719</ele>
        <time>2018-05-25T08:01:37Z</time>
      </trkpt>
      <trkpt lat="43.8443" lon="6.50388">
        <ele>719</ele>
        <time>2018-05-25T08:01:52Z</time>
      </trkpt>
      <trkpt lat="43.8447" lon="6.50382">
        <ele>718</ele>
        <time>2018-05-25T08:02:07Z</time>
      </trkpt>
      <trkpt lat="43.84496" lon="6.50377">
        <ele>718</ele>
        <time>2018-05-25T08:02:19Z</time>
      </trkpt>
      <trkpt lat="43.84506" lon="6.50374">
        <ele>718</ele>
        <time>2018-05-25T08:02:30Z</time>
      </trkpt>
      <trkpt lat="43.84513" lon="6.50371">
        <ele>718</ele>
        <time>2018-05-25T08:02:44Z</time>
      </trkpt>
      <trkpt lat="43.84539" lon="6.50362">
        <ele>719</ele>
        <time>2018-05-25T08:02:56Z</time>
      </trkpt>
      <trkpt lat="43.8456" lon="6.50357">
        <ele>720</ele>
        <time>2018-05-25T08:03:07Z</time>
      </trkpt>
      <trkpt lat="43.84567" lon="6.50355">
        <ele>720</ele>
        <time>2018-05-25T08:03:19Z</time>
      </trkpt>
      <trkpt lat="43.84592" lon="6.50348">
        <ele>722</ele>
        <time>2018-05-25T08:03:32Z</time>
      </trkpt>
      <trkpt lat="43.84608" lon="6.50346">
        <ele>723</ele>
        <time>2018-05-25T08:03:45Z</time>
      </trkpt>
      <trkpt lat="43.84609" lon="6.50345">
        <ele>723</ele>
        <time>2018-05-25T08:03:46Z</time>
      </trkpt>
      <trkpt lat="43.84619" lon="6.50344">
        <ele>724</ele>
        <time>2018-05-25T08:03:52Z</time>
      </trkpt>
      <trkpt lat="43.84633" lon="6.50339">
        <ele>725</ele>
        <time>2018-05-25T08:04:07Z</time>
      </trkpt>
      <trkpt lat="43.84637" lon="6.50337">
        <ele>725</ele>
        <time>2018-05-25T08:04:12Z</time>
      </trkpt>
      <trkpt lat="43.84648" lon="6.50334">
        <ele>726</ele>
        <time>2018-05-25T08:04:27Z</time>
      </trkpt>
      <trkpt lat="43.84654" lon="6.50334">
        <ele>727</ele>
        <time>2018-05-25T08:04:40Z</time>
      </trkpt>
      <trkpt lat="43.84654" lon="6.50335">
        <ele>727</ele>
        <time>2018-05-25T08:05:17Z</time>
      </trkpt>
      <trkpt lat="43.84656" lon="6.50334">
        <ele>727</ele>
        <time>2018-05-25T08:05:57Z</time>
      </trkpt>
      <trkpt lat="43.84655" lon="6.50335">
        <ele>727</ele>
        <time>2018-05-25T08:06:32Z</time>
      </trkpt>
      <trkpt lat="43.84655" lon="6.50336">
        <ele>727</ele>
        <time>2018-05-25T08:07:14Z</time>
      </trkpt>
      <trkpt lat="43.84655" lon="6.50336">
        <ele>727</ele>
        <time>2018-05-25T08:07:48Z</time>
      </trkpt>
      <trkpt lat="43.84656" lon="6.50336">
        <ele>727</ele>
        <time>2018-05-25T08:08:34Z</time>
      </trkpt>
      <trkpt lat="43.84661" lon="6.50334">
        <ele>727</ele>
        <time>2018-05-25T08:08:57Z</time>
      </trkpt>
      <trkpt lat="43.84672" lon="6.50328">
        <ele>728</ele>
        <time>2018-05-25T08:09:14Z</time>
      </trkpt>
      <trkpt lat="43.84679" lon="6.50326">
        <ele>728</ele>
        <time>2018-05-25T08:09:28Z</time>
      </trkpt>
      <trkpt lat="43.84684" lon="6.50325">
        <ele>729</ele>
        <time>2018-05-25T08:09:40Z</time>
      </trkpt>
      <trkpt lat="43.84694" lon="6.50325">
        <ele>729</ele>
        <time>2018-05-25T08:09:55Z</time>
      </trkpt>
      <trkpt lat="43.84702" lon="6.50325">
        <ele>730</ele>
        <time>2018-05-25T08:10:09Z</time>
      </trkpt>
      <trkpt lat="43.84708" lon="6.50318">
        <ele>730</ele>
        <time>2018-05-25T08:10:23Z</time>
      </trkpt>
      <trkpt lat="43.84712" lon="6.50313">
        <ele>730</ele>
        <time>2018-05-25T08:10:39Z</time>
      </trkpt>
      <trkpt lat="43.84716" lon="6.50315">
        <ele>730</ele>
        <time>2018-05-25T08:10:59Z</time>
      </trkpt>
      <trkpt lat="43.84727" lon="6.50312">
        <ele>731</ele>
        <time>2018-05-25T08:11:13Z</time>
      </trkpt>
      <trkpt lat="43.84735" lon="6.50308">
        <ele>731</ele>
        <time>2018-05-25T08:11:21Z</time>
      </trkpt>
      <trkpt lat="43.84748" lon="6.50304">
        <ele>731</ele>
        <time>2018-05-25T08:11:37Z</time>
      </trkpt>
      <trkpt lat="43.84755" lon="6.503">
        <ele>731</ele>
        <time>2018-05-25T08:11:50Z</time>
      </trkpt>
      <trkpt lat="43.84763" lon="6.50298">
        <ele>731</ele>
        <time>2018-05-25T08:12:07Z</time>
      </trkpt>
      <trkpt lat="43.84763" lon="6.50295">
        <ele>731</ele>
        <time>2018-05-25T08:12:24Z</time>
      </trkpt>
      <trkpt lat="43.84764" lon="6.50293">
        <ele>731</ele>
        <time>2018-05-25T08:12:43Z</time>
      </trkpt>
      <trkpt lat="43.84764" lon="6.50293">
        <ele>731</ele>
        <time>2018-05-25T08:13:05Z</time>
      </trkpt>
      <trkpt lat="43.84763" lon="6.5029">
        <ele>731</ele>
        <time>2018-05-25T08:13:27Z</time>
      </trkpt>
      <trkpt lat="43.84762" lon="6.50291">
        <ele>731</ele>
        <time>2018-05-25T08:13:48Z</time>
      </trkpt>
      <trkpt lat="43.84763" lon="6.50288">
        <ele>731</ele>
        <time>2018-05-25T08:14:10Z</time>
      </trkpt>
      <trkpt lat="43.84763" lon="6.50287">
        <ele>731</ele>
        <time>2018-05-25T08:14:22Z</time>
      </trkpt>
      <trkpt lat="43.84764" lon="6.50287">
        <ele>731</ele>
        <time>2018-05-25T08:14:39Z</time>
      </trkpt>
      <trkpt lat="43.84763" lon="6.50289">
        <ele>731</ele>
        <time>2018-05-25T08:14:59Z</time>
      </trkpt>
      <trkpt lat="43.84763" lon="6.50289">
        <ele>731</ele>
        <time>2018-05-25T08:15:20Z</time>
      </trkpt>
      <trkpt lat="43.84763" lon="6.50291">
        <ele>731</ele>
        <time>2018-05-25T08:15:55Z</time>
      </trkpt>
      <trkpt lat="43.84762" lon="6.5029">
        <ele>731</ele>
        <time>2018-05-25T08:16:25Z</time>
      </trkpt>
      <trkpt lat="43.84765" lon="6.50292">
        <ele>731</ele>
        <time>2018-05-25T08:17:01Z</time>
      </trkpt>
      <trkpt lat="43.84763" lon="6.50292">
        <ele>731</ele>
        <time>2018-05-25T08:17:29Z</time>
      </trkpt>
      <trkpt lat="43.84763" lon="6.50291">
        <ele>731</ele>
        <time>2018-05-25T08:18:00Z</time>
      </trkpt>
      <trkpt lat="43.84763" lon="6.50288">
        <ele>731</ele>
        <time>2018-05-25T08:18:26Z</time>
      </trkpt>
      <trkpt lat="43.84764" lon="6.50288">
        <ele>731</ele>
        <time>2018-05-25T08:18:53Z</time>
      </trkpt>
      <trkpt lat="43.84763" lon="6.5029">
        <ele>731</ele>
        <time>2018-05-25T08:19:18Z</time>
      </trkpt>
      <trkpt lat="43.84765" lon="6.50292">
        <ele>731</ele>
        <time>2018-05-25T08:19:46Z</time>
      </trkpt>
      <trkpt lat="43.84763" lon="6.5029">
        <ele>731</ele>
        <time>2018-05-25T08:20:13Z</time>
      </trkpt>
      <trkpt lat="43.84762" lon="6.50291">
        <ele>731</ele>
        <time>2018-05-25T08:20:46Z</time>
      </trkpt>
      <trkpt lat="43.84764" lon="6.50291">
        <ele>731</ele>
        <time>2018-05-25T08:21:02Z</time>
      </trkpt>
      <trkpt lat="43.84766" lon="6.50293">
        <ele>731</ele>
        <time>2018-05-25T08:21:17Z</time>
      </trkpt>
      <trkpt lat="43.84766" lon="6.50294">
        <ele>731</ele>
        <time>2018-05-25T08:21:25Z</time>
      </trkpt>
      <trkpt lat="43.84768" lon="6.5032">
        <ele>732</ele>
        <time>2018-05-25T08:21:31Z</time>
      </trkpt>
      <trkpt lat="43.84769" lon="6.50327">
        <ele>732</ele>
        <time>2018-05-25T08:21:32Z</time>
      </trkpt>
      <trkpt lat="43.8477" lon="6.50333">
        <ele>732</ele>
        <time>2018-05-25T08:21:33Z</time>
      </trkpt>
      <trkpt lat="43.84772" lon="6.50341">
        <ele>732</ele>
        <time>2018-05-25T08:21:34Z</time>
      </trkpt>
      <trkpt lat="43.84774" lon="6.50347">
        <ele>732</ele>
        <time>2018-05-25T08:21:35Z</time>
      </trkpt>
      <trkpt lat="43.84777" lon="6.50354">
        <ele>732</ele>
        <time>2018-05-25T08:21:36Z</time>
      </trkpt>
      <trkpt lat="43.84787" lon="6.50376">
        <ele>733</ele>
        <time>2018-05-25T08:21:40Z</time>
      </trkpt>
      <trkpt lat="43.84791" lon="6.50379">
        <ele>733</ele>
        <time>2018-05-25T08:21:41Z</time>
      </trkpt>
      <trkpt lat="43.84803" lon="6.5039">
        <ele>735</ele>
        <time>2018-05-25T08:21:51Z</time>
      </trkpt>
      <trkpt lat="43.84803" lon="6.50388">
        <ele>735</ele>
        <time>2018-05-25T08:22:19Z</time>
      </trkpt>
      <trkpt lat="43.84804" lon="6.50394">
        <ele>736</ele>
        <time>2018-05-25T08:22:39Z</time>
      </trkpt>
      <trkpt lat="43.84803" lon="6.50396">
        <ele>735</ele>
        <time>2018-05-25T08:22:40Z</time>
      </trkpt>
      <trkpt lat="43.84802" lon="6.50398">
        <ele>735</ele>
        <time>2018-05-25T08:22:41Z</time>
      </trkpt>
      <trkpt lat="43.84802" lon="6.50401">
        <ele>735</ele>
        <time>2018-05-25T08:22:42Z</time>
      </trkpt>
      <trkpt lat="43.84801" lon="6.50404">
        <ele>736</ele>
        <time>2018-05-25T08:22:43Z</time>
      </trkpt>
      <trkpt lat="43.84801" lon="6.50406">
        <ele>735</ele>
        <time>2018-05-25T08:22:44Z</time>
      </trkpt>
      <trkpt lat="43.848" lon="6.50408">
        <ele>736</ele>
        <time>2018-05-25T08:22:45Z</time>
      </trkpt>
      <trkpt lat="43.84801" lon="6.50409">
        <ele>736</ele>
        <time>2018-05-25T08:22:46Z</time>
      </trkpt>
      <trkpt lat="43.84802" lon="6.50409">
        <ele>736</ele>
        <time>2018-05-25T08:22:47Z</time>
      </trkpt>
      <trkpt lat="43.84803" lon="6.50407">
        <ele>736</ele>
        <time>2018-05-25T08:22:48Z</time>
      </trkpt>
      <trkpt lat="43.84803" lon="6.50405">
        <ele>736</ele>
        <time>2018-05-25T08:22:49Z</time>
      </trkpt>
      <trkpt lat="43.84803" lon="6.50402">
        <ele>736</ele>
        <time>2018-05-25T08:22:50Z</time>
      </trkpt>
      <trkpt lat="43.84802" lon="6.504">
        <ele>736</ele>
        <time>2018-05-25T08:22:51Z</time>
      </trkpt>
      <trkpt lat="43.84802" lon="6.50398">
        <ele>736</ele>
        <time>2018-05-25T08:22:52Z</time>
      </trkpt>
      <trkpt lat="43.84803" lon="6.50396">
        <ele>736</ele>
        <time>2018-05-25T08:22:53Z</time>
      </trkpt>
      <trkpt lat="43.84804" lon="6.50394">
        <ele>736</ele>
        <time>2018-05-25T08:22:54Z</time>
      </trkpt>
      <trkpt lat="43.84804" lon="6.50392">
        <ele>736</ele>
        <time>2018-05-25T08:22:55Z</time>
      </trkpt>
      <trkpt lat="43.84805" lon="6.5039">
        <ele>736</ele>
        <time>2018-05-25T08:22:56Z</time>
      </trkpt>
      <trkpt lat="43.84806" lon="6.50389">
        <ele>736</ele>
        <time>2018-05-25T08:22:57Z</time>
      </trkpt>
      <trkpt lat="43.84807" lon="6.50388">
        <ele>736</ele>
        <time>2018-05-25T08:22:58Z</time>
      </trkpt>
      <trkpt lat="43.84809" lon="6.50387">
        <ele>736</ele>
        <time>2018-05-25T08:22:59Z</time>
      </trkpt>
      <trkpt lat="43.8481" lon="6.50386">
        <ele>736</ele>
        <time>2018-05-25T08:23:00Z</time>
      </trkpt>
      <trkpt lat="43.84811" lon="6.50384">
        <ele>737</ele>
        <time>2018-05-25T08:23:01Z</time>
      </trkpt>
      <trkpt lat="43.84813" lon="6.50383">
        <ele>737</ele>
        <time>2018-05-25T08:23:02Z</time>
      </trkpt>
      <trkpt lat="43.84814" lon="6.50382">
        <ele>737</ele>
        <time>2018-05-25T08:23:03Z</time>
      </trkpt>
      <trkpt lat="43.84816" lon="6.50381">
        <ele>737</ele>
        <time>2018-05-25T08:23:04Z</time>
      </trkpt>
      <trkpt lat="43.84818" lon="6.5038">
        <ele>737</ele>
        <time>2018-05-25T08:23:05Z</time>
      </trkpt>
      <trkpt lat="43.84842" lon="6.50369">
        <ele>741</ele>
        <time>2018-05-25T08:23:21Z</time>
      </trkpt>
      <trkpt lat="43.84859" lon="6.50358">
        <ele>743</ele>
        <time>2018-05-25T08:23:33Z</time>
      </trkpt>
      <trkpt lat="43.8488" lon="6.50348">
        <ele>743</ele>
        <time>2018-05-25T08:23:48Z</time>
      </trkpt>
      <trkpt lat="43.84885" lon="6.50344">
        <ele>744</ele>
        <time>2018-05-25T08:23:52Z</time>
      </trkpt>
      <trkpt lat="43.84886" lon="6.50343">
        <ele>744</ele>
        <time>2018-05-25T08:23:53Z</time>
      </trkpt>
      <trkpt lat="43.84888" lon="6.50342">
        <ele>744</ele>
        <time>2018-05-25T08:23:54Z</time>
      </trkpt>
      <trkpt lat="43.84909" lon="6.50325">
        <ele>746</ele>
        <time>2018-05-25T08:24:10Z</time>
      </trkpt>
      <trkpt lat="43.84931" lon="6.50316">
        <ele>748</ele>
        <time>2018-05-25T08:24:26Z</time>
      </trkpt>
      <trkpt lat="43.84939" lon="6.50316">
        <ele>749</ele>
        <time>2018-05-25T08:24:32Z</time>
      </trkpt>
      <trkpt lat="43.84942" lon="6.50317">
        <ele>750</ele>
        <time>2018-05-25T08:24:34Z</time>
      </trkpt>
      <trkpt lat="43.84941" lon="6.50314">
        <ele>749</ele>
        <time>2018-05-25T08:24:44Z</time>
      </trkpt>
      <trkpt lat="43.84941" lon="6.50314">
        <ele>749</ele>
        <time>2018-05-25T08:25:08Z</time>
      </trkpt>
      <trkpt lat="43.84941" lon="6.50317">
        <ele>750</ele>
        <time>2018-05-25T08:25:35Z</time>
      </trkpt>
      <trkpt lat="43.84942" lon="6.50316">
        <ele>750</ele>
        <time>2018-05-25T08:26:02Z</time>
      </trkpt>
      <trkpt lat="43.84941" lon="6.50319">
        <ele>751</ele>
        <time>2018-05-25T08:26:20Z</time>
      </trkpt>
      <trkpt lat="43.8494" lon="6.50321">
        <ele>751</ele>
        <time>2018-05-25T08:26:21Z</time>
      </trkpt>
      <trkpt lat="43.84929" lon="6.50342">
        <ele>756</ele>
        <time>2018-05-25T08:26:33Z</time>
      </trkpt>
      <trkpt lat="43.84928" lon="6.50343">
        <ele>756</ele>
        <time>2018-05-25T08:26:34Z</time>
      </trkpt>
      <trkpt lat="43.84928" lon="6.50344">
        <ele>756</ele>
        <time>2018-05-25T08:26:35Z</time>
      </trkpt>
      <trkpt lat="43.8492" lon="6.50358">
        <ele>758</ele>
        <time>2018-05-25T08:26:44Z</time>
      </trkpt>
      <trkpt lat="43.84919" lon="6.50359">
        <ele>758</ele>
        <time>2018-05-25T08:26:45Z</time>
      </trkpt>
      <trkpt lat="43.84918" lon="6.5036">
        <ele>759</ele>
        <time>2018-05-25T08:26:46Z</time>
      </trkpt>
      <trkpt lat="43.84918" lon="6.50362">
        <ele>759</ele>
        <time>2018-05-25T08:26:47Z</time>
      </trkpt>
      <trkpt lat="43.84917" lon="6.50364">
        <ele>759</ele>
        <time>2018-05-25T08:26:48Z</time>
      </trkpt>
      <trkpt lat="43.84916" lon="6.50366">
        <ele>759</ele>
        <time>2018-05-25T08:26:49Z</time>
      </trkpt>
      <trkpt lat="43.84916" lon="6.50367">
        <ele>760</ele>
        <time>2018-05-25T08:26:50Z</time>
      </trkpt>
      <trkpt lat="43.84915" lon="6.50369">
        <ele>760</ele>
        <time>2018-05-25T08:26:51Z</time>
      </trkpt>
      <trkpt lat="43.84902" lon="6.50393">
        <ele>762</ele>
        <time>2018-05-25T08:27:05Z</time>
      </trkpt>
      <trkpt lat="43.84891" lon="6.50423">
        <ele>766</ele>
        <time>2018-05-25T08:27:23Z</time>
      </trkpt>
      <trkpt lat="43.8488" lon="6.50458">
        <ele>767</ele>
        <time>2018-05-25T08:27:39Z</time>
      </trkpt>
      <trkpt lat="43.84886" lon="6.50506">
        <ele>768</ele>
        <time>2018-05-25T08:27:56Z</time>
      </trkpt>
      <trkpt lat="43.84886" lon="6.50512">
        <ele>767</ele>
        <time>2018-05-25T08:27:59Z</time>
      </trkpt>
      <trkpt lat="43.84886" lon="6.50515">
        <ele>767</ele>
        <time>2018-05-25T08:28:00Z</time>
      </trkpt>
      <trkpt lat="43.84887" lon="6.50517">
        <ele>767</ele>
        <time>2018-05-25T08:28:01Z</time>
      </trkpt>
      <trkpt lat="43.84888" lon="6.5052">
        <ele>767</ele>
        <time>2018-05-25T08:28:02Z</time>
      </trkpt>
      <trkpt lat="43.84889" lon="6.50523">
        <ele>767</ele>
        <time>2018-05-25T08:28:03Z</time>
      </trkpt>
      <trkpt lat="43.84889" lon="6.50526">
        <ele>767</ele>
        <time>2018-05-25T08:28:04Z</time>
      </trkpt>
      <trkpt lat="43.84889" lon="6.50528">
        <ele>767</ele>
        <time>2018-05-25T08:28:05Z</time>
      </trkpt>
      <trkpt lat="43.84889" lon="6.50529">
        <ele>767</ele>
        <time>2018-05-25T08:28:18Z</time>
      </trkpt>
      <trkpt lat="43.8489" lon="6.50528">
        <ele>767</ele>
        <time>2018-05-25T08:28:44Z</time>
      </trkpt>
      <trkpt lat="43.84889" lon="6.50532">
        <ele>766</ele>
        <time>2018-05-25T08:29:12Z</time>
      </trkpt>
      <trkpt lat="43.84888" lon="6.50534">
        <ele>766</ele>
        <time>2018-05-25T08:29:44Z</time>
      </trkpt>
      <trkpt lat="43.84887" lon="6.50534">
        <ele>766</ele>
        <time>2018-05-25T08:30:24Z</time>
      </trkpt>
      <trkpt lat="43.8489" lon="6.50531">
        <ele>767</ele>
        <time>2018-05-25T08:30:45Z</time>
      </trkpt>
      <trkpt lat="43.84888" lon="6.50532">
        <ele>766</ele>
        <time>2018-05-25T08:31:02Z</time>
      </trkpt>
      <trkpt lat="43.8489" lon="6.50531">
        <ele>767</ele>
        <time>2018-05-25T08:31:39Z</time>
      </trkpt>
      <trkpt lat="43.84887" lon="6.50532">
        <ele>766</ele>
        <time>2018-05-25T08:32:15Z</time>
      </trkpt>
      <trkpt lat="43.84887" lon="6.50531">
        <ele>766</ele>
        <time>2018-05-25T08:32:55Z</time>
      </trkpt>
      <trkpt lat="43.84888" lon="6.50533">
        <ele>766</ele>
        <time>2018-05-25T08:33:33Z</time>
      </trkpt>
      <trkpt lat="43.84888" lon="6.50533">
        <ele>766</ele>
        <time>2018-05-25T08:33:48Z</time>
      </trkpt>
      <trkpt lat="43.84888" lon="6.50534">
        <ele>766</ele>
        <time>2018-05-25T08:33:56Z</time>
      </trkpt>
      <trkpt lat="43.84889" lon="6.50536">
        <ele>766</ele>
        <time>2018-05-25T08:33:57Z</time>
      </trkpt>
      <trkpt lat="43.84888" lon="6.5054">
        <ele>765</ele>
        <time>2018-05-25T08:34:09Z</time>
      </trkpt>
      <trkpt lat="43.8489" lon="6.50541">
        <ele>766</ele>
        <time>2018-05-25T08:34:22Z</time>
      </trkpt>
      <trkpt lat="43.84889" lon="6.50541">
        <ele>765</ele>
        <time>2018-05-25T08:34:35Z</time>
      </trkpt>
      <trkpt lat="43.8489" lon="6.50543">
        <ele>765</ele>
        <time>2018-05-25T08:34:54Z</time>
      </trkpt>
      <trkpt lat="43.84888" lon="6.50543">
        <ele>765</ele>
        <time>2018-05-25T08:35:02Z</time>
      </trkpt>
      <trkpt lat="43.84889" lon="6.5054">
        <ele>765</ele>
        <time>2018-05-25T08:35:14Z</time>
      </trkpt>
      <trkpt lat="43.84889" lon="6.5054">
        <ele>765</ele>
        <time>2018-05-25T08:35:29Z</time>
      </trkpt>
      <trkpt lat="43.84889" lon="6.50541">
        <ele>765</ele>
        <time>2018-05-25T08:36:01Z</time>
      </trkpt>
      <trkpt lat="43.8489" lon="6.50544">
        <ele>765</ele>
        <time>2018-05-25T08:36:48Z</time>
      </trkpt>
      <trkpt lat="43.84891" lon="6.50541">
        <ele>766</ele>
        <time>2018-05-25T08:37:20Z</time>
      </trkpt>
      <trkpt lat="43.84889" lon="6.50543">
        <ele>765</ele>
        <time>2018-05-25T08:37:44Z</time>
      </trkpt>
      <trkpt lat="43.84888" lon="6.50545">
        <ele>765</ele>
        <time>2018-05-25T08:37:53Z</time>
      </trkpt>
      <trkpt lat="43.84889" lon="6.50543">
        <ele>765</ele>
        <time>2018-05-25T08:38:19Z</time>
      </trkpt>
      <trkpt lat="43.84888" lon="6.50542">
        <ele>765</ele>
        <time>2018-05-25T08:38:52Z</time>
      </trkpt>
      <trkpt lat="43.84889" lon="6.50544">
        <ele>765</ele>
        <time>2018-05-25T08:39:03Z</time>
      </trkpt>
      <trkpt lat="43.84888" lon="6.50545">
        <ele>765</ele>
        <time>2018-05-25T08:39:04Z</time>
      </trkpt>
      <trkpt lat="43.84887" lon="6.50546">
        <ele>764</ele>
        <time>2018-05-25T08:39:10Z</time>
      </trkpt>
      <trkpt lat="43.84884" lon="6.50548">
        <ele>763</ele>
        <time>2018-05-25T08:39:15Z</time>
      </trkpt>
      <trkpt lat="43.84884" lon="6.50551">
        <ele>762</ele>
        <time>2018-05-25T08:39:16Z</time>
      </trkpt>
      <trkpt lat="43.84884" lon="6.50553">
        <ele>762</ele>
        <time>2018-05-25T08:39:17Z</time>
      </trkpt>
      <trkpt lat="43.84884" lon="6.50556">
        <ele>762</ele>
        <time>2018-05-25T08:39:18Z</time>
      </trkpt>
      <trkpt lat="43.84885" lon="6.50558">
        <ele>762</ele>
        <time>2018-05-25T08:39:19Z</time>
      </trkpt>
      <trkpt lat="43.84886" lon="6.50561">
        <ele>762</ele>
        <time>2018-05-25T08:39:20Z</time>
      </trkpt>
      <trkpt lat="43.84887" lon="6.50564">
        <ele>762</ele>
        <time>2018-05-25T08:39:21Z</time>
      </trkpt>
      <trkpt lat="43.84903" lon="6.50599">
        <ele>762</ele>
        <time>2018-05-25T08:39:31Z</time>
      </trkpt>
      <trkpt lat="43.84905" lon="6.50604">
        <ele>762</ele>
        <time>2018-05-25T08:39:32Z</time>
      </trkpt>
      <trkpt lat="43.84906" lon="6.5061">
        <ele>762</ele>
        <time>2018-05-25T08:39:33Z</time>
      </trkpt>
      <trkpt lat="43.84906" lon="6.50617">
        <ele>762</ele>
        <time>2018-05-25T08:39:34Z</time>
      </trkpt>
      <trkpt lat="43.84906" lon="6.50624">
        <ele>761</ele>
        <time>2018-05-25T08:39:35Z</time>
      </trkpt>
      <trkpt lat="43.84905" lon="6.50632">
        <ele>759</ele>
        <time>2018-05-25T08:39:36Z</time>
      </trkpt>
      <trkpt lat="43.84904" lon="6.50641">
        <ele>758</ele>
        <time>2018-05-25T08:39:37Z</time>
      </trkpt>
      <trkpt lat="43.84906" lon="6.50699">
        <ele>750</ele>
        <time>2018-05-25T08:39:45Z</time>
      </trkpt>
      <trkpt lat="43.84908" lon="6.50702">
        <ele>749</ele>
        <time>2018-05-25T08:39:46Z</time>
      </trkpt>
      <trkpt lat="43.8491" lon="6.50703">
        <ele>750</ele>
        <time>2018-05-25T08:39:47Z</time>
      </trkpt>
      <trkpt lat="43.84931" lon="6.5071">
        <ele>749</ele>
        <time>2018-05-25T08:39:52Z</time>
      </trkpt>
      <trkpt lat="43.84941" lon="6.50713">
        <ele>748</ele>
        <time>2018-05-25T08:39:54Z</time>
      </trkpt>
      <trkpt lat="43.84975" lon="6.50713">
        <ele>748</ele>
        <time>2018-05-25T08:40:01Z</time>
      </trkpt>
      <trkpt lat="43.85022" lon="6.50708">
        <ele>747</ele>
        <time>2018-05-25T08:40:15Z</time>
      </trkpt>
      <trkpt lat="43.85067" lon="6.50718">
        <ele>744</ele>
        <time>2018-05-25T08:40:28Z</time>
      </trkpt>
      <trkpt lat="43.851" lon="6.50719">
        <ele>746</ele>
        <time>2018-05-25T08:40:35Z</time>
      </trkpt>
      <trkpt lat="43.85104" lon="6.5072">
        <ele>746</ele>
        <time>2018-05-25T08:40:36Z</time>
      </trkpt>
      <trkpt lat="43.85108" lon="6.50721">
        <ele>746</ele>
        <time>2018-05-25T08:40:37Z</time>
      </trkpt>
      <trkpt lat="43.85113" lon="6.50723">
        <ele>746</ele>
        <time>2018-05-25T08:40:38Z</time>
      </trkpt>
      <trkpt lat="43.85117" lon="6.50725">
        <ele>746</ele>
        <time>2018-05-25T08:40:39Z</time>
      </trkpt>
      <trkpt lat="43.85121" lon="6.50727">
        <ele>746</ele>
        <time>2018-05-25T08:40:40Z</time>
      </trkpt>
      <trkpt lat="43.85145" lon="6.50733">
        <ele>746</ele>
        <time>2018-05-25T08:40:47Z</time>
      </trkpt>
      <trkpt lat="43.85147" lon="6.50736">
        <ele>746</ele>
        <time>2018-05-25T08:40:48Z</time>
      </trkpt>
      <trkpt lat="43.85148" lon="6.5074">
        <ele>745</ele>
        <time>2018-05-25T08:40:49Z</time>
      </trkpt>
      <trkpt lat="43.85149" lon="6.50744">
        <ele>745</ele>
        <time>2018-05-25T08:40:50Z</time>
      </trkpt>
      <trkpt lat="43.85149" lon="6.50747">
        <ele>745</ele>
        <time>2018-05-25T08:40:51Z</time>
      </trkpt>
      <trkpt lat="43.85149" lon="6.50751">
        <ele>745</ele>
        <time>2018-05-25T08:40:52Z</time>
      </trkpt>
      <trkpt lat="43.85153" lon="6.50766">
        <ele>745</ele>
        <time>2018-05-25T08:40:57Z</time>
      </trkpt>
      <trkpt lat="43.85156" lon="6.50767">
        <ele>746</ele>
        <time>2018-05-25T08:40:58Z</time>
      </trkpt>
      <trkpt lat="43.85168" lon="6.50766">
        <ele>746</ele>
        <time>2018-05-25T08:41:03Z</time>
      </trkpt>
      <trkpt lat="43.85176" lon="6.50777">
        <ele>747</ele>
        <time>2018-05-25T08:41:10Z</time>
      </trkpt>
      <trkpt lat="43.85178" lon="6.50778">
        <ele>747</ele>
        <time>2018-05-25T08:41:22Z</time>
      </trkpt>
      <trkpt lat="43.85177" lon="6.50779">
        <ele>747</ele>
        <time>2018-05-25T08:41:44Z</time>
      </trkpt>
      <trkpt lat="43.85178" lon="6.50778">
        <ele>747</ele>
        <time>2018-05-25T08:42:17Z</time>
      </trkpt>
      <trkpt lat="43.85178" lon="6.50777">
        <ele>747</ele>
        <time>2018-05-25T08:42:30Z</time>
      </trkpt>
      <trkpt lat="43.85185" lon="6.50762">
        <ele>747</ele>
        <time>2018-05-25T08:42:40Z</time>
      </trkpt>
      <trkpt lat="43.85221" lon="6.50695">
        <ele>750</ele>
        <time>2018-05-25T08:42:53Z</time>
      </trkpt>
      <trkpt lat="43.85264" lon="6.50598">
        <ele>748</ele>
        <time>2018-05-25T08:43:07Z</time>
      </trkpt>
      <trkpt lat="43.85323" lon="6.50467">
        <ele>745</ele>
        <time>2018-05-25T08:43:25Z</time>
      </trkpt>
      <trkpt lat="43.85329" lon="6.50455">
        <ele>745</ele>
        <time>2018-05-25T08:43:27Z</time>
      </trkpt>
      <trkpt lat="43.85354" lon="6.50398">
        <ele>745</ele>
        <time>2018-05-25T08:43:36Z</time>
      </trkpt>
      <trkpt lat="43.85397" lon="6.50299">
        <ele>743</ele>
        <time>2018-05-25T08:43:50Z</time>
      </trkpt>
      <trkpt lat="43.8544" lon="6.50211">
        <ele>744</ele>
        <time>2018-05-25T08:44:05Z</time>
      </trkpt>
      <trkpt lat="43.85443" lon="6.50207">
        <ele>744</ele>
        <time>2018-05-25T08:44:06Z</time>
      </trkpt>
      <trkpt lat="43.85446" lon="6.50203">
        <ele>744</ele>
        <time>2018-05-25T08:44:07Z</time>
      </trkpt>
      <trkpt lat="43.85495" lon="6.50142">
        <ele>745</ele>
        <time>2018-05-25T08:44:23Z</time>
      </trkpt>
      <trkpt lat="43.85554" lon="6.5006">
        <ele>746</ele>
        <time>2018-05-25T08:44:45Z</time>
      </trkpt>
      <trkpt lat="43.85573" lon="6.50022">
        <ele>747</ele>
        <time>2018-05-25T08:44:55Z</time>
      </trkpt>
      <trkpt lat="43.85574" lon="6.50018">
        <ele>747</ele>
        <time>2018-05-25T08:44:56Z</time>
      </trkpt>
      <trkpt lat="43.85575" lon="6.50016">
        <ele>747</ele>
        <time>2018-05-25T08:44:57Z</time>
      </trkpt>
      <trkpt lat="43.85576" lon="6.50014">
        <ele>748</ele>
        <time>2018-05-25T08:45:09Z</time>
      </trkpt>
      <trkpt lat="43.85576" lon="6.50015">
        <ele>748</ele>
        <time>2018-05-25T08:45:37Z</time>
      </trkpt>
      <trkpt lat="43.85576" lon="6.50014">
        <ele>748</ele>
        <time>2018-05-25T08:46:11Z</time>
      </trkpt>
      <trkpt lat="43.85577" lon="6.50013">
        <ele>748</ele>
        <time>2018-05-25T08:46:32Z</time>
      </trkpt>
      <trkpt lat="43.85578" lon="6.50013">
        <ele>748</ele>
        <time>2018-05-25T08:47:07Z</time>
      </trkpt>
      <trkpt lat="43.85576" lon="6.50013">
        <ele>748</ele>
        <time>2018-05-25T08:47:41Z</time>
      </trkpt>
      <trkpt lat="43.85576" lon="6.50014">
        <ele>748</ele>
        <time>2018-05-25T08:48:12Z</time>
      </trkpt>
      <trkpt lat="43.85575" lon="6.50015">
        <ele>747</ele>
        <time>2018-05-25T08:48:44Z</time>
      </trkpt>
      <trkpt lat="43.85575" lon="6.50016">
        <ele>747</ele>
        <time>2018-05-25T08:49:25Z</time>
      </trkpt>
      <trkpt lat="43.85576" lon="6.50015">
        <ele>748</ele>
        <time>2018-05-25T08:50:11Z</time>
      </trkpt>
      <trkpt lat="43.85574" lon="6.50011">
        <ele>748</ele>
        <time>2018-05-25T08:50:31Z</time>
      </trkpt>
      <trkpt lat="43.85577" lon="6.49962">
        <ele>749</ele>
        <time>2018-05-25T08:50:42Z</time>
      </trkpt>
      <trkpt lat="43.85577" lon="6.49955">
        <ele>750</ele>
        <time>2018-05-25T08:50:43Z</time>
      </trkpt>
      <trkpt lat="43.85577" lon="6.49942">
        <ele>750</ele>
        <time>2018-05-25T08:50:45Z</time>
      </trkpt>
      <trkpt lat="43.85578" lon="6.49908">
        <ele>752</ele>
        <time>2018-05-25T08:50:50Z</time>
      </trkpt>
      <trkpt lat="43.85581" lon="6.49853">
        <ele>754</ele>
        <time>2018-05-25T08:50:58Z</time>
      </trkpt>
      <trkpt lat="43.85581" lon="6.49806">
        <ele>755</ele>
        <time>2018-05-25T08:51:05Z</time>
      </trkpt>
      <trkpt lat="43.85582" lon="6.49799">
        <ele>755</ele>
        <time>2018-05-25T08:51:06Z</time>
      </trkpt>
      <trkpt lat="43.85583" lon="6.49785">
        <ele>756</ele>
        <time>2018-05-25T08:51:08Z</time>
      </trkpt>
      <trkpt lat="43.85583" lon="6.49778">
        <ele>756</ele>
        <time>2018-05-25T08:51:09Z</time>
      </trkpt>
      <trkpt lat="43.85588" lon="6.49689">
        <ele>760</ele>
        <time>2018-05-25T08:51:24Z</time>
      </trkpt>
      <trkpt lat="43.85595" lon="6.49593">
        <ele>764</ele>
        <time>2018-05-25T08:51:42Z</time>
      </trkpt>
      <trkpt lat="43.85629" lon="6.4956">
        <ele>767</ele>
        <time>2018-05-25T08:51:54Z</time>
      </trkpt>
      <trkpt lat="43.85685" lon="6.49567">
        <ele>771</ele>
        <time>2018-05-25T08:52:10Z</time>
      </trkpt>
      <trkpt lat="43.85723" lon="6.49554">
        <ele>771</ele>
        <time>2018-05-25T08:52:24Z</time>
      </trkpt>
      <trkpt lat="43.85753" lon="6.4952">
        <ele>776</ele>
        <time>2018-05-25T08:52:40Z</time>
      </trkpt>
      <trkpt lat="43.85782" lon="6.49519">
        <ele>775</ele>
        <time>2018-05-25T08:52:53Z</time>
      </trkpt>
      <trkpt lat="43.85816" lon="6.49514">
        <ele>776</ele>
        <time>2018-05-25T08:53:09Z</time>
      </trkpt>
      <trkpt lat="43.85851" lon="6.49506">
        <ele>780</ele>
        <time>2018-05-25T08:53:25Z</time>
      </trkpt>
      <trkpt lat="43.8588" lon="6.49503">
        <ele>783</ele>
        <time>2018-05-25T08:53:38Z</time>
      </trkpt>
      <trkpt lat="43.85924" lon="6.49503">
        <ele>786</ele>
        <time>2018-05-25T08:53:57Z</time>
      </trkpt>
      <trkpt lat="43.85963" lon="6.49507">
        <ele>789</ele>
        <time>2018-05-25T08:54:14Z</time>
      </trkpt>
      <trkpt lat="43.85995" lon="6.49509">
        <ele>794</ele>
        <time>2018-05-25T08:54:28Z</time>
      </trkpt>
      <trkpt lat="43.8603" lon="6.49526">
        <ele>794</ele>
        <time>2018-05-25T08:54:44Z</time>
      </trkpt>
      <trkpt lat="43.8605" lon="6.49549">
        <ele>789</ele>
        <time>2018-05-25T08:54:57Z</time>
      </trkpt>
      <trkpt lat="43.86072" lon="6.49544">
        <ele>790</ele>
        <time>2018-05-25T08:55:08Z</time>
      </trkpt>
      <trkpt lat="43.86073" lon="6.49542">
        <ele>791</ele>
        <time>2018-05-25T08:55:09Z</time>
      </trkpt>
      <trkpt lat="43.86067" lon="6.49534">
        <ele>793</ele>
        <time>2018-05-25T08:55:19Z</time>
      </trkpt>
      <trkpt lat="43.86066" lon="6.49534">
        <ele>793</ele>
        <time>2018-05-25T08:55:39Z</time>
      </trkpt>
      <trkpt lat="43.86066" lon="6.49535">
        <ele>793</ele>
        <time>2018-05-25T08:56:00Z</time>
      </trkpt>
      <trkpt lat="43.86068" lon="6.49536">
        <ele>792</ele>
        <time>2018-05-25T08:56:44Z</time>
      </trkpt>
      <trkpt lat="43.86066" lon="6.49537">
        <ele>792</ele>
        <time>2018-05-25T08:57:22Z</time>
      </trkpt>
      <trkpt lat="43.86067" lon="6.49536">
        <ele>792</ele>
        <time>2018-05-25T08:58:08Z</time>
      </trkpt>
      <trkpt lat="43.86068" lon="6.49535">
        <ele>793</ele>
        <time>2018-05-25T08:59:06Z</time>
      </trkpt>
      <trkpt lat="43.8607" lon="6.49534">
        <ele>793</ele>
        <time>2018-05-25T09:00:03Z</time>
      </trkpt>
      <trkpt lat="43.8607" lon="6.49534">
        <ele>793</ele>
        <time>2018-05-25T09:00:18Z</time>
      </trkpt>
      <trkpt lat="43.8607" lon="6.49534">
        <ele>793</ele>
        <time>2018-05-25T09:00:37Z</time>
      </trkpt>
      <trkpt lat="43.8607" lon="6.49536">
        <ele>792</ele>
        <time>2018-05-25T09:00:56Z</time>
      </trkpt>
      <trkpt lat="43.86069" lon="6.49535">
        <ele>793</ele>
        <time>2018-05-25T09:01:21Z</time>
      </trkpt>
      <trkpt lat="43.86072" lon="6.49539">
        <ele>792</ele>
        <time>2018-05-25T09:01:29Z</time>
      </trkpt>
      <trkpt lat="43.86075" lon="6.49548">
        <ele>789</ele>
        <time>2018-05-25T09:01:35Z</time>
      </trkpt>
      <trkpt lat="43.86083" lon="6.4955">
        <ele>789</ele>
        <time>2018-05-25T09:01:42Z</time>
      </trkpt>
      <trkpt lat="43.86092" lon="6.49545">
        <ele>789</ele>
        <time>2018-05-25T09:01:57Z</time>
      </trkpt>
      <trkpt lat="43.86093" lon="6.49545">
        <ele>789</ele>
        <time>2018-05-25T09:02:14Z</time>
      </trkpt>
      <trkpt lat="43.86093" lon="6.49546">
        <ele>789</ele>
        <time>2018-05-25T09:02:45Z</time>
      </trkpt>
      <trkpt lat="43.86094" lon="6.49544">
        <ele>789</ele>
        <time>2018-05-25T09:03:19Z</time>
      </trkpt>
      <trkpt lat="43.86094" lon="6.49545">
        <ele>789</ele>
        <time>2018-05-25T09:03:51Z</time>
      </trkpt>
      <trkpt lat="43.86095" lon="6.49541">
        <ele>790</ele>
        <time>2018-05-25T09:03:59Z</time>
      </trkpt>
      <trkpt lat="43.86099" lon="6.49539">
        <ele>790</ele>
        <time>2018-05-25T09:04:15Z</time>
      </trkpt>
      <trkpt lat="43.86096" lon="6.49541">
        <ele>790</ele>
        <time>2018-05-25T09:04:48Z</time>
      </trkpt>
      <trkpt lat="43.86097" lon="6.49541">
        <ele>790</ele>
        <time>2018-05-25T09:05:26Z</time>
      </trkpt>
      <trkpt lat="43.86097" lon="6.49537">
        <ele>791</ele>
        <time>2018-05-25T09:06:08Z</time>
      </trkpt>
      <trkpt lat="43.86098" lon="6.49536">
        <ele>791</ele>
        <time>2018-05-25T09:06:32Z</time>
      </trkpt>
      <trkpt lat="43.86098" lon="6.49535">
        <ele>791</ele>
        <time>2018-05-25T09:06:35Z</time>
      </trkpt>
      <trkpt lat="43.86102" lon="6.49516">
        <ele>796</ele>
        <time>2018-05-25T09:06:44Z</time>
      </trkpt>
      <trkpt lat="43.86101" lon="6.49503">
        <ele>800</ele>
        <time>2018-05-25T09:06:50Z</time>
      </trkpt>
      <trkpt lat="43.86094" lon="6.49479">
        <ele>807</ele>
        <time>2018-05-25T09:07:01Z</time>
      </trkpt>
      <trkpt lat="43.86087" lon="6.49471">
        <ele>809</ele>
        <time>2018-05-25T09:07:06Z</time>
      </trkpt>
      <trkpt lat="43.86076" lon="6.49467">
        <ele>810</ele>
        <time>2018-05-25T09:07:12Z</time>
      </trkpt>
      <trkpt lat="43.86046" lon="6.49458">
        <ele>812</ele>
        <time>2018-05-25T09:07:29Z</time>
      </trkpt>
      <trkpt lat="43.86018" lon="6.49453">
        <ele>813</ele>
        <time>2018-05-25T09:07:45Z</time>
      </trkpt>
      <trkpt lat="43.86013" lon="6.49452">
        <ele>814</ele>
        <time>2018-05-25T09:07:48Z</time>
      </trkpt>
      <trkpt lat="43.86006" lon="6.49452">
        <ele>814</ele>
        <time>2018-05-25T09:07:52Z</time>
      </trkpt>
      <trkpt lat="43.85974" lon="6.49449">
        <ele>814</ele>
        <time>2018-05-25T09:08:12Z</time>
      </trkpt>
      <trkpt lat="43.85951" lon="6.49438">
        <ele>819</ele>
        <time>2018-05-25T09:08:29Z</time>
      </trkpt>
      <trkpt lat="43.8593" lon="6.49428">
        <ele>821</ele>
        <time>2018-05-25T09:08:45Z</time>
      </trkpt>
      <trkpt lat="43.85904" lon="6.49422">
        <ele>821</ele>
        <time>2018-05-25T09:09:03Z</time>
      </trkpt>
      <trkpt lat="43.85891" lon="6.49419">
        <ele>821</ele>
        <time>2018-05-25T09:09:12Z</time>
      </trkpt>
      <trkpt lat="43.85866" lon="6.49409">
        <ele>822</ele>
        <time>2018-05-25T09:09:29Z</time>
      </trkpt>
      <trkpt lat="43.8585" lon="6.49388">
        <ele>822</ele>
        <time>2018-05-25T09:09:44Z</time>
      </trkpt>
      <trkpt lat="43.85849" lon="6.49384">
        <ele>823</ele>
        <time>2018-05-25T09:09:46Z</time>
      </trkpt>
      <trkpt lat="43.85853" lon="6.49358">
        <ele>829</ele>
        <time>2018-05-25T09:09:59Z</time>
      </trkpt>
      <trkpt lat="43.8587" lon="6.49324">
        <ele>833</ele>
        <time>2018-05-25T09:10:18Z</time>
      </trkpt>
      <trkpt lat="43.85886" lon="6.49303">
        <ele>838</ele>
        <time>2018-05-25T09:10:33Z</time>
      </trkpt>
      <trkpt lat="43.85902" lon="6.49272">
        <ele>841</ele>
        <time>2018-05-25T09:10:52Z</time>
      </trkpt>
      <trkpt lat="43.85911" lon="6.49244">
        <ele>841</ele>
        <time>2018-05-25T09:11:07Z</time>
      </trkpt>
      <trkpt lat="43.85922" lon="6.49218">
        <ele>840</ele>
        <time>2018-05-25T09:11:21Z</time>
      </trkpt>
      <trkpt lat="43.8594" lon="6.49192">
        <ele>843</ele>
        <time>2018-05-25T09:11:39Z</time>
      </trkpt>
      <trkpt lat="43.85962" lon="6.4917">
        <ele>846</ele>
        <time>2018-05-25T09:11:57Z</time>
      </trkpt>
      <trkpt lat="43.85976" lon="6.49155">
        <ele>848</ele>
        <time>2018-05-25T09:12:09Z</time>
      </trkpt>
      <trkpt lat="43.85982" lon="6.49149">
        <ele>849</ele>
        <time>2018-05-25T09:12:14Z</time>
      </trkpt>
      <trkpt lat="43.85984" lon="6.49146">
        <ele>849</ele>
        <time>2018-05-25T09:12:16Z</time>
      </trkpt>
      <trkpt lat="43.86" lon="6.4913">
        <ele>852</ele>
        <time>2018-05-25T09:12:29Z</time>
      </trkpt>
      <trkpt lat="43.86006" lon="6.4912">
        <ele>854</ele>
        <time>2018-05-25T09:12:35Z</time>
      </trkpt>
      <trkpt lat="43.86007" lon="6.49113">
        <ele>855</ele>
        <time>2018-05-25T09:12:39Z</time>
      </trkpt>
      <trkpt lat="43.86004" lon="6.49078">
        <ele>855</ele>
        <time>2018-05-25T09:12:56Z</time>
      </trkpt>
      <trkpt lat="43.85999" lon="6.49045">
        <ele>854</ele>
        <time>2018-05-25T09:13:14Z</time>
      </trkpt>
      <trkpt lat="43.86002" lon="6.49015">
        <ele>857</ele>
        <time>2018-05-25T09:13:29Z</time>
      </trkpt>
      <trkpt lat="43.86002" lon="6.48999">
        <ele>858</ele>
        <time>2018-05-25T09:13:37Z</time>
      </trkpt>
      <trkpt lat="43.85989" lon="6.4896">
        <ele>852</ele>
        <time>2018-05-25T09:13:56Z</time>
      </trkpt>
      <trkpt lat="43.85989" lon="6.48938">
        <ele>854</ele>
        <time>2018-05-25T09:14:08Z</time>
      </trkpt>
      <trkpt lat="43.86007" lon="6.48941">
        <ele>862</ele>
        <time>2018-05-25T09:14:21Z</time>
      </trkpt>
      <trkpt lat="43.8601" lon="6.48946">
        <ele>863</ele>
        <time>2018-05-25T09:14:24Z</time>
      </trkpt>
      <trkpt lat="43.86017" lon="6.4899">
        <ele>867</ele>
        <time>2018-05-25T09:14:42Z</time>
      </trkpt>
      <trkpt lat="43.86016" lon="6.49033">
        <ele>865</ele>
        <time>2018-05-25T09:14:58Z</time>
      </trkpt>
      <trkpt lat="43.8602" lon="6.49063">
        <ele>866</ele>
        <time>2018-05-25T09:15:11Z</time>
      </trkpt>
      <trkpt lat="43.86035" lon="6.49091">
        <ele>874</ele>
        <time>2018-05-25T09:15:24Z</time>
      </trkpt>
      <trkpt lat="43.86037" lon="6.49133">
        <ele>875</ele>
        <time>2018-05-25T09:15:41Z</time>
      </trkpt>
      <trkpt lat="43.86015" lon="6.49158">
        <ele>871</ele>
        <time>2018-05-25T09:15:56Z</time>
      </trkpt>
      <trkpt lat="43.85998" lon="6.49184">
        <ele>871</ele>
        <time>2018-05-25T09:16:10Z</time>
      </trkpt>
      <trkpt lat="43.85983" lon="6.4922">
        <ele>869</ele>
        <time>2018-05-25T09:16:26Z</time>
      </trkpt>
      <trkpt lat="43.85976" lon="6.49232">
        <ele>869</ele>
        <time>2018-05-25T09:16:32Z</time>
      </trkpt>
      <trkpt lat="43.85975" lon="6.49234">
        <ele>869</ele>
        <time>2018-05-25T09:16:33Z</time>
      </trkpt>
      <trkpt lat="43.85974" lon="6.49236">
        <ele>869</ele>
        <time>2018-05-25T09:16:34Z</time>
      </trkpt>
      <trkpt lat="43.85968" lon="6.49265">
        <ele>868</ele>
        <time>2018-05-25T09:16:46Z</time>
      </trkpt>
      <trkpt lat="43.85969" lon="6.49267">
        <ele>868</ele>
        <time>2018-05-25T09:16:47Z</time>
      </trkpt>
      <trkpt lat="43.85969" lon="6.4927">
        <ele>867</ele>
        <time>2018-05-25T09:16:48Z</time>
      </trkpt>
      <trkpt lat="43.85969" lon="6.49273">
        <ele>867</ele>
        <time>2018-05-25T09:16:49Z</time>
      </trkpt>
      <trkpt lat="43.85969" lon="6.49275">
        <ele>867</ele>
        <time>2018-05-25T09:16:50Z</time>
      </trkpt>
      <trkpt lat="43.85971" lon="6.4928">
        <ele>867</ele>
        <time>2018-05-25T09:16:52Z</time>
      </trkpt>
      <trkpt lat="43.85972" lon="6.49281">
        <ele>867</ele>
        <time>2018-05-25T09:16:53Z</time>
      </trkpt>
      <trkpt lat="43.85974" lon="6.49283">
        <ele>867</ele>
        <time>2018-05-25T09:16:54Z</time>
      </trkpt>
      <trkpt lat="43.85975" lon="6.49285">
        <ele>867</ele>
        <time>2018-05-25T09:16:55Z</time>
      </trkpt>
      <trkpt lat="43.85977" lon="6.49286">
        <ele>867</ele>
        <time>2018-05-25T09:16:56Z</time>
      </trkpt>
      <trkpt lat="43.85979" lon="6.49287">
        <ele>867</ele>
        <time>2018-05-25T09:16:57Z</time>
      </trkpt>
      <trkpt lat="43.86014" lon="6.49277">
        <ele>874</ele>
        <time>2018-05-25T09:17:14Z</time>
      </trkpt>
      <trkpt lat="43.86045" lon="6.49266">
        <ele>878</ele>
        <time>2018-05-25T09:17:31Z</time>
      </trkpt>
      <trkpt lat="43.8608" lon="6.49271">
        <ele>881</ele>
        <time>2018-05-25T09:17:47Z</time>
      </trkpt>
      <trkpt lat="43.86109" lon="6.49276">
        <ele>883</ele>
        <time>2018-05-25T09:18:01Z</time>
      </trkpt>
      <trkpt lat="43.86143" lon="6.49278">
        <ele>886</ele>
        <time>2018-05-25T09:18:16Z</time>
      </trkpt>
      <trkpt lat="43.8618" lon="6.49283">
        <ele>885</ele>
        <time>2018-05-25T09:18:34Z</time>
      </trkpt>
      <trkpt lat="43.86209" lon="6.4927">
        <ele>888</ele>
        <time>2018-05-25T09:18:49Z</time>
      </trkpt>
      <trkpt lat="43.86241" lon="6.49254">
        <ele>890</ele>
        <time>2018-05-25T09:19:05Z</time>
      </trkpt>
      <trkpt lat="43.86275" lon="6.4924">
        <ele>893</ele>
        <time>2018-05-25T09:19:22Z</time>
      </trkpt>
      <trkpt lat="43.86281" lon="6.49239">
        <ele>893</ele>
        <time>2018-05-25T09:19:25Z</time>
      </trkpt>
      <trkpt lat="43.86283" lon="6.49238">
        <ele>893</ele>
        <time>2018-05-25T09:19:26Z</time>
      </trkpt>
      <trkpt lat="43.86285" lon="6.49237">
        <ele>893</ele>
        <time>2018-05-25T09:19:27Z</time>
      </trkpt>
      <trkpt lat="43.86316" lon="6.49221">
        <ele>895</ele>
        <time>2018-05-25T09:19:42Z</time>
      </trkpt>
      <trkpt lat="43.86342" lon="6.49203">
        <ele>895</ele>
        <time>2018-05-25T09:19:56Z</time>
      </trkpt>
      <trkpt lat="43.86372" lon="6.49174">
        <ele>899</ele>
        <time>2018-05-25T09:20:14Z</time>
      </trkpt>
      <trkpt lat="43.86405" lon="6.49148">
        <ele>902</ele>
        <time>2018-05-25T09:20:32Z</time>
      </trkpt>
      <trkpt lat="43.86434" lon="6.49134">
        <ele>905</ele>
        <time>2018-05-25T09:20:49Z</time>
      </trkpt>
      <trkpt lat="43.86463" lon="6.49125">
        <ele>907</ele>
        <time>2018-05-25T09:21:05Z</time>
      </trkpt>
      <trkpt lat="43.86494" lon="6.49115">
        <ele>911</ele>
        <time>2018-05-25T09:21:21Z</time>
      </trkpt>
      <trkpt lat="43.86524" lon="6.49116">
        <ele>912</ele>
        <time>2018-05-25T09:21:36Z</time>
      </trkpt>
      <trkpt lat="43.86552" lon="6.49123">
        <ele>913</ele>
        <time>2018-05-25T09:21:51Z</time>
      </trkpt>
      <trkpt lat="43.86579" lon="6.49131">
        <ele>916</ele>
        <time>2018-05-25T09:22:05Z</time>
      </trkpt>
      <trkpt lat="43.86607" lon="6.49144">
        <ele>916</ele>
        <time>2018-05-25T09:22:20Z</time>
      </trkpt>
      <trkpt lat="43.86639" lon="6.49158">
        <ele>916</ele>
        <time>2018-05-25T09:22:38Z</time>
      </trkpt>
      <trkpt lat="43.8666" lon="6.49152">
        <ele>908</ele>
        <time>2018-05-25T09:22:50Z</time>
      </trkpt>
      <trkpt lat="43.86656" lon="6.4912">
        <ele>920</ele>
        <time>2018-05-25T09:23:02Z</time>
      </trkpt>
      <trkpt lat="43.86635" lon="6.49113">
        <ele>929</ele>
        <time>2018-05-25T09:23:13Z</time>
      </trkpt>
      <trkpt lat="43.8661" lon="6.49106">
        <ele>929</ele>
        <time>2018-05-25T09:23:27Z</time>
      </trkpt>
      <trkpt lat="43.86576" lon="6.49087">
        <ele>932</ele>
        <time>2018-05-25T09:23:46Z</time>
      </trkpt>
      <trkpt lat="43.8655" lon="6.49073">
        <ele>935</ele>
        <time>2018-05-25T09:24:01Z</time>
      </trkpt>
      <trkpt lat="43.8652" lon="6.49062">
        <ele>937</ele>
        <time>2018-05-25T09:24:17Z</time>
      </trkpt>
      <trkpt lat="43.86491" lon="6.49055">
        <ele>938</ele>
        <time>2018-05-25T09:24:32Z</time>
      </trkpt>
      <trkpt lat="43.86458" lon="6.49056">
        <ele>938</ele>
        <time>2018-05-25T09:24:48Z</time>
      </trkpt>
      <trkpt lat="43.86438" lon="6.49057">
        <ele>940</ele>
        <time>2018-05-25T09:24:58Z</time>
      </trkpt>
      <trkpt lat="43.86436" lon="6.49057">
        <ele>940</ele>
        <time>2018-05-25T09:24:59Z</time>
      </trkpt>
      <trkpt lat="43.86434" lon="6.49057">
        <ele>940</ele>
        <time>2018-05-25T09:25:00Z</time>
      </trkpt>
      <trkpt lat="43.86403" lon="6.49057">
        <ele>944</ele>
        <time>2018-05-25T09:25:15Z</time>
      </trkpt>
      <trkpt lat="43.86373" lon="6.49063">
        <ele>946</ele>
        <time>2018-05-25T09:25:30Z</time>
      </trkpt>
      <trkpt lat="43.8635" lon="6.49074">
        <ele>945</ele>
        <time>2018-05-25T09:25:43Z</time>
      </trkpt>
      <trkpt lat="43.86319" lon="6.4909">
        <ele>944</ele>
        <time>2018-05-25T09:26:00Z</time>
      </trkpt>
      <trkpt lat="43.8629" lon="6.49092">
        <ele>946</ele>
        <time>2018-05-25T09:26:15Z</time>
      </trkpt>
      <trkpt lat="43.8626" lon="6.49079">
        <ele>951</ele>
        <time>2018-05-25T09:26:33Z</time>
      </trkpt>
      <trkpt lat="43.86231" lon="6.49062">
        <ele>955</ele>
        <time>2018-05-25T09:26:49Z</time>
      </trkpt>
      <trkpt lat="43.86203" lon="6.49028">
        <ele>959</ele>
        <time>2018-05-25T09:27:07Z</time>
      </trkpt>
      <trkpt lat="43.86179" lon="6.48996">
        <ele>960</ele>
        <time>2018-05-25T09:27:23Z</time>
      </trkpt>
      <trkpt lat="43.8616" lon="6.48957">
        <ele>963</ele>
        <time>2018-05-25T09:27:39Z</time>
      </trkpt>
      <trkpt lat="43.8616" lon="6.48951">
        <ele>965</ele>
        <time>2018-05-25T09:27:41Z</time>
      </trkpt>
      <trkpt lat="43.86161" lon="6.48948">
        <ele>965</ele>
        <time>2018-05-25T09:27:42Z</time>
      </trkpt>
      <trkpt lat="43.86162" lon="6.48946">
        <ele>966</ele>
        <time>2018-05-25T09:27:43Z</time>
      </trkpt>
      <trkpt lat="43.86165" lon="6.48943">
        <ele>967</ele>
        <time>2018-05-25T09:27:45Z</time>
      </trkpt>
      <trkpt lat="43.86167" lon="6.48943">
        <ele>967</ele>
        <time>2018-05-25T09:27:46Z</time>
      </trkpt>
      <trkpt lat="43.86169" lon="6.48945">
        <ele>967</ele>
        <time>2018-05-25T09:27:47Z</time>
      </trkpt>
      <trkpt lat="43.86171" lon="6.48947">
        <ele>967</ele>
        <time>2018-05-25T09:27:48Z</time>
      </trkpt>
      <trkpt lat="43.86172" lon="6.48949">
        <ele>967</ele>
        <time>2018-05-25T09:27:49Z</time>
      </trkpt>
      <trkpt lat="43.86191" lon="6.4898">
        <ele>966</ele>
        <time>2018-05-25T09:28:03Z</time>
      </trkpt>
      <trkpt lat="43.86221" lon="6.48982">
        <ele>968</ele>
        <time>2018-05-25T09:28:18Z</time>
      </trkpt>
      <trkpt lat="43.86249" lon="6.48985">
        <ele>969</ele>
        <time>2018-05-25T09:28:32Z</time>
      </trkpt>
      <trkpt lat="43.86287" lon="6.48994">
        <ele>970</ele>
        <time>2018-05-25T09:28:51Z</time>
      </trkpt>
      <trkpt lat="43.86316" lon="6.49006">
        <ele>968</ele>
        <time>2018-05-25T09:29:06Z</time>
      </trkpt>
      <trkpt lat="43.86347" lon="6.49003">
        <ele>969</ele>
        <time>2018-05-25T09:29:22Z</time>
      </trkpt>
      <trkpt lat="43.86376" lon="6.48992">
        <ele>971</ele>
        <time>2018-05-25T09:29:38Z</time>
      </trkpt>
      <trkpt lat="43.8641" lon="6.48981">
        <ele>973</ele>
        <time>2018-05-25T09:29:56Z</time>
      </trkpt>
      <trkpt lat="43.86445" lon="6.48972">
        <ele>976</ele>
        <time>2018-05-25T09:30:14Z</time>
      </trkpt>
      <trkpt lat="43.8647" lon="6.48957">
        <ele>979</ele>
        <time>2018-05-25T09:30:28Z</time>
      </trkpt>
      <trkpt lat="43.86502" lon="6.48932">
        <ele>984</ele>
        <time>2018-05-25T09:30:47Z</time>
      </trkpt>
      <trkpt lat="43.86541" lon="6.48918">
        <ele>986</ele>
        <time>2018-05-25T09:31:06Z</time>
      </trkpt>
      <trkpt lat="43.86568" lon="6.48897">
        <ele>988</ele>
        <time>2018-05-25T09:31:21Z</time>
      </trkpt>
      <trkpt lat="43.8657" lon="6.48894">
        <ele>988</ele>
        <time>2018-05-25T09:31:32Z</time>
      </trkpt>
      <trkpt lat="43.86569" lon="6.48894">
        <ele>988</ele>
        <time>2018-05-25T09:32:02Z</time>
      </trkpt>
      <trkpt lat="43.86568" lon="6.48892">
        <ele>989</ele>
        <time>2018-05-25T09:32:45Z</time>
      </trkpt>
      <trkpt lat="43.86569" lon="6.48894">
        <ele>989</ele>
        <time>2018-05-25T09:33:37Z</time>
      </trkpt>
      <trkpt lat="43.86569" lon="6.48894">
        <ele>988</ele>
        <time>2018-05-25T09:34:24Z</time>
      </trkpt>
      <trkpt lat="43.86569" lon="6.48893">
        <ele>989</ele>
        <time>2018-05-25T09:34:39Z</time>
      </trkpt>
      <trkpt lat="43.86568" lon="6.48892">
        <ele>989</ele>
        <time>2018-05-25T09:35:06Z</time>
      </trkpt>
      <trkpt lat="43.86569" lon="6.48891">
        <ele>989</ele>
        <time>2018-05-25T09:35:33Z</time>
      </trkpt>
      <trkpt lat="43.86569" lon="6.48892">
        <ele>989</ele>
        <time>2018-05-25T09:36:00Z</time>
      </trkpt>
      <trkpt lat="43.8657" lon="6.48892">
        <ele>989</ele>
        <time>2018-05-25T09:36:25Z</time>
      </trkpt>
      <trkpt lat="43.86569" lon="6.48893">
        <ele>989</ele>
        <time>2018-05-25T09:36:50Z</time>
      </trkpt>
      <trkpt lat="43.86568" lon="6.48892">
        <ele>989</ele>
        <time>2018-05-25T09:37:19Z</time>
      </trkpt>
      <trkpt lat="43.8657" lon="6.48892">
        <ele>989</ele>
        <time>2018-05-25T09:37:51Z</time>
      </trkpt>
      <trkpt lat="43.86569" lon="6.4889">
        <ele>989</ele>
        <time>2018-05-25T09:38:11Z</time>
      </trkpt>
      <trkpt lat="43.8657" lon="6.48891">
        <ele>989</ele>
        <time>2018-05-25T09:38:37Z</time>
      </trkpt>
      <trkpt lat="43.8657" lon="6.4889">
        <ele>989</ele>
        <time>2018-05-25T09:39:03Z</time>
      </trkpt>
      <trkpt lat="43.86569" lon="6.48892">
        <ele>989</ele>
        <time>2018-05-25T09:39:26Z</time>
      </trkpt>
      <trkpt lat="43.86568" lon="6.48893">
        <ele>989</ele>
        <time>2018-05-25T09:39:50Z</time>
      </trkpt>
      <trkpt lat="43.86568" lon="6.48891">
        <ele>989</ele>
        <time>2018-05-25T09:40:13Z</time>
      </trkpt>
      <trkpt lat="43.86568" lon="6.48891">
        <ele>989</ele>
        <time>2018-05-25T09:40:30Z</time>
      </trkpt>
      <trkpt lat="43.86569" lon="6.48892">
        <ele>989</ele>
        <time>2018-05-25T09:40:55Z</time>
      </trkpt>
      <trkpt lat="43.8657" lon="6.48892">
        <ele>989</ele>
        <time>2018-05-25T09:41:22Z</time>
      </trkpt>
      <trkpt lat="43.86569" lon="6.48892">
        <ele>989</ele>
        <time>2018-05-25T09:41:46Z</time>
      </trkpt>
      <trkpt lat="43.86569" lon="6.48894">
        <ele>988</ele>
        <time>2018-05-25T09:42:11Z</time>
      </trkpt>
      <trkpt lat="43.86568" lon="6.48894">
        <ele>989</ele>
        <time>2018-05-25T09:42:34Z</time>
      </trkpt>
      <trkpt lat="43.86568" lon="6.48892">
        <ele>989</ele>
        <time>2018-05-25T09:43:02Z</time>
      </trkpt>
      <trkpt lat="43.8657" lon="6.48893">
        <ele>989</ele>
        <time>2018-05-25T09:43:23Z</time>
      </trkpt>
      <trkpt lat="43.86569" lon="6.48893">
        <ele>989</ele>
        <time>2018-05-25T09:43:39Z</time>
      </trkpt>
      <trkpt lat="43.86567" lon="6.48893">
        <ele>989</ele>
        <time>2018-05-25T09:44:05Z</time>
      </trkpt>
      <trkpt lat="43.86568" lon="6.48892">
        <ele>989</ele>
        <time>2018-05-25T09:44:37Z</time>
      </trkpt>
      <trkpt lat="43.86569" lon="6.48892">
        <ele>989</ele>
        <time>2018-05-25T09:45:01Z</time>
      </trkpt>
      <trkpt lat="43.8657" lon="6.48891">
        <ele>989</ele>
        <time>2018-05-25T09:45:24Z</time>
      </trkpt>
      <trkpt lat="43.86568" lon="6.48895">
        <ele>988</ele>
        <time>2018-05-25T09:45:51Z</time>
      </trkpt>
      <trkpt lat="43.86568" lon="6.48894">
        <ele>988</ele>
        <time>2018-05-25T09:46:16Z</time>
      </trkpt>
      <trkpt lat="43.86568" lon="6.48893">
        <ele>989</ele>
        <time>2018-05-25T09:46:39Z</time>
      </trkpt>
      <trkpt lat="43.8657" lon="6.48894">
        <ele>988</ele>
        <time>2018-05-25T09:47:02Z</time>
      </trkpt>
      <trkpt lat="43.8657" lon="6.48892">
        <ele>989</ele>
        <time>2018-05-25T09:47:18Z</time>
      </trkpt>
      <trkpt lat="43.8657" lon="6.48892">
        <ele>989</ele>
        <time>2018-05-25T09:47:44Z</time>
      </trkpt>
      <trkpt lat="43.8657" lon="6.48891">
        <ele>989</ele>
        <time>2018-05-25T09:48:08Z</time>
      </trkpt>
      <trkpt lat="43.86569" lon="6.48889">
        <ele>989</ele>
        <time>2018-05-25T09:48:29Z</time>
      </trkpt>
      <trkpt lat="43.8657" lon="6.4889">
        <ele>989</ele>
        <time>2018-05-25T09:48:50Z</time>
      </trkpt>
      <trkpt lat="43.86571" lon="6.48889">
        <ele>989</ele>
        <time>2018-05-25T09:49:03Z</time>
      </trkpt>
      <trkpt lat="43.86571" lon="6.48888">
        <ele>989</ele>
        <time>2018-05-25T09:49:04Z</time>
      </trkpt>
      <trkpt lat="43.86572" lon="6.48886">
        <ele>989</ele>
        <time>2018-05-25T09:49:05Z</time>
      </trkpt>
      <trkpt lat="43.86573" lon="6.48884">
        <ele>989</ele>
        <time>2018-05-25T09:49:06Z</time>
      </trkpt>
      <trkpt lat="43.86574" lon="6.48882">
        <ele>990</ele>
        <time>2018-05-25T09:49:07Z</time>
      </trkpt>
      <trkpt lat="43.86588" lon="6.48856">
        <ele>991</ele>
        <time>2018-05-25T09:49:20Z</time>
      </trkpt>
      <trkpt lat="43.86608" lon="6.48811">
        <ele>993</ele>
        <time>2018-05-25T09:49:40Z</time>
      </trkpt>
      <trkpt lat="43.86619" lon="6.4877">
        <ele>998</ele>
        <time>2018-05-25T09:49:57Z</time>
      </trkpt>
      <trkpt lat="43.86644" lon="6.48744">
        <ele>1002</ele>
        <time>2018-05-25T09:50:15Z</time>
      </trkpt>
      <trkpt lat="43.86676" lon="6.48738">
        <ele>1001</ele>
        <time>2018-05-25T09:50:33Z</time>
      </trkpt>
      <trkpt lat="43.86703" lon="6.48718">
        <ele>1001</ele>
        <time>2018-05-25T09:50:50Z</time>
      </trkpt>
      <trkpt lat="43.86729" lon="6.4869">
        <ele>1003</ele>
        <time>2018-05-25T09:51:08Z</time>
      </trkpt>
      <trkpt lat="43.86754" lon="6.4865">
        <ele>1002</ele>
        <time>2018-05-25T09:51:29Z</time>
      </trkpt>
      <trkpt lat="43.86747" lon="6.48617">
        <ele>1005</ele>
        <time>2018-05-25T09:51:42Z</time>
      </trkpt>
      <trkpt lat="43.86744" lon="6.48613">
        <ele>1006</ele>
        <time>2018-05-25T09:51:44Z</time>
      </trkpt>
      <trkpt lat="43.86742" lon="6.4861">
        <ele>1007</ele>
        <time>2018-05-25T09:51:45Z</time>
      </trkpt>
      <trkpt lat="43.86741" lon="6.48609">
        <ele>1008</ele>
        <time>2018-05-25T09:51:46Z</time>
      </trkpt>
      <trkpt lat="43.86739" lon="6.48607">
        <ele>1009</ele>
        <time>2018-05-25T09:51:47Z</time>
      </trkpt>
      <trkpt lat="43.86737" lon="6.48606">
        <ele>1009</ele>
        <time>2018-05-25T09:51:48Z</time>
      </trkpt>
      <trkpt lat="43.86735" lon="6.48606">
        <ele>1010</ele>
        <time>2018-05-25T09:51:49Z</time>
      </trkpt>
      <trkpt lat="43.86732" lon="6.48606">
        <ele>1011</ele>
        <time>2018-05-25T09:51:50Z</time>
      </trkpt>
      <trkpt lat="43.86706" lon="6.48619">
        <ele>1016</ele>
        <time>2018-05-25T09:52:03Z</time>
      </trkpt>
      <trkpt lat="43.86677" lon="6.4864">
        <ele>1019</ele>
        <time>2018-05-25T09:52:20Z</time>
      </trkpt>
      <trkpt lat="43.86647" lon="6.48655">
        <ele>1021</ele>
        <time>2018-05-25T09:52:37Z</time>
      </trkpt>
      <trkpt lat="43.86619" lon="6.48652">
        <ele>1024</ele>
        <time>2018-05-25T09:52:53Z</time>
      </trkpt>
      <trkpt lat="43.8659" lon="6.48643">
        <ele>1026</ele>
        <time>2018-05-25T09:53:10Z</time>
      </trkpt>
      <trkpt lat="43.86564" lon="6.48635">
        <ele>1028</ele>
        <time>2018-05-25T09:53:25Z</time>
      </trkpt>
      <trkpt lat="43.86542" lon="6.48646">
        <ele>1029</ele>
        <time>2018-05-25T09:53:38Z</time>
      </trkpt>
      <trkpt lat="43.86527" lon="6.48681">
        <ele>1027</ele>
        <time>2018-05-25T09:53:54Z</time>
      </trkpt>
      <trkpt lat="43.86501" lon="6.487">
        <ele>1028</ele>
        <time>2018-05-25T09:54:10Z</time>
      </trkpt>
      <trkpt lat="43.86465" lon="6.487">
        <ele>1031</ele>
        <time>2018-05-25T09:54:29Z</time>
      </trkpt>
      <trkpt lat="43.8644" lon="6.4868">
        <ele>1035</ele>
        <time>2018-05-25T09:54:44Z</time>
      </trkpt>
      <trkpt lat="43.86417" lon="6.4865">
        <ele>1040</ele>
        <time>2018-05-25T09:55:01Z</time>
      </trkpt>
      <trkpt lat="43.86396" lon="6.48616">
        <ele>1044</ele>
        <time>2018-05-25T09:55:18Z</time>
      </trkpt>
      <trkpt lat="43.86374" lon="6.48587">
        <ele>1045</ele>
        <time>2018-05-25T09:55:34Z</time>
      </trkpt>
      <trkpt lat="43.86352" lon="6.48572">
        <ele>1044</ele>
        <time>2018-05-25T09:55:46Z</time>
      </trkpt>
      <trkpt lat="43.86346" lon="6.48551">
        <ele>1044</ele>
        <time>2018-05-25T09:55:53Z</time>
      </trkpt>
      <trkpt lat="43.86347" lon="6.48549">
        <ele>1044</ele>
        <time>2018-05-25T09:55:54Z</time>
      </trkpt>
      <trkpt lat="43.86348" lon="6.48546">
        <ele>1044</ele>
        <time>2018-05-25T09:55:55Z</time>
      </trkpt>
      <trkpt lat="43.86349" lon="6.48544">
        <ele>1045</ele>
        <time>2018-05-25T09:55:56Z</time>
      </trkpt>
      <trkpt lat="43.86351" lon="6.48543">
        <ele>1045</ele>
        <time>2018-05-25T09:55:57Z</time>
      </trkpt>
      <trkpt lat="43.86353" lon="6.48542">
        <ele>1046</ele>
        <time>2018-05-25T09:55:58Z</time>
      </trkpt>
      <trkpt lat="43.86356" lon="6.48541">
        <ele>1046</ele>
        <time>2018-05-25T09:55:59Z</time>
      </trkpt>
      <trkpt lat="43.86358" lon="6.48541">
        <ele>1046</ele>
        <time>2018-05-25T09:56:00Z</time>
      </trkpt>
      <trkpt lat="43.8636" lon="6.48542">
        <ele>1047</ele>
        <time>2018-05-25T09:56:01Z</time>
      </trkpt>
      <trkpt lat="43.86362" lon="6.48543">
        <ele>1047</ele>
        <time>2018-05-25T09:56:02Z</time>
      </trkpt>
      <trkpt lat="43.86364" lon="6.48544">
        <ele>1047</ele>
        <time>2018-05-25T09:56:03Z</time>
      </trkpt>
      <trkpt lat="43.86395" lon="6.48563">
        <ele>1050</ele>
        <time>2018-05-25T09:56:20Z</time>
      </trkpt>
      <trkpt lat="43.86427" lon="6.48562">
        <ele>1052</ele>
        <time>2018-05-25T09:56:36Z</time>
      </trkpt>
      <trkpt lat="43.86454" lon="6.48551">
        <ele>1052</ele>
        <time>2018-05-25T09:56:50Z</time>
      </trkpt>
      <trkpt lat="43.86484" lon="6.48537">
        <ele>1052</ele>
        <time>2018-05-25T09:57:04Z</time>
      </trkpt>
      <trkpt lat="43.86503" lon="6.4852">
        <ele>1055</ele>
        <time>2018-05-25T09:57:14Z</time>
      </trkpt>
      <trkpt lat="43.86501" lon="6.48504">
        <ele>1059</ele>
        <time>2018-05-25T09:57:19Z</time>
      </trkpt>
      <trkpt lat="43.86473" lon="6.48503">
        <ele>1060</ele>
        <time>2018-05-25T09:57:30Z</time>
      </trkpt>
      <trkpt lat="43.86432" lon="6.48512">
        <ele>1059</ele>
        <time>2018-05-25T09:57:44Z</time>
      </trkpt>
      <trkpt lat="43.86415" lon="6.48482">
        <ele>1061</ele>
        <time>2018-05-25T09:57:55Z</time>
      </trkpt>
      <trkpt lat="43.86415" lon="6.48479">
        <ele>1061</ele>
        <time>2018-05-25T09:57:56Z</time>
      </trkpt>
      <trkpt lat="43.86413" lon="6.48424">
        <ele>1068</ele>
        <time>2018-05-25T09:58:13Z</time>
      </trkpt>
      <trkpt lat="43.86396" lon="6.48374">
        <ele>1069</ele>
        <time>2018-05-25T09:58:30Z</time>
      </trkpt>
      <trkpt lat="43.86396" lon="6.4833">
        <ele>1072</ele>
        <time>2018-05-25T09:58:44Z</time>
      </trkpt>
      <trkpt lat="43.86402" lon="6.48278">
        <ele>1075</ele>
        <time>2018-05-25T09:59:01Z</time>
      </trkpt>
      <trkpt lat="43.8641" lon="6.48231">
        <ele>1077</ele>
        <time>2018-05-25T09:59:18Z</time>
      </trkpt>
      <trkpt lat="43.86428" lon="6.48189">
        <ele>1076</ele>
        <time>2018-05-25T09:59:35Z</time>
      </trkpt>
      <trkpt lat="43.86454" lon="6.48161">
        <ele>1080</ele>
        <time>2018-05-25T09:59:50Z</time>
      </trkpt>
      <trkpt lat="43.86479" lon="6.48129">
        <ele>1086</ele>
        <time>2018-05-25T10:00:06Z</time>
      </trkpt>
      <trkpt lat="43.86498" lon="6.48081">
        <ele>1089</ele>
        <time>2018-05-25T10:00:19Z</time>
      </trkpt>
      <trkpt lat="43.86506" lon="6.48043">
        <ele>1091</ele>
        <time>2018-05-25T10:00:27Z</time>
      </trkpt>
      <trkpt lat="43.86505" lon="6.48039">
        <ele>1089</ele>
        <time>2018-05-25T10:00:28Z</time>
      </trkpt>
      <trkpt lat="43.86503" lon="6.48036">
        <ele>1088</ele>
        <time>2018-05-25T10:00:29Z</time>
      </trkpt>
      <trkpt lat="43.86503" lon="6.48035">
        <ele>1088</ele>
        <time>2018-05-25T10:00:40Z</time>
      </trkpt>
      <trkpt lat="43.86503" lon="6.48034">
        <ele>1088</ele>
        <time>2018-05-25T10:01:08Z</time>
      </trkpt>
      <trkpt lat="43.86502" lon="6.48034">
        <ele>1087</ele>
        <time>2018-05-25T10:01:34Z</time>
      </trkpt>
      <trkpt lat="43.86501" lon="6.48031">
        <ele>1087</ele>
        <time>2018-05-25T10:01:56Z</time>
      </trkpt>
      <trkpt lat="43.86501" lon="6.48029">
        <ele>1087</ele>
        <time>2018-05-25T10:01:57Z</time>
      </trkpt>
      <trkpt lat="43.86503" lon="6.48027">
        <ele>1087</ele>
        <time>2018-05-25T10:01:58Z</time>
      </trkpt>
      <trkpt lat="43.86504" lon="6.48025">
        <ele>1088</ele>
        <time>2018-05-25T10:01:59Z</time>
      </trkpt>
      <trkpt lat="43.86507" lon="6.48024">
        <ele>1088</ele>
        <time>2018-05-25T10:02:00Z</time>
      </trkpt>
      <trkpt lat="43.86509" lon="6.48022">
        <ele>1089</ele>
        <time>2018-05-25T10:02:01Z</time>
      </trkpt>
      <trkpt lat="43.86511" lon="6.4802">
        <ele>1090</ele>
        <time>2018-05-25T10:02:02Z</time>
      </trkpt>
      <trkpt lat="43.86525" lon="6.47969">
        <ele>1092</ele>
        <time>2018-05-25T10:02:13Z</time>
      </trkpt>
      <trkpt lat="43.86533" lon="6.47906">
        <ele>1094</ele>
        <time>2018-05-25T10:02:26Z</time>
      </trkpt>
      <trkpt lat="43.86536" lon="6.47846">
        <ele>1092</ele>
        <time>2018-05-25T10:02:40Z</time>
      </trkpt>
      <trkpt lat="43.8656" lon="6.47797">
        <ele>1095</ele>
        <time>2018-05-25T10:02:54Z</time>
      </trkpt>
      <trkpt lat="43.86607" lon="6.47741">
        <ele>1097</ele>
        <time>2018-05-25T10:03:14Z</time>
      </trkpt>
      <trkpt lat="43.86645" lon="6.4769">
        <ele>1101</ele>
        <time>2018-05-25T10:03:30Z</time>
      </trkpt>
      <trkpt lat="43.86662" lon="6.47629">
        <ele>1103</ele>
        <time>2018-05-25T10:03:44Z</time>
      </trkpt>
      <trkpt lat="43.8667" lon="6.47542">
        <ele>1103</ele>
        <time>2018-05-25T10:04:02Z</time>
      </trkpt>
      <trkpt lat="43.86696" lon="6.47481">
        <ele>1105</ele>
        <time>2018-05-25T10:04:17Z</time>
      </trkpt>
      <trkpt lat="43.86727" lon="6.47427">
        <ele>1107</ele>
        <time>2018-05-25T10:04:31Z</time>
      </trkpt>
      <trkpt lat="43.86732" lon="6.4737">
        <ele>1106</ele>
        <time>2018-05-25T10:04:44Z</time>
      </trkpt>
      <trkpt lat="43.86744" lon="6.4733">
        <ele>1111</ele>
        <time>2018-05-25T10:04:56Z</time>
      </trkpt>
      <trkpt lat="43.86774" lon="6.47273">
        <ele>1117</ele>
        <time>2018-05-25T10:05:15Z</time>
      </trkpt>
      <trkpt lat="43.86799" lon="6.47224">
        <ele>1120</ele>
        <time>2018-05-25T10:05:31Z</time>
      </trkpt>
      <trkpt lat="43.86822" lon="6.47167">
        <ele>1115</ele>
        <time>2018-05-25T10:05:47Z</time>
      </trkpt>
      <trkpt lat="43.86824" lon="6.47164">
        <ele>1115</ele>
        <time>2018-05-25T10:05:48Z</time>
      </trkpt>
      <trkpt lat="43.86827" lon="6.47161">
        <ele>1116</ele>
        <time>2018-05-25T10:05:49Z</time>
      </trkpt>
      <trkpt lat="43.86829" lon="6.47159">
        <ele>1116</ele>
        <time>2018-05-25T10:05:50Z</time>
      </trkpt>
      <trkpt lat="43.86832" lon="6.47157">
        <ele>1116</ele>
        <time>2018-05-25T10:05:51Z</time>
      </trkpt>
      <trkpt lat="43.86834" lon="6.47156">
        <ele>1117</ele>
        <time>2018-05-25T10:05:52Z</time>
      </trkpt>
      <trkpt lat="43.86866" lon="6.47121">
        <ele>1122</ele>
        <time>2018-05-25T10:06:07Z</time>
      </trkpt>
      <trkpt lat="43.86867" lon="6.47062">
        <ele>1119</ele>
        <time>2018-05-25T10:06:19Z</time>
      </trkpt>
      <trkpt lat="43.8687" lon="6.47046">
        <ele>1119</ele>
        <time>2018-05-25T10:06:22Z</time>
      </trkpt>
      <trkpt lat="43.86871" lon="6.4704">
        <ele>1120</ele>
        <time>2018-05-25T10:06:23Z</time>
      </trkpt>
      <trkpt lat="43.86872" lon="6.47034">
        <ele>1120</ele>
        <time>2018-05-25T10:06:24Z</time>
      </trkpt>
      <trkpt lat="43.86873" lon="6.47028">
        <ele>1120</ele>
        <time>2018-05-25T10:06:25Z</time>
      </trkpt>
      <trkpt lat="43.86875" lon="6.47023">
        <ele>1121</ele>
        <time>2018-05-25T10:06:26Z</time>
      </trkpt>
      <trkpt lat="43.86881" lon="6.47">
        <ele>1122</ele>
        <time>2018-05-25T10:06:30Z</time>
      </trkpt>
      <trkpt lat="43.86902" lon="6.46929">
        <ele>1126</ele>
        <time>2018-05-25T10:06:45Z</time>
      </trkpt>
      <trkpt lat="43.86897" lon="6.46869">
        <ele>1126</ele>
        <time>2018-05-25T10:06:57Z</time>
      </trkpt>
      <trkpt lat="43.86902" lon="6.46805">
        <ele>1128</ele>
        <time>2018-05-25T10:07:11Z</time>
      </trkpt>
      <trkpt lat="43.86875" lon="6.46756">
        <ele>1129</ele>
        <time>2018-05-25T10:07:26Z</time>
      </trkpt>
      <trkpt lat="43.86847" lon="6.46732">
        <ele>1132</ele>
        <time>2018-05-25T10:07:40Z</time>
      </trkpt>
      <trkpt lat="43.86814" lon="6.46742">
        <ele>1130</ele>
        <time>2018-05-25T10:07:53Z</time>
      </trkpt>
      <trkpt lat="43.8677" lon="6.46764">
        <ele>1129</ele>
        <time>2018-05-25T10:08:10Z</time>
      </trkpt>
      <trkpt lat="43.86726" lon="6.46758">
        <ele>1132</ele>
        <time>2018-05-25T10:08:26Z</time>
      </trkpt>
      <trkpt lat="43.86679" lon="6.4677">
        <ele>1133</ele>
        <time>2018-05-25T10:08:43Z</time>
      </trkpt>
      <trkpt lat="43.86626" lon="6.46795">
        <ele>1133</ele>
        <time>2018-05-25T10:09:00Z</time>
      </trkpt>
      <trkpt lat="43.86598" lon="6.4676">
        <ele>1136</ele>
        <time>2018-05-25T10:09:11Z</time>
      </trkpt>
      <trkpt lat="43.86579" lon="6.4671">
        <ele>1139</ele>
        <time>2018-05-25T10:09:26Z</time>
      </trkpt>
      <trkpt lat="43.86554" lon="6.46676">
        <ele>1140</ele>
        <time>2018-05-25T10:09:40Z</time>
      </trkpt>
      <trkpt lat="43.86516" lon="6.46651">
        <ele>1140</ele>
        <time>2018-05-25T10:09:57Z</time>
      </trkpt>
      <trkpt lat="43.86498" lon="6.46615">
        <ele>1140</ele>
        <time>2018-05-25T10:10:11Z</time>
      </trkpt>
      <trkpt lat="43.86509" lon="6.46554">
        <ele>1143</ele>
        <time>2018-05-25T10:10:28Z</time>
      </trkpt>
      <trkpt lat="43.86524" lon="6.46498">
        <ele>1144</ele>
        <time>2018-05-25T10:10:42Z</time>
      </trkpt>
      <trkpt lat="43.86546" lon="6.46442">
        <ele>1147</ele>
        <time>2018-05-25T10:10:57Z</time>
      </trkpt>
      <trkpt lat="43.86551" lon="6.4641">
        <ele>1148</ele>
        <time>2018-05-25T10:11:05Z</time>
      </trkpt>
      <trkpt lat="43.86553" lon="6.46409">
        <ele>1148</ele>
        <time>2018-05-25T10:11:06Z</time>
      </trkpt>
      <trkpt lat="43.86555" lon="6.46408">
        <ele>1148</ele>
        <time>2018-05-25T10:11:07Z</time>
      </trkpt>
      <trkpt lat="43.86555" lon="6.46407">
        <ele>1148</ele>
        <time>2018-05-25T10:11:20Z</time>
      </trkpt>
      <trkpt lat="43.86558" lon="6.46408">
        <ele>1148</ele>
        <time>2018-05-25T10:11:34Z</time>
      </trkpt>
      <trkpt lat="43.86558" lon="6.46409">
        <ele>1148</ele>
        <time>2018-05-25T10:11:35Z</time>
      </trkpt>
      <trkpt lat="43.86559" lon="6.46411">
        <ele>1148</ele>
        <time>2018-05-25T10:11:36Z</time>
      </trkpt>
      <trkpt lat="43.86558" lon="6.46413">
        <ele>1148</ele>
        <time>2018-05-25T10:11:52Z</time>
      </trkpt>
      <trkpt lat="43.86559" lon="6.46412">
        <ele>1148</ele>
        <time>2018-05-25T10:12:45Z</time>
      </trkpt>
      <trkpt lat="43.86559" lon="6.46412">
        <ele>1148</ele>
        <time>2018-05-25T10:13:37Z</time>
      </trkpt>
      <trkpt lat="43.86559" lon="6.46412">
        <ele>1148</ele>
        <time>2018-05-25T10:14:25Z</time>
      </trkpt>
      <trkpt lat="43.86557" lon="6.46413">
        <ele>1148</ele>
        <time>2018-05-25T10:15:14Z</time>
      </trkpt>
      <trkpt lat="43.86559" lon="6.46412">
        <ele>1148</ele>
        <time>2018-05-25T10:16:05Z</time>
      </trkpt>
      <trkpt lat="43.86559" lon="6.46412">
        <ele>1148</ele>
        <time>2018-05-25T10:16:50Z</time>
      </trkpt>
      <trkpt lat="43.86559" lon="6.4641">
        <ele>1148</ele>
        <time>2018-05-25T10:17:49Z</time>
      </trkpt>
      <trkpt lat="43.8656" lon="6.46414">
        <ele>1149</ele>
        <time>2018-05-25T10:18:49Z</time>
      </trkpt>
      <trkpt lat="43.86562" lon="6.46413">
        <ele>1149</ele>
        <time>2018-05-25T10:19:21Z</time>
      </trkpt>
      <trkpt lat="43.86563" lon="6.46413">
        <ele>1149</ele>
        <time>2018-05-25T10:19:23Z</time>
      </trkpt>
      <trkpt lat="43.86564" lon="6.46413">
        <ele>1149</ele>
        <time>2018-05-25T10:19:24Z</time>
      </trkpt>
      <trkpt lat="43.86566" lon="6.46414">
        <ele>1149</ele>
        <time>2018-05-25T10:19:25Z</time>
      </trkpt>
      <trkpt lat="43.86577" lon="6.4643">
        <ele>1150</ele>
        <time>2018-05-25T10:19:34Z</time>
      </trkpt>
      <trkpt lat="43.86579" lon="6.46431">
        <ele>1150</ele>
        <time>2018-05-25T10:19:35Z</time>
      </trkpt>
      <trkpt lat="43.86589" lon="6.46433">
        <ele>1151</ele>
        <time>2018-05-25T10:19:41Z</time>
      </trkpt>
      <trkpt lat="43.86589" lon="6.46434">
        <ele>1151</ele>
        <time>2018-05-25T10:19:42Z</time>
      </trkpt>
      <trkpt lat="43.8659" lon="6.4644">
        <ele>1151</ele>
        <time>2018-05-25T10:19:55Z</time>
      </trkpt>
      <trkpt lat="43.86591" lon="6.46439">
        <ele>1151</ele>
        <time>2018-05-25T10:20:31Z</time>
      </trkpt>
      <trkpt lat="43.86589" lon="6.4644">
        <ele>1151</ele>
        <time>2018-05-25T10:20:59Z</time>
      </trkpt>
      <trkpt lat="43.86587" lon="6.46447">
        <ele>1151</ele>
        <time>2018-05-25T10:21:03Z</time>
      </trkpt>
      <trkpt lat="43.86588" lon="6.4645">
        <ele>1151</ele>
        <time>2018-05-25T10:21:04Z</time>
      </trkpt>
      <trkpt lat="43.86589" lon="6.46452">
        <ele>1151</ele>
        <time>2018-05-25T10:21:05Z</time>
      </trkpt>
      <trkpt lat="43.86591" lon="6.46454">
        <ele>1151</ele>
        <time>2018-05-25T10:21:06Z</time>
      </trkpt>
      <trkpt lat="43.86592" lon="6.46456">
        <ele>1151</ele>
        <time>2018-05-25T10:21:07Z</time>
      </trkpt>
      <trkpt lat="43.86593" lon="6.46458">
        <ele>1151</ele>
        <time>2018-05-25T10:21:08Z</time>
      </trkpt>
      <trkpt lat="43.86595" lon="6.4646">
        <ele>1151</ele>
        <time>2018-05-25T10:21:09Z</time>
      </trkpt>
      <trkpt lat="43.86596" lon="6.46463">
        <ele>1151</ele>
        <time>2018-05-25T10:21:10Z</time>
      </trkpt>
      <trkpt lat="43.86597" lon="6.46466">
        <ele>1151</ele>
        <time>2018-05-25T10:21:11Z</time>
      </trkpt>
      <trkpt lat="43.86598" lon="6.46469">
        <ele>1151</ele>
        <time>2018-05-25T10:21:12Z</time>
      </trkpt>
      <trkpt lat="43.866" lon="6.46471">
        <ele>1152</ele>
        <time>2018-05-25T10:21:13Z</time>
      </trkpt>
      <trkpt lat="43.86625" lon="6.46514">
        <ele>1153</ele>
        <time>2018-05-25T10:21:30Z</time>
      </trkpt>
      <trkpt lat="43.86656" lon="6.46553">
        <ele>1153</ele>
        <time>2018-05-25T10:21:48Z</time>
      </trkpt>
      <trkpt lat="43.8667" lon="6.46584">
        <ele>1151</ele>
        <time>2018-05-25T10:21:59Z</time>
      </trkpt>
      <trkpt lat="43.86672" lon="6.46586">
        <ele>1151</ele>
        <time>2018-05-25T10:22:00Z</time>
      </trkpt>
      <trkpt lat="43.86674" lon="6.46588">
        <ele>1151</ele>
        <time>2018-05-25T10:22:01Z</time>
      </trkpt>
      <trkpt lat="43.86682" lon="6.46594">
        <ele>1150</ele>
        <time>2018-05-25T10:22:14Z</time>
      </trkpt>
      <trkpt lat="43.86683" lon="6.46594">
        <ele>1150</ele>
        <time>2018-05-25T10:22:45Z</time>
      </trkpt>
      <trkpt lat="43.86683" lon="6.46593">
        <ele>1150</ele>
        <time>2018-05-25T10:22:46Z</time>
      </trkpt>
      <trkpt lat="43.86683" lon="6.46591">
        <ele>1151</ele>
        <time>2018-05-25T10:22:47Z</time>
      </trkpt>
      <trkpt lat="43.86682" lon="6.4659">
        <ele>1151</ele>
        <time>2018-05-25T10:22:48Z</time>
      </trkpt>
      <trkpt lat="43.86681" lon="6.46589">
        <ele>1151</ele>
        <time>2018-05-25T10:22:49Z</time>
      </trkpt>
      <trkpt lat="43.8668" lon="6.46587">
        <ele>1151</ele>
        <time>2018-05-25T10:22:50Z</time>
      </trkpt>
      <trkpt lat="43.86672" lon="6.46562">
        <ele>1153</ele>
        <time>2018-05-25T10:23:06Z</time>
      </trkpt>
      <trkpt lat="43.8667" lon="6.46556">
        <ele>1153</ele>
        <time>2018-05-25T10:23:22Z</time>
      </trkpt>
      <trkpt lat="43.86665" lon="6.46541">
        <ele>1154</ele>
        <time>2018-05-25T10:23:41Z</time>
      </trkpt>
      <trkpt lat="43.86665" lon="6.4653">
        <ele>1155</ele>
        <time>2018-05-25T10:23:52Z</time>
      </trkpt>
      <trkpt lat="43.86669" lon="6.46525">
        <ele>1155</ele>
        <time>2018-05-25T10:24:04Z</time>
      </trkpt>
      <trkpt lat="43.86674" lon="6.46521">
        <ele>1156</ele>
        <time>2018-05-25T10:24:36Z</time>
      </trkpt>
      <trkpt lat="43.86674" lon="6.46516">
        <ele>1157</ele>
        <time>2018-05-25T10:25:12Z</time>
      </trkpt>
      <trkpt lat="43.86675" lon="6.46515">
        <ele>1157</ele>
        <time>2018-05-25T10:26:01Z</time>
      </trkpt>
      <trkpt lat="43.86673" lon="6.46517">
        <ele>1156</ele>
        <time>2018-05-25T10:26:49Z</time>
      </trkpt>
      <trkpt lat="43.86674" lon="6.46519">
        <ele>1156</ele>
        <time>2018-05-25T10:27:31Z</time>
      </trkpt>
      <trkpt lat="43.86674" lon="6.46519">
        <ele>1156</ele>
        <time>2018-05-25T10:28:15Z</time>
      </trkpt>
      <trkpt lat="43.86672" lon="6.46519">
        <ele>1156</ele>
        <time>2018-05-25T10:28:45Z</time>
      </trkpt>
      <trkpt lat="43.86669" lon="6.46528">
        <ele>1155</ele>
        <time>2018-05-25T10:29:15Z</time>
      </trkpt>
      <trkpt lat="43.86666" lon="6.46536">
        <ele>1154</ele>
        <time>2018-05-25T10:29:24Z</time>
      </trkpt>
      <trkpt lat="43.86666" lon="6.46538">
        <ele>1154</ele>
        <time>2018-05-25T10:29:25Z</time>
      </trkpt>
      <trkpt lat="43.86666" lon="6.46548">
        <ele>1154</ele>
        <time>2018-05-25T10:29:29Z</time>
      </trkpt>
      <trkpt lat="43.86667" lon="6.4655">
        <ele>1154</ele>
        <time>2018-05-25T10:29:30Z</time>
      </trkpt>
      <trkpt lat="43.86668" lon="6.46552">
        <ele>1154</ele>
        <time>2018-05-25T10:29:31Z</time>
      </trkpt>
      <trkpt lat="43.8667" lon="6.46553">
        <ele>1153</ele>
        <time>2018-05-25T10:29:32Z</time>
      </trkpt>
      <trkpt lat="43.86671" lon="6.46555">
        <ele>1153</ele>
        <time>2018-05-25T10:29:33Z</time>
      </trkpt>
      <trkpt lat="43.86671" lon="6.46557">
        <ele>1153</ele>
        <time>2018-05-25T10:29:34Z</time>
      </trkpt>
      <trkpt lat="43.86672" lon="6.46559">
        <ele>1153</ele>
        <time>2018-05-25T10:29:35Z</time>
      </trkpt>
      <trkpt lat="43.86672" lon="6.46561">
        <ele>1153</ele>
        <time>2018-05-25T10:29:36Z</time>
      </trkpt>
      <trkpt lat="43.86672" lon="6.46564">
        <ele>1153</ele>
        <time>2018-05-25T10:29:37Z</time>
      </trkpt>
      <trkpt lat="43.86671" lon="6.46566">
        <ele>1153</ele>
        <time>2018-05-25T10:29:38Z</time>
      </trkpt>
      <trkpt lat="43.86671" lon="6.46569">
        <ele>1152</ele>
        <time>2018-05-25T10:29:39Z</time>
      </trkpt>
      <trkpt lat="43.86671" lon="6.4657">
        <ele>1152</ele>
        <time>2018-05-25T10:29:51Z</time>
      </trkpt>
      <trkpt lat="43.86671" lon="6.46571">
        <ele>1152</ele>
        <time>2018-05-25T10:29:55Z</time>
      </trkpt>
      <trkpt lat="43.86683" lon="6.46604">
        <ele>1149</ele>
        <time>2018-05-25T10:30:06Z</time>
      </trkpt>
      <trkpt lat="43.86698" lon="6.46643">
        <ele>1145</ele>
        <time>2018-05-25T10:30:18Z</time>
      </trkpt>
      <trkpt lat="43.86733" lon="6.46674">
        <ele>1140</ele>
        <time>2018-05-25T10:30:31Z</time>
      </trkpt>
      <trkpt lat="43.86741" lon="6.46676">
        <ele>1140</ele>
        <time>2018-05-25T10:30:43Z</time>
      </trkpt>
      <trkpt lat="43.8674" lon="6.46676">
        <ele>1140</ele>
        <time>2018-05-25T10:31:07Z</time>
      </trkpt>
      <trkpt lat="43.86741" lon="6.46675">
        <ele>1140</ele>
        <time>2018-05-25T10:31:30Z</time>
      </trkpt>
      <trkpt lat="43.86742" lon="6.46675">
        <ele>1140</ele>
        <time>2018-05-25T10:31:57Z</time>
      </trkpt>
      <trkpt lat="43.86741" lon="6.46676">
        <ele>1140</ele>
        <time>2018-05-25T10:32:24Z</time>
      </trkpt>
      <trkpt lat="43.86741" lon="6.46676">
        <ele>1140</ele>
        <time>2018-05-25T10:32:53Z</time>
      </trkpt>
      <trkpt lat="43.86741" lon="6.46676">
        <ele>1140</ele>
        <time>2018-05-25T10:33:21Z</time>
      </trkpt>
      <trkpt lat="43.8674" lon="6.46676">
        <ele>1140</ele>
        <time>2018-05-25T10:33:52Z</time>
      </trkpt>
      <trkpt lat="43.86747" lon="6.46677">
        <ele>1140</ele>
        <time>2018-05-25T10:34:15Z</time>
      </trkpt>
      <trkpt lat="43.86775" lon="6.46684">
        <ele>1140</ele>
        <time>2018-05-25T10:34:27Z</time>
      </trkpt>
      <trkpt lat="43.86797" lon="6.46678">
        <ele>1142</ele>
        <time>2018-05-25T10:34:38Z</time>
      </trkpt>
      <trkpt lat="43.86803" lon="6.46678">
        <ele>1142</ele>
        <time>2018-05-25T10:34:48Z</time>
      </trkpt>
      <trkpt lat="43.86803" lon="6.46679">
        <ele>1142</ele>
        <time>2018-05-25T10:35:11Z</time>
      </trkpt>
      <trkpt lat="43.86811" lon="6.46675">
        <ele>1144</ele>
        <time>2018-05-25T10:35:29Z</time>
      </trkpt>
      <trkpt lat="43.86823" lon="6.46671">
        <ele>1145</ele>
        <time>2018-05-25T10:35:45Z</time>
      </trkpt>
      <trkpt lat="43.86838" lon="6.46669">
        <ele>1145</ele>
        <time>2018-05-25T10:36:01Z</time>
      </trkpt>
      <trkpt lat="43.86855" lon="6.46667">
        <ele>1145</ele>
        <time>2018-05-25T10:36:19Z</time>
      </trkpt>
      <trkpt lat="43.86862" lon="6.46664">
        <ele>1145</ele>
        <time>2018-05-25T10:36:35Z</time>
      </trkpt>
      <trkpt lat="43.86864" lon="6.46661">
        <ele>1146</ele>
        <time>2018-05-25T10:36:42Z</time>
      </trkpt>
      <trkpt lat="43.86865" lon="6.46659">
        <ele>1146</ele>
        <time>2018-05-25T10:36:43Z</time>
      </trkpt>
      <trkpt lat="43.86866" lon="6.46658">
        <ele>1146</ele>
        <time>2018-05-25T10:36:44Z</time>
      </trkpt>
      <trkpt lat="43.8689" lon="6.46633">
        <ele>1151</ele>
        <time>2018-05-25T10:36:58Z</time>
      </trkpt>
      <trkpt lat="43.86907" lon="6.46608">
        <ele>1153</ele>
        <time>2018-05-25T10:37:14Z</time>
      </trkpt>
      <trkpt lat="43.86926" lon="6.4658">
        <ele>1155</ele>
        <time>2018-05-25T10:37:33Z</time>
      </trkpt>
      <trkpt lat="43.86942" lon="6.46547">
        <ele>1158</ele>
        <time>2018-05-25T10:37:53Z</time>
      </trkpt>
      <trkpt lat="43.86952" lon="6.4652">
        <ele>1160</ele>
        <time>2018-05-25T10:38:09Z</time>
      </trkpt>
      <trkpt lat="43.86959" lon="6.46506">
        <ele>1162</ele>
        <time>2018-05-25T10:38:18Z</time>
      </trkpt>
      <trkpt lat="43.86959" lon="6.46505">
        <ele>1162</ele>
        <time>2018-05-25T10:38:19Z</time>
      </trkpt>
      <trkpt lat="43.8696" lon="6.46503">
        <ele>1162</ele>
        <time>2018-05-25T10:38:20Z</time>
      </trkpt>
      <trkpt lat="43.86961" lon="6.46502">
        <ele>1162</ele>
        <time>2018-05-25T10:38:21Z</time>
      </trkpt>
      <trkpt lat="43.86962" lon="6.46501">
        <ele>1162</ele>
        <time>2018-05-25T10:38:22Z</time>
      </trkpt>
      <trkpt lat="43.86963" lon="6.465">
        <ele>1162</ele>
        <time>2018-05-25T10:38:23Z</time>
      </trkpt>
      <trkpt lat="43.86963" lon="6.46498">
        <ele>1163</ele>
        <time>2018-05-25T10:38:24Z</time>
      </trkpt>
      <trkpt lat="43.86963" lon="6.46495">
        <ele>1163</ele>
        <time>2018-05-25T10:38:27Z</time>
      </trkpt>
      <trkpt lat="43.86963" lon="6.46493">
        <ele>1163</ele>
        <time>2018-05-25T10:38:28Z</time>
      </trkpt>
      <trkpt lat="43.86962" lon="6.46491">
        <ele>1163</ele>
        <time>2018-05-25T10:38:29Z</time>
      </trkpt>
      <trkpt lat="43.86958" lon="6.46484">
        <ele>1163</ele>
        <time>2018-05-25T10:38:34Z</time>
      </trkpt>
      <trkpt lat="43.86943" lon="6.46465">
        <ele>1164</ele>
        <time>2018-05-25T10:38:50Z</time>
      </trkpt>
      <trkpt lat="43.86934" lon="6.46458">
        <ele>1164</ele>
        <time>2018-05-25T10:39:02Z</time>
      </trkpt>
      <trkpt lat="43.86932" lon="6.46448">
        <ele>1164</ele>
        <time>2018-05-25T10:39:16Z</time>
      </trkpt>
      <trkpt lat="43.86933" lon="6.46444">
        <ele>1164</ele>
        <time>2018-05-25T10:39:31Z</time>
      </trkpt>
      <trkpt lat="43.86936" lon="6.46439">
        <ele>1164</ele>
        <time>2018-05-25T10:39:44Z</time>
      </trkpt>
      <trkpt lat="43.86936" lon="6.46435">
        <ele>1165</ele>
        <time>2018-05-25T10:40:12Z</time>
      </trkpt>
      <trkpt lat="43.86936" lon="6.46431">
        <ele>1165</ele>
        <time>2018-05-25T10:40:52Z</time>
      </trkpt>
      <trkpt lat="43.86936" lon="6.46433">
        <ele>1165</ele>
        <time>2018-05-25T10:41:41Z</time>
      </trkpt>
      <trkpt lat="43.86938" lon="6.46433">
        <ele>1165</ele>
        <time>2018-05-25T10:42:25Z</time>
      </trkpt>
      <trkpt lat="43.86935" lon="6.46433">
        <ele>1165</ele>
        <time>2018-05-25T10:43:14Z</time>
      </trkpt>
      <trkpt lat="43.86934" lon="6.46437">
        <ele>1164</ele>
        <time>2018-05-25T10:43:54Z</time>
      </trkpt>
      <trkpt lat="43.86934" lon="6.46438">
        <ele>1164</ele>
        <time>2018-05-25T10:44:38Z</time>
      </trkpt>
      <trkpt lat="43.86937" lon="6.46436">
        <ele>1165</ele>
        <time>2018-05-25T10:45:28Z</time>
      </trkpt>
      <trkpt lat="43.86937" lon="6.46433">
        <ele>1165</ele>
        <time>2018-05-25T10:46:14Z</time>
      </trkpt>
      <trkpt lat="43.86938" lon="6.46433">
        <ele>1165</ele>
        <time>2018-05-25T10:46:56Z</time>
      </trkpt>
      <trkpt lat="43.86938" lon="6.46432">
        <ele>1165</ele>
        <time>2018-05-25T10:47:43Z</time>
      </trkpt>
      <trkpt lat="43.86938" lon="6.46431">
        <ele>1165</ele>
        <time>2018-05-25T10:48:23Z</time>
      </trkpt>
      <trkpt lat="43.86938" lon="6.46433">
        <ele>1165</ele>
        <time>2018-05-25T10:49:08Z</time>
      </trkpt>
      <trkpt lat="43.86936" lon="6.46435">
        <ele>1165</ele>
        <time>2018-05-25T10:50:02Z</time>
      </trkpt>
      <trkpt lat="43.86937" lon="6.46438">
        <ele>1165</ele>
        <time>2018-05-25T10:50:46Z</time>
      </trkpt>
      <trkpt lat="43.86937" lon="6.46435">
        <ele>1165</ele>
        <time>2018-05-25T10:51:25Z</time>
      </trkpt>
      <trkpt lat="43.86934" lon="6.46434">
        <ele>1164</ele>
        <time>2018-05-25T10:52:14Z</time>
      </trkpt>
      <trkpt lat="43.86937" lon="6.46433">
        <ele>1165</ele>
        <time>2018-05-25T10:53:01Z</time>
      </trkpt>
      <trkpt lat="43.86937" lon="6.46435">
        <ele>1165</ele>
        <time>2018-05-25T10:53:46Z</time>
      </trkpt>
      <trkpt lat="43.86936" lon="6.46434">
        <ele>1165</ele>
        <time>2018-05-25T10:54:27Z</time>
      </trkpt>
      <trkpt lat="43.86935" lon="6.46433">
        <ele>1165</ele>
        <time>2018-05-25T10:55:03Z</time>
      </trkpt>
      <trkpt lat="43.86938" lon="6.46435">
        <ele>1165</ele>
        <time>2018-05-25T10:55:33Z</time>
      </trkpt>
      <trkpt lat="43.86938" lon="6.46435">
        <ele>1165</ele>
        <time>2018-05-25T10:56:23Z</time>
      </trkpt>
      <trkpt lat="43.86935" lon="6.46434">
        <ele>1165</ele>
        <time>2018-05-25T10:56:59Z</time>
      </trkpt>
      <trkpt lat="43.86936" lon="6.46434">
        <ele>1165</ele>
        <time>2018-05-25T10:57:49Z</time>
      </trkpt>
      <trkpt lat="43.86937" lon="6.46432">
        <ele>1165</ele>
        <time>2018-05-25T10:58:29Z</time>
      </trkpt>
      <trkpt lat="43.86937" lon="6.46436">
        <ele>1165</ele>
        <time>2018-05-25T10:59:01Z</time>
      </trkpt>
      <trkpt lat="43.86937" lon="6.46435">
        <ele>1165</ele>
        <time>2018-05-25T10:59:42Z</time>
      </trkpt>
      <trkpt lat="43.86936" lon="6.46438">
        <ele>1164</ele>
        <time>2018-05-25T11:00:28Z</time>
      </trkpt>
      <trkpt lat="43.86935" lon="6.46435">
        <ele>1164</ele>
        <time>2018-05-25T11:01:18Z</time>
      </trkpt>
      <trkpt lat="43.86935" lon="6.46438">
        <ele>1164</ele>
        <time>2018-05-25T11:02:09Z</time>
      </trkpt>
      <trkpt lat="43.86941" lon="6.46434">
        <ele>1165</ele>
        <time>2018-05-25T11:02:50Z</time>
      </trkpt>
      <trkpt lat="43.86938" lon="6.46435">
        <ele>1165</ele>
        <time>2018-05-25T11:03:34Z</time>
      </trkpt>
      <trkpt lat="43.86936" lon="6.46434">
        <ele>1165</ele>
        <time>2018-05-25T11:04:20Z</time>
      </trkpt>
      <trkpt lat="43.86936" lon="6.46435">
        <ele>1165</ele>
        <time>2018-05-25T11:04:54Z</time>
      </trkpt>
      <trkpt lat="43.86934" lon="6.46433">
        <ele>1164</ele>
        <time>2018-05-25T11:05:29Z</time>
      </trkpt>
      <trkpt lat="43.86933" lon="6.46435">
        <ele>1164</ele>
        <time>2018-05-25T11:06:10Z</time>
      </trkpt>
      <trkpt lat="43.86931" lon="6.46436">
        <ele>1164</ele>
        <time>2018-05-25T11:06:53Z</time>
      </trkpt>
      <trkpt lat="43.86931" lon="6.46436">
        <ele>1164</ele>
        <time>2018-05-25T11:07:35Z</time>
      </trkpt>
      <trkpt lat="43.86931" lon="6.46435">
        <ele>1164</ele>
        <time>2018-05-25T11:08:14Z</time>
      </trkpt>
      <trkpt lat="43.86936" lon="6.46436">
        <ele>1165</ele>
        <time>2018-05-25T11:08:54Z</time>
      </trkpt>
      <trkpt lat="43.86937" lon="6.46437">
        <ele>1165</ele>
        <time>2018-05-25T11:09:33Z</time>
      </trkpt>
      <trkpt lat="43.86935" lon="6.46435">
        <ele>1164</ele>
        <time>2018-05-25T11:10:17Z</time>
      </trkpt>
      <trkpt lat="43.86932" lon="6.46433">
        <ele>1164</ele>
        <time>2018-05-25T11:10:53Z</time>
      </trkpt>
      <trkpt lat="43.86937" lon="6.46435">
        <ele>1165</ele>
        <time>2018-05-25T11:11:32Z</time>
      </trkpt>
      <trkpt lat="43.86937" lon="6.46433">
        <ele>1165</ele>
        <time>2018-05-25T11:12:12Z</time>
      </trkpt>
      <trkpt lat="43.86941" lon="6.46432">
        <ele>1165</ele>
        <time>2018-05-25T11:12:49Z</time>
      </trkpt>
      <trkpt lat="43.86941" lon="6.46433">
        <ele>1165</ele>
        <time>2018-05-25T11:13:28Z</time>
      </trkpt>
      <trkpt lat="43.86942" lon="6.46434">
        <ele>1165</ele>
        <time>2018-05-25T11:13:59Z</time>
      </trkpt>
      <trkpt lat="43.86939" lon="6.46437">
        <ele>1165</ele>
        <time>2018-05-25T11:14:45Z</time>
      </trkpt>
      <trkpt lat="43.86933" lon="6.46432">
        <ele>1164</ele>
        <time>2018-05-25T11:15:26Z</time>
      </trkpt>
      <trkpt lat="43.86935" lon="6.4643">
        <ele>1165</ele>
        <time>2018-05-25T11:16:02Z</time>
      </trkpt>
      <trkpt lat="43.86937" lon="6.46433">
        <ele>1165</ele>
        <time>2018-05-25T11:16:42Z</time>
      </trkpt>
      <trkpt lat="43.86935" lon="6.46432">
        <ele>1165</ele>
        <time>2018-05-25T11:17:18Z</time>
      </trkpt>
      <trkpt lat="43.86936" lon="6.46434">
        <ele>1165</ele>
        <time>2018-05-25T11:18:04Z</time>
      </trkpt>
      <trkpt lat="43.86935" lon="6.46433">
        <ele>1165</ele>
        <time>2018-05-25T11:18:40Z</time>
      </trkpt>
      <trkpt lat="43.8694" lon="6.46434">
        <ele>1165</ele>
        <time>2018-05-25T11:19:24Z</time>
      </trkpt>
      <trkpt lat="43.8694" lon="6.46434">
        <ele>1165</ele>
        <time>2018-05-25T11:20:13Z</time>
      </trkpt>
      <trkpt lat="43.86939" lon="6.46431">
        <ele>1165</ele>
        <time>2018-05-25T11:21:01Z</time>
      </trkpt>
      <trkpt lat="43.8694" lon="6.46432">
        <ele>1165</ele>
        <time>2018-05-25T11:21:45Z</time>
      </trkpt>
      <trkpt lat="43.86934" lon="6.46431">
        <ele>1165</ele>
        <time>2018-05-25T11:22:31Z</time>
      </trkpt>
      <trkpt lat="43.86937" lon="6.46432">
        <ele>1165</ele>
        <time>2018-05-25T11:22:59Z</time>
      </trkpt>
      <trkpt lat="43.86937" lon="6.46434">
        <ele>1165</ele>
        <time>2018-05-25T11:23:31Z</time>
      </trkpt>
      <trkpt lat="43.86936" lon="6.46432">
        <ele>1165</ele>
        <time>2018-05-25T11:23:59Z</time>
      </trkpt>
      <trkpt lat="43.86937" lon="6.46434">
        <ele>1165</ele>
        <time>2018-05-25T11:24:35Z</time>
      </trkpt>
      <trkpt lat="43.86937" lon="6.46433">
        <ele>1165</ele>
        <time>2018-05-25T11:25:05Z</time>
      </trkpt>
      <trkpt lat="43.86936" lon="6.46432">
        <ele>1165</ele>
        <time>2018-05-25T11:25:38Z</time>
      </trkpt>
      <trkpt lat="43.86936" lon="6.46433">
        <ele>1165</ele>
        <time>2018-05-25T11:26:07Z</time>
      </trkpt>
      <trkpt lat="43.86934" lon="6.46429">
        <ele>1165</ele>
        <time>2018-05-25T11:26:39Z</time>
      </trkpt>
      <trkpt lat="43.86938" lon="6.46433">
        <ele>1165</ele>
        <time>2018-05-25T11:27:22Z</time>
      </trkpt>
      <trkpt lat="43.86939" lon="6.46435">
        <ele>1165</ele>
        <time>2018-05-25T11:27:55Z</time>
      </trkpt>
      <trkpt lat="43.86938" lon="6.46439">
        <ele>1165</ele>
        <time>2018-05-25T11:28:09Z</time>
      </trkpt>
      <trkpt lat="43.86937" lon="6.46439">
        <ele>1165</ele>
        <time>2018-05-25T11:28:37Z</time>
      </trkpt>
      <trkpt lat="43.86939" lon="6.46441">
        <ele>1165</ele>
        <time>2018-05-25T11:29:00Z</time>
      </trkpt>
      <trkpt lat="43.8694" lon="6.46442">
        <ele>1165</ele>
        <time>2018-05-25T11:29:21Z</time>
      </trkpt>
      <trkpt lat="43.86963" lon="6.46443">
        <ele>1166</ele>
        <time>2018-05-25T11:29:34Z</time>
      </trkpt>
      <trkpt lat="43.86995" lon="6.46441">
        <ele>1170</ele>
        <time>2018-05-25T11:29:51Z</time>
      </trkpt>
      <trkpt lat="43.86997" lon="6.4644">
        <ele>1170</ele>
        <time>2018-05-25T11:29:52Z</time>
      </trkpt>
      <trkpt lat="43.86998" lon="6.46438">
        <ele>1171</ele>
        <time>2018-05-25T11:29:53Z</time>
      </trkpt>
      <trkpt lat="43.86998" lon="6.46436">
        <ele>1171</ele>
        <time>2018-05-25T11:29:54Z</time>
      </trkpt>
      <trkpt lat="43.86999" lon="6.46421">
        <ele>1171</ele>
        <time>2018-05-25T11:30:03Z</time>
      </trkpt>
      <trkpt lat="43.86999" lon="6.46419">
        <ele>1171</ele>
        <time>2018-05-25T11:30:04Z</time>
      </trkpt>
      <trkpt lat="43.86998" lon="6.46417">
        <ele>1171</ele>
        <time>2018-05-25T11:30:05Z</time>
      </trkpt>
      <trkpt lat="43.86998" lon="6.46415">
        <ele>1171</ele>
        <time>2018-05-25T11:30:06Z</time>
      </trkpt>
      <trkpt lat="43.86999" lon="6.46413">
        <ele>1171</ele>
        <time>2018-05-25T11:30:07Z</time>
      </trkpt>
      <trkpt lat="43.86999" lon="6.46412">
        <ele>1171</ele>
        <time>2018-05-25T11:30:08Z</time>
      </trkpt>
      <trkpt lat="43.86999" lon="6.4641">
        <ele>1171</ele>
        <time>2018-05-25T11:30:09Z</time>
      </trkpt>
      <trkpt lat="43.87" lon="6.46408">
        <ele>1171</ele>
        <time>2018-05-25T11:30:10Z</time>
      </trkpt>
      <trkpt lat="43.87015" lon="6.46387">
        <ele>1172</ele>
        <time>2018-05-25T11:30:26Z</time>
      </trkpt>
      <trkpt lat="43.87035" lon="6.46379">
        <ele>1174</ele>
        <time>2018-05-25T11:30:44Z</time>
      </trkpt>
      <trkpt lat="43.87039" lon="6.46377">
        <ele>1175</ele>
        <time>2018-05-25T11:31:00Z</time>
      </trkpt>
      <trkpt lat="43.87039" lon="6.46375">
        <ele>1174</ele>
        <time>2018-05-25T11:31:31Z</time>
      </trkpt>
      <trkpt lat="43.87039" lon="6.46375">
        <ele>1174</ele>
        <time>2018-05-25T11:32:04Z</time>
      </trkpt>
      <trkpt lat="43.8704" lon="6.46377">
        <ele>1175</ele>
        <time>2018-05-25T11:32:35Z</time>
      </trkpt>
      <trkpt lat="43.87039" lon="6.46373">
        <ele>1174</ele>
        <time>2018-05-25T11:32:55Z</time>
      </trkpt>
      <trkpt lat="43.87042" lon="6.46373">
        <ele>1175</ele>
        <time>2018-05-25T11:33:21Z</time>
      </trkpt>
      <trkpt lat="43.87043" lon="6.46376">
        <ele>1175</ele>
        <time>2018-05-25T11:33:39Z</time>
      </trkpt>
      <trkpt lat="43.87042" lon="6.46375">
        <ele>1175</ele>
        <time>2018-05-25T11:34:03Z</time>
      </trkpt>
      <trkpt lat="43.8705" lon="6.4637">
        <ele>1175</ele>
        <time>2018-05-25T11:34:31Z</time>
      </trkpt>
      <trkpt lat="43.87073" lon="6.46365">
        <ele>1176</ele>
        <time>2018-05-25T11:34:41Z</time>
      </trkpt>
      <trkpt lat="43.87075" lon="6.46364">
        <ele>1176</ele>
        <time>2018-05-25T11:34:42Z</time>
      </trkpt>
      <trkpt lat="43.87104" lon="6.46364">
        <ele>1178</ele>
        <time>2018-05-25T11:34:54Z</time>
      </trkpt>
      <trkpt lat="43.87121" lon="6.46363">
        <ele>1178</ele>
        <time>2018-05-25T11:35:06Z</time>
      </trkpt>
      <trkpt lat="43.87129" lon="6.4636">
        <ele>1178</ele>
        <time>2018-05-25T11:35:31Z</time>
      </trkpt>
      <trkpt lat="43.87149" lon="6.46359">
        <ele>1178</ele>
        <time>2018-05-25T11:35:39Z</time>
      </trkpt>
      <trkpt lat="43.87159" lon="6.46361">
        <ele>1180</ele>
        <time>2018-05-25T11:35:42Z</time>
      </trkpt>
      <trkpt lat="43.87161" lon="6.4636">
        <ele>1180</ele>
        <time>2018-05-25T11:35:43Z</time>
      </trkpt>
      <trkpt lat="43.87164" lon="6.46358">
        <ele>1180</ele>
        <time>2018-05-25T11:35:44Z</time>
      </trkpt>
      <trkpt lat="43.87166" lon="6.46357">
        <ele>1180</ele>
        <time>2018-05-25T11:35:45Z</time>
      </trkpt>
      <trkpt lat="43.87168" lon="6.46354">
        <ele>1180</ele>
        <time>2018-05-25T11:35:46Z</time>
      </trkpt>
      <trkpt lat="43.87169" lon="6.46352">
        <ele>1179</ele>
        <time>2018-05-25T11:35:47Z</time>
      </trkpt>
      <trkpt lat="43.87171" lon="6.46351">
        <ele>1179</ele>
        <time>2018-05-25T11:35:48Z</time>
      </trkpt>
      <trkpt lat="43.87194" lon="6.46334">
        <ele>1181</ele>
        <time>2018-05-25T11:36:00Z</time>
      </trkpt>
      <trkpt lat="43.87214" lon="6.4631">
        <ele>1182</ele>
        <time>2018-05-25T11:36:15Z</time>
      </trkpt>
      <trkpt lat="43.87219" lon="6.46294">
        <ele>1180</ele>
        <time>2018-05-25T11:36:24Z</time>
      </trkpt>
      <trkpt lat="43.87235" lon="6.46292">
        <ele>1182</ele>
        <time>2018-05-25T11:36:33Z</time>
      </trkpt>
      <trkpt lat="43.87238" lon="6.46291">
        <ele>1182</ele>
        <time>2018-05-25T11:36:44Z</time>
      </trkpt>
      <trkpt lat="43.87238" lon="6.46291">
        <ele>1182</ele>
        <time>2018-05-25T11:36:55Z</time>
      </trkpt>
      <trkpt lat="43.87242" lon="6.4629">
        <ele>1182</ele>
        <time>2018-05-25T11:37:04Z</time>
      </trkpt>
      <trkpt lat="43.87243" lon="6.46289">
        <ele>1182</ele>
        <time>2018-05-25T11:37:05Z</time>
      </trkpt>
      <trkpt lat="43.87244" lon="6.46289">
        <ele>1181</ele>
        <time>2018-05-25T11:37:06Z</time>
      </trkpt>
      <trkpt lat="43.87248" lon="6.46289">
        <ele>1181</ele>
        <time>2018-05-25T11:37:17Z</time>
      </trkpt>
      <trkpt lat="43.8725" lon="6.46289">
        <ele>1181</ele>
        <time>2018-05-25T11:37:21Z</time>
      </trkpt>
      <trkpt lat="43.87252" lon="6.46289">
        <ele>1181</ele>
        <time>2018-05-25T11:37:22Z</time>
      </trkpt>
      <trkpt lat="43.87253" lon="6.46289">
        <ele>1181</ele>
        <time>2018-05-25T11:37:23Z</time>
      </trkpt>
      <trkpt lat="43.87255" lon="6.46289">
        <ele>1181</ele>
        <time>2018-05-25T11:37:24Z</time>
      </trkpt>
      <trkpt lat="43.87257" lon="6.46289">
        <ele>1180</ele>
        <time>2018-05-25T11:37:25Z</time>
      </trkpt>
      <trkpt lat="43.87296" lon="6.46302">
        <ele>1180</ele>
        <time>2018-05-25T11:37:38Z</time>
      </trkpt>
      <trkpt lat="43.87313" lon="6.4631">
        <ele>1181</ele>
        <time>2018-05-25T11:37:44Z</time>
      </trkpt>
      <trkpt lat="43.87315" lon="6.46309">
        <ele>1181</ele>
        <time>2018-05-25T11:37:45Z</time>
      </trkpt>
      <trkpt lat="43.87318" lon="6.46307">
        <ele>1181</ele>
        <time>2018-05-25T11:37:46Z</time>
      </trkpt>
      <trkpt lat="43.87345" lon="6.46293">
        <ele>1175</ele>
        <time>2018-05-25T11:37:54Z</time>
      </trkpt>
      <trkpt lat="43.87348" lon="6.46293">
        <ele>1175</ele>
        <time>2018-05-25T11:37:55Z</time>
      </trkpt>
      <trkpt lat="43.87365" lon="6.463">
        <ele>1174</ele>
        <time>2018-05-25T11:38:04Z</time>
      </trkpt>
      <trkpt lat="43.87372" lon="6.46305">
        <ele>1174</ele>
        <time>2018-05-25T11:38:09Z</time>
      </trkpt>
      <trkpt lat="43.87373" lon="6.46307">
        <ele>1174</ele>
        <time>2018-05-25T11:38:10Z</time>
      </trkpt>
      <trkpt lat="43.87375" lon="6.46308">
        <ele>1175</ele>
        <time>2018-05-25T11:38:11Z</time>
      </trkpt>
      <trkpt lat="43.87377" lon="6.4631">
        <ele>1175</ele>
        <time>2018-05-25T11:38:12Z</time>
      </trkpt>
      <trkpt lat="43.87379" lon="6.4631">
        <ele>1175</ele>
        <time>2018-05-25T11:38:13Z</time>
      </trkpt>
      <trkpt lat="43.87381" lon="6.4631">
        <ele>1175</ele>
        <time>2018-05-25T11:38:14Z</time>
      </trkpt>
      <trkpt lat="43.87383" lon="6.46311">
        <ele>1175</ele>
        <time>2018-05-25T11:38:15Z</time>
      </trkpt>
      <trkpt lat="43.87385" lon="6.46312">
        <ele>1175</ele>
        <time>2018-05-25T11:38:16Z</time>
      </trkpt>
      <trkpt lat="43.87388" lon="6.46313">
        <ele>1176</ele>
        <time>2018-05-25T11:38:17Z</time>
      </trkpt>
      <trkpt lat="43.87395" lon="6.46317">
        <ele>1177</ele>
        <time>2018-05-25T11:38:27Z</time>
      </trkpt>
      <trkpt lat="43.87399" lon="6.46321">
        <ele>1178</ele>
        <time>2018-05-25T11:38:46Z</time>
      </trkpt>
      <trkpt lat="43.87401" lon="6.46319">
        <ele>1178</ele>
        <time>2018-05-25T11:39:06Z</time>
      </trkpt>
      <trkpt lat="43.87404" lon="6.4632">
        <ele>1178</ele>
        <time>2018-05-25T11:39:33Z</time>
      </trkpt>
      <trkpt lat="43.87404" lon="6.46321">
        <ele>1178</ele>
        <time>2018-05-25T11:39:55Z</time>
      </trkpt>
      <trkpt lat="43.87403" lon="6.46322">
        <ele>1178</ele>
        <time>2018-05-25T11:40:13Z</time>
      </trkpt>
      <trkpt lat="43.87406" lon="6.46323">
        <ele>1179</ele>
        <time>2018-05-25T11:40:32Z</time>
      </trkpt>
      <trkpt lat="43.87417" lon="6.46325">
        <ele>1179</ele>
        <time>2018-05-25T11:40:48Z</time>
      </trkpt>
      <trkpt lat="43.87426" lon="6.46327">
        <ele>1180</ele>
        <time>2018-05-25T11:41:03Z</time>
      </trkpt>
      <trkpt lat="43.87436" lon="6.46327">
        <ele>1182</ele>
        <time>2018-05-25T11:41:19Z</time>
      </trkpt>
      <trkpt lat="43.87444" lon="6.46328">
        <ele>1183</ele>
        <time>2018-05-25T11:41:35Z</time>
      </trkpt>
      <trkpt lat="43.8745" lon="6.46328">
        <ele>1184</ele>
        <time>2018-05-25T11:41:50Z</time>
      </trkpt>
      <trkpt lat="43.87457" lon="6.46324">
        <ele>1185</ele>
        <time>2018-05-25T11:42:06Z</time>
      </trkpt>
      <trkpt lat="43.87465" lon="6.46319">
        <ele>1186</ele>
        <time>2018-05-25T11:42:20Z</time>
      </trkpt>
      <trkpt lat="43.87471" lon="6.46312">
        <ele>1187</ele>
        <time>2018-05-25T11:42:35Z</time>
      </trkpt>
      <trkpt lat="43.8748" lon="6.46308">
        <ele>1190</ele>
        <time>2018-05-25T11:42:50Z</time>
      </trkpt>
      <trkpt lat="43.87488" lon="6.46305">
        <ele>1193</ele>
        <time>2018-05-25T11:43:01Z</time>
      </trkpt>
      <trkpt lat="43.87498" lon="6.46288">
        <ele>1195</ele>
        <time>2018-05-25T11:43:18Z</time>
      </trkpt>
      <trkpt lat="43.87507" lon="6.46285">
        <ele>1197</ele>
        <time>2018-05-25T11:43:32Z</time>
      </trkpt>
      <trkpt lat="43.87514" lon="6.46284">
        <ele>1199</ele>
        <time>2018-05-25T11:43:47Z</time>
      </trkpt>
      <trkpt lat="43.8752" lon="6.46278">
        <ele>1200</ele>
        <time>2018-05-25T11:44:01Z</time>
      </trkpt>
      <trkpt lat="43.87528" lon="6.46281">
        <ele>1202</ele>
        <time>2018-05-25T11:44:14Z</time>
      </trkpt>
      <trkpt lat="43.87541" lon="6.46278">
        <ele>1205</ele>
        <time>2018-05-25T11:44:32Z</time>
      </trkpt>
      <trkpt lat="43.87552" lon="6.46275">
        <ele>1208</ele>
        <time>2018-05-25T11:44:47Z</time>
      </trkpt>
      <trkpt lat="43.87559" lon="6.46273">
        <ele>1209</ele>
        <time>2018-05-25T11:45:03Z</time>
      </trkpt>
      <trkpt lat="43.87568" lon="6.46271">
        <ele>1211</ele>
        <time>2018-05-25T11:45:17Z</time>
      </trkpt>
      <trkpt lat="43.87574" lon="6.46264">
        <ele>1212</ele>
        <time>2018-05-25T11:45:35Z</time>
      </trkpt>
      <trkpt lat="43.87577" lon="6.46258">
        <ele>1211</ele>
        <time>2018-05-25T11:45:51Z</time>
      </trkpt>
      <trkpt lat="43.87575" lon="6.46258">
        <ele>1211</ele>
        <time>2018-05-25T11:46:22Z</time>
      </trkpt>
      <trkpt lat="43.8758" lon="6.46255">
        <ele>1212</ele>
        <time>2018-05-25T11:46:46Z</time>
      </trkpt>
      <trkpt lat="43.87585" lon="6.46245">
        <ele>1214</ele>
        <time>2018-05-25T11:47:03Z</time>
      </trkpt>
      <trkpt lat="43.87588" lon="6.4624">
        <ele>1215</ele>
        <time>2018-05-25T11:47:16Z</time>
      </trkpt>
      <trkpt lat="43.87582" lon="6.46234">
        <ele>1214</ele>
        <time>2018-05-25T11:47:27Z</time>
      </trkpt>
      <trkpt lat="43.87571" lon="6.46227">
        <ele>1211</ele>
        <time>2018-05-25T11:47:43Z</time>
      </trkpt>
      <trkpt lat="43.8757" lon="6.46226">
        <ele>1211</ele>
        <time>2018-05-25T11:47:47Z</time>
      </trkpt>
      <trkpt lat="43.87568" lon="6.46225">
        <ele>1210</ele>
        <time>2018-05-25T11:47:48Z</time>
      </trkpt>
      <trkpt lat="43.87567" lon="6.46225">
        <ele>1210</ele>
        <time>2018-05-25T11:47:49Z</time>
      </trkpt>
      <trkpt lat="43.87566" lon="6.46224">
        <ele>1210</ele>
        <time>2018-05-25T11:47:50Z</time>
      </trkpt>
      <trkpt lat="43.87565" lon="6.46223">
        <ele>1210</ele>
        <time>2018-05-25T11:47:51Z</time>
      </trkpt>
      <trkpt lat="43.87563" lon="6.46223">
        <ele>1209</ele>
        <time>2018-05-25T11:47:52Z</time>
      </trkpt>
      <trkpt lat="43.87557" lon="6.46211">
        <ele>1209</ele>
        <time>2018-05-25T11:48:06Z</time>
      </trkpt>
      <trkpt lat="43.87556" lon="6.46199">
        <ele>1210</ele>
        <time>2018-05-25T11:48:21Z</time>
      </trkpt>
      <trkpt lat="43.87555" lon="6.46197">
        <ele>1210</ele>
        <time>2018-05-25T11:48:33Z</time>
      </trkpt>
      <trkpt lat="43.87551" lon="6.46188">
        <ele>1210</ele>
        <time>2018-05-25T11:48:37Z</time>
      </trkpt>
      <trkpt lat="43.87551" lon="6.46186">
        <ele>1211</ele>
        <time>2018-05-25T11:48:38Z</time>
      </trkpt>
      <trkpt lat="43.87551" lon="6.46179">
        <ele>1211</ele>
        <time>2018-05-25T11:48:42Z</time>
      </trkpt>
      <trkpt lat="43.8755" lon="6.46177">
        <ele>1211</ele>
        <time>2018-05-25T11:48:43Z</time>
      </trkpt>
      <trkpt lat="43.87549" lon="6.46174">
        <ele>1211</ele>
        <time>2018-05-25T11:48:44Z</time>
      </trkpt>
      <trkpt lat="43.87549" lon="6.4617">
        <ele>1211</ele>
        <time>2018-05-25T11:48:45Z</time>
      </trkpt>
      <trkpt lat="43.87548" lon="6.46167">
        <ele>1212</ele>
        <time>2018-05-25T11:48:46Z</time>
      </trkpt>
      <trkpt lat="43.87547" lon="6.46164">
        <ele>1212</ele>
        <time>2018-05-25T11:48:47Z</time>
      </trkpt>
      <trkpt lat="43.87545" lon="6.4616">
        <ele>1212</ele>
        <time>2018-05-25T11:48:48Z</time>
      </trkpt>
      <trkpt lat="43.87544" lon="6.46157">
        <ele>1212</ele>
        <time>2018-05-25T11:48:49Z</time>
      </trkpt>
      <trkpt lat="43.87544" lon="6.46141">
        <ele>1213</ele>
        <time>2018-05-25T11:48:58Z</time>
      </trkpt>
      <trkpt lat="43.87545" lon="6.46136">
        <ele>1213</ele>
        <time>2018-05-25T11:49:02Z</time>
      </trkpt>
      <trkpt lat="43.87548" lon="6.46117">
        <ele>1215</ele>
        <time>2018-05-25T11:49:16Z</time>
      </trkpt>
      <trkpt lat="43.87547" lon="6.4611">
        <ele>1215</ele>
        <time>2018-05-25T11:49:30Z</time>
      </trkpt>
      <trkpt lat="43.87546" lon="6.461">
        <ele>1214</ele>
        <time>2018-05-25T11:49:44Z</time>
      </trkpt>
      <trkpt lat="43.87544" lon="6.46096">
        <ele>1214</ele>
        <time>2018-05-25T11:49:59Z</time>
      </trkpt>
      <trkpt lat="43.87542" lon="6.46094">
        <ele>1213</ele>
        <time>2018-05-25T11:50:41Z</time>
      </trkpt>
      <trkpt lat="43.87544" lon="6.46087">
        <ele>1214</ele>
        <time>2018-05-25T11:51:09Z</time>
      </trkpt>
      <trkpt lat="43.87543" lon="6.46082">
        <ele>1214</ele>
        <time>2018-05-25T11:51:17Z</time>
      </trkpt>
      <trkpt lat="43.87543" lon="6.46081">
        <ele>1213</ele>
        <time>2018-05-25T11:51:18Z</time>
      </trkpt>
      <trkpt lat="43.87542" lon="6.46078">
        <ele>1213</ele>
        <time>2018-05-25T11:51:19Z</time>
      </trkpt>
      <trkpt lat="43.87541" lon="6.46076">
        <ele>1213</ele>
        <time>2018-05-25T11:51:20Z</time>
      </trkpt>
      <trkpt lat="43.8754" lon="6.46073">
        <ele>1213</ele>
        <time>2018-05-25T11:51:21Z</time>
      </trkpt>
      <trkpt lat="43.87539" lon="6.46069">
        <ele>1213</ele>
        <time>2018-05-25T11:51:22Z</time>
      </trkpt>
      <trkpt lat="43.87539" lon="6.46065">
        <ele>1213</ele>
        <time>2018-05-25T11:51:23Z</time>
      </trkpt>
      <trkpt lat="43.8754" lon="6.46062">
        <ele>1213</ele>
        <time>2018-05-25T11:51:24Z</time>
      </trkpt>
      <trkpt lat="43.8754" lon="6.4606">
        <ele>1213</ele>
        <time>2018-05-25T11:51:25Z</time>
      </trkpt>
      <trkpt lat="43.8754" lon="6.46058">
        <ele>1212</ele>
        <time>2018-05-25T11:51:26Z</time>
      </trkpt>
      <trkpt lat="43.8754" lon="6.46055">
        <ele>1212</ele>
        <time>2018-05-25T11:51:27Z</time>
      </trkpt>
      <trkpt lat="43.8754" lon="6.46052">
        <ele>1212</ele>
        <time>2018-05-25T11:51:28Z</time>
      </trkpt>
      <trkpt lat="43.87539" lon="6.4604">
        <ele>1211</ele>
        <time>2018-05-25T11:51:34Z</time>
      </trkpt>
      <trkpt lat="43.87539" lon="6.46038">
        <ele>1210</ele>
        <time>2018-05-25T11:51:49Z</time>
      </trkpt>
      <trkpt lat="43.87539" lon="6.46039">
        <ele>1210</ele>
        <time>2018-05-25T11:52:13Z</time>
      </trkpt>
      <trkpt lat="43.87541" lon="6.46038">
        <ele>1211</ele>
        <time>2018-05-25T11:52:43Z</time>
      </trkpt>
      <trkpt lat="43.87539" lon="6.46039">
        <ele>1210</ele>
        <time>2018-05-25T11:53:25Z</time>
      </trkpt>
      <trkpt lat="43.87539" lon="6.46039">
        <ele>1210</ele>
        <time>2018-05-25T11:54:07Z</time>
      </trkpt>
      <trkpt lat="43.87538" lon="6.46038">
        <ele>1210</ele>
        <time>2018-05-25T11:54:37Z</time>
      </trkpt>
      <trkpt lat="43.87539" lon="6.46038">
        <ele>1210</ele>
        <time>2018-05-25T11:55:12Z</time>
      </trkpt>
      <trkpt lat="43.8754" lon="6.46036">
        <ele>1210</ele>
        <time>2018-05-25T11:55:44Z</time>
      </trkpt>
      <trkpt lat="43.87539" lon="6.46038">
        <ele>1210</ele>
        <time>2018-05-25T11:56:14Z</time>
      </trkpt>
      <trkpt lat="43.8754" lon="6.46038">
        <ele>1210</ele>
        <time>2018-05-25T11:56:36Z</time>
      </trkpt>
      <trkpt lat="43.87541" lon="6.46037">
        <ele>1211</ele>
        <time>2018-05-25T11:56:58Z</time>
      </trkpt>
      <trkpt lat="43.87539" lon="6.46037">
        <ele>1210</ele>
        <time>2018-05-25T11:56:59Z</time>
      </trkpt>
      <trkpt lat="43.87538" lon="6.46036">
        <ele>1210</ele>
        <time>2018-05-25T11:57:00Z</time>
      </trkpt>
      <trkpt lat="43.87537" lon="6.46035">
        <ele>1210</ele>
        <time>2018-05-25T11:57:01Z</time>
      </trkpt>
      <trkpt lat="43.87535" lon="6.46033">
        <ele>1209</ele>
        <time>2018-05-25T11:57:02Z</time>
      </trkpt>
      <trkpt lat="43.87534" lon="6.46031">
        <ele>1209</ele>
        <time>2018-05-25T11:57:03Z</time>
      </trkpt>
      <trkpt lat="43.87534" lon="6.46029">
        <ele>1209</ele>
        <time>2018-05-25T11:57:04Z</time>
      </trkpt>
      <trkpt lat="43.87532" lon="6.46028">
        <ele>1208</ele>
        <time>2018-05-25T11:57:05Z</time>
      </trkpt>
      <trkpt lat="43.8753" lon="6.46026">
        <ele>1208</ele>
        <time>2018-05-25T11:57:06Z</time>
      </trkpt>
      <trkpt lat="43.87528" lon="6.46025">
        <ele>1208</ele>
        <time>2018-05-25T11:57:07Z</time>
      </trkpt>
      <trkpt lat="43.8751" lon="6.46002">
        <ele>1204</ele>
        <time>2018-05-25T11:57:21Z</time>
      </trkpt>
      <trkpt lat="43.87481" lon="6.45982">
        <ele>1200</ele>
        <time>2018-05-25T11:57:33Z</time>
      </trkpt>
      <trkpt lat="43.87474" lon="6.45967">
        <ele>1197</ele>
        <time>2018-05-25T11:57:42Z</time>
      </trkpt>
      <trkpt lat="43.87474" lon="6.45965">
        <ele>1197</ele>
        <time>2018-05-25T11:57:58Z</time>
      </trkpt>
      <trkpt lat="43.87475" lon="6.45965">
        <ele>1197</ele>
        <time>2018-05-25T11:58:18Z</time>
      </trkpt>
      <trkpt lat="43.87475" lon="6.45962">
        <ele>1197</ele>
        <time>2018-05-25T11:58:46Z</time>
      </trkpt>
      <trkpt lat="43.87475" lon="6.45966">
        <ele>1197</ele>
        <time>2018-05-25T11:59:05Z</time>
      </trkpt>
      <trkpt lat="43.87476" lon="6.45964">
        <ele>1197</ele>
        <time>2018-05-25T11:59:11Z</time>
      </trkpt>
      <trkpt lat="43.87485" lon="6.45964">
        <ele>1198</ele>
        <time>2018-05-25T11:59:21Z</time>
      </trkpt>
      <trkpt lat="43.87493" lon="6.45966">
        <ele>1198</ele>
        <time>2018-05-25T11:59:39Z</time>
      </trkpt>
      <trkpt lat="43.87495" lon="6.45966">
        <ele>1198</ele>
        <time>2018-05-25T11:59:40Z</time>
      </trkpt>
      <trkpt lat="43.87497" lon="6.45966">
        <ele>1198</ele>
        <time>2018-05-25T11:59:41Z</time>
      </trkpt>
      <trkpt lat="43.87532" lon="6.45982">
        <ele>1202</ele>
        <time>2018-05-25T11:59:54Z</time>
      </trkpt>
      <trkpt lat="43.8756" lon="6.4599">
        <ele>1206</ele>
        <time>2018-05-25T12:00:04Z</time>
      </trkpt>
      <trkpt lat="43.87579" lon="6.45992">
        <ele>1206</ele>
        <time>2018-05-25T12:00:18Z</time>
      </trkpt>
      <trkpt lat="43.8759" lon="6.45993">
        <ele>1206</ele>
        <time>2018-05-25T12:00:29Z</time>
      </trkpt>
      <trkpt lat="43.87602" lon="6.45992">
        <ele>1206</ele>
        <time>2018-05-25T12:00:41Z</time>
      </trkpt>
      <trkpt lat="43.87618" lon="6.45989">
        <ele>1205</ele>
        <time>2018-05-25T12:00:57Z</time>
      </trkpt>
      <trkpt lat="43.87625" lon="6.45991">
        <ele>1205</ele>
        <time>2018-05-25T12:01:05Z</time>
      </trkpt>
      <trkpt lat="43.87634" lon="6.4599">
        <ele>1205</ele>
        <time>2018-05-25T12:01:18Z</time>
      </trkpt>
      <trkpt lat="43.87634" lon="6.45988">
        <ele>1205</ele>
        <time>2018-05-25T12:01:41Z</time>
      </trkpt>
      <trkpt lat="43.87641" lon="6.45989">
        <ele>1205</ele>
        <time>2018-05-25T12:02:01Z</time>
      </trkpt>
      <trkpt lat="43.87648" lon="6.45994">
        <ele>1205</ele>
        <time>2018-05-25T12:02:18Z</time>
      </trkpt>
      <trkpt lat="43.87671" lon="6.45999">
        <ele>1209</ele>
        <time>2018-05-25T12:02:27Z</time>
      </trkpt>
      <trkpt lat="43.87695" lon="6.46006">
        <ele>1215</ele>
        <time>2018-05-25T12:02:38Z</time>
      </trkpt>
      <trkpt lat="43.877" lon="6.46006">
        <ele>1217</ele>
        <time>2018-05-25T12:02:53Z</time>
      </trkpt>
      <trkpt lat="43.87702" lon="6.46004">
        <ele>1218</ele>
        <time>2018-05-25T12:03:11Z</time>
      </trkpt>
      <trkpt lat="43.87701" lon="6.46001">
        <ele>1218</ele>
        <time>2018-05-25T12:03:37Z</time>
      </trkpt>
      <trkpt lat="43.87703" lon="6.46">
        <ele>1218</ele>
        <time>2018-05-25T12:03:58Z</time>
      </trkpt>
      <trkpt lat="43.87696" lon="6.46009">
        <ele>1215</ele>
        <time>2018-05-25T12:04:32Z</time>
      </trkpt>
      <trkpt lat="43.877" lon="6.46004">
        <ele>1217</ele>
        <time>2018-05-25T12:05:08Z</time>
      </trkpt>
      <trkpt lat="43.87702" lon="6.46009">
        <ele>1217</ele>
        <time>2018-05-25T12:05:36Z</time>
      </trkpt>
      <trkpt lat="43.87701" lon="6.46009">
        <ele>1217</ele>
        <time>2018-05-25T12:05:37Z</time>
      </trkpt>
      <trkpt lat="43.87694" lon="6.46006">
        <ele>1215</ele>
        <time>2018-05-25T12:05:50Z</time>
      </trkpt>
      <trkpt lat="43.87693" lon="6.46005">
        <ele>1215</ele>
        <time>2018-05-25T12:06:04Z</time>
      </trkpt>
      <trkpt lat="43.87696" lon="6.46006">
        <ele>1216</ele>
        <time>2018-05-25T12:06:25Z</time>
      </trkpt>
      <trkpt lat="43.87692" lon="6.46003">
        <ele>1215</ele>
        <time>2018-05-25T12:06:54Z</time>
      </trkpt>
      <trkpt lat="43.87691" lon="6.46005">
        <ele>1214</ele>
        <time>2018-05-25T12:07:28Z</time>
      </trkpt>
      <trkpt lat="43.87694" lon="6.46008">
        <ele>1215</ele>
        <time>2018-05-25T12:07:57Z</time>
      </trkpt>
      <trkpt lat="43.87694" lon="6.46007">
        <ele>1215</ele>
        <time>2018-05-25T12:08:29Z</time>
      </trkpt>
      <trkpt lat="43.87694" lon="6.46006">
        <ele>1215</ele>
        <time>2018-05-25T12:08:55Z</time>
      </trkpt>
      <trkpt lat="43.87694" lon="6.46007">
        <ele>1215</ele>
        <time>2018-05-25T12:09:18Z</time>
      </trkpt>
      <trkpt lat="43.87694" lon="6.46007">
        <ele>1215</ele>
        <time>2018-05-25T12:09:42Z</time>
      </trkpt>
      <trkpt lat="43.87696" lon="6.46006">
        <ele>1216</ele>
        <time>2018-05-25T12:10:10Z</time>
      </trkpt>
      <trkpt lat="43.87696" lon="6.46005">
        <ele>1216</ele>
        <time>2018-05-25T12:10:37Z</time>
      </trkpt>
      <trkpt lat="43.87694" lon="6.45997">
        <ele>1216</ele>
        <time>2018-05-25T12:11:06Z</time>
      </trkpt>
      <trkpt lat="43.87695" lon="6.45998">
        <ele>1216</ele>
        <time>2018-05-25T12:11:29Z</time>
      </trkpt>
      <trkpt lat="43.87693" lon="6.46005">
        <ele>1215</ele>
        <time>2018-05-25T12:12:07Z</time>
      </trkpt>
      <trkpt lat="43.87693" lon="6.46007">
        <ele>1215</ele>
        <time>2018-05-25T12:12:48Z</time>
      </trkpt>
      <trkpt lat="43.87694" lon="6.46003">
        <ele>1215</ele>
        <time>2018-05-25T12:13:23Z</time>
      </trkpt>
      <trkpt lat="43.877" lon="6.46008">
        <ele>1217</ele>
        <time>2018-05-25T12:13:54Z</time>
      </trkpt>
      <trkpt lat="43.877" lon="6.46005">
        <ele>1217</ele>
        <time>2018-05-25T12:14:21Z</time>
      </trkpt>
      <trkpt lat="43.87699" lon="6.46002">
        <ele>1217</ele>
        <time>2018-05-25T12:14:55Z</time>
      </trkpt>
      <trkpt lat="43.87693" lon="6.4601">
        <ele>1215</ele>
        <time>2018-05-25T12:15:20Z</time>
      </trkpt>
      <trkpt lat="43.87696" lon="6.46011">
        <ele>1215</ele>
        <time>2018-05-25T12:15:49Z</time>
      </trkpt>
      <trkpt lat="43.87699" lon="6.4601">
        <ele>1216</ele>
        <time>2018-05-25T12:16:15Z</time>
      </trkpt>
      <trkpt lat="43.877" lon="6.46005">
        <ele>1217</ele>
        <time>2018-05-25T12:16:41Z</time>
      </trkpt>
      <trkpt lat="43.87703" lon="6.46002">
        <ele>1218</ele>
        <time>2018-05-25T12:17:08Z</time>
      </trkpt>
      <trkpt lat="43.87702" lon="6.46004">
        <ele>1218</ele>
        <time>2018-05-25T12:17:37Z</time>
      </trkpt>
      <trkpt lat="43.87703" lon="6.46005">
        <ele>1218</ele>
        <time>2018-05-25T12:18:07Z</time>
      </trkpt>
      <trkpt lat="43.87695" lon="6.46002">
        <ele>1216</ele>
        <time>2018-05-25T12:18:32Z</time>
      </trkpt>
      <trkpt lat="43.87685" lon="6.46">
        <ele>1213</ele>
        <time>2018-05-25T12:18:45Z</time>
      </trkpt>
      <trkpt lat="43.87672" lon="6.46">
        <ele>1209</ele>
        <time>2018-05-25T12:19:01Z</time>
      </trkpt>
      <trkpt lat="43.87658" lon="6.45998">
        <ele>1205</ele>
        <time>2018-05-25T12:19:16Z</time>
      </trkpt>
      <trkpt lat="43.87649" lon="6.45995">
        <ele>1205</ele>
        <time>2018-05-25T12:19:29Z</time>
      </trkpt>
      <trkpt lat="43.87638" lon="6.4599">
        <ele>1205</ele>
        <time>2018-05-25T12:19:42Z</time>
      </trkpt>
      <trkpt lat="43.87633" lon="6.45989">
        <ele>1205</ele>
        <time>2018-05-25T12:19:59Z</time>
      </trkpt>
      <trkpt lat="43.87628" lon="6.45989">
        <ele>1205</ele>
        <time>2018-05-25T12:20:12Z</time>
      </trkpt>
      <trkpt lat="43.87627" lon="6.45988">
        <ele>1205</ele>
        <time>2018-05-25T12:20:13Z</time>
      </trkpt>
      <trkpt lat="43.87622" lon="6.45987">
        <ele>1204</ele>
        <time>2018-05-25T12:20:16Z</time>
      </trkpt>
      <trkpt lat="43.8762" lon="6.45988">
        <ele>1205</ele>
        <time>2018-05-25T12:20:17Z</time>
      </trkpt>
      <trkpt lat="43.87617" lon="6.45989">
        <ele>1205</ele>
        <time>2018-05-25T12:20:18Z</time>
      </trkpt>
      <trkpt lat="43.87615" lon="6.4599">
        <ele>1205</ele>
        <time>2018-05-25T12:20:19Z</time>
      </trkpt>
      <trkpt lat="43.87613" lon="6.4599">
        <ele>1205</ele>
        <time>2018-05-25T12:20:20Z</time>
      </trkpt>
      <trkpt lat="43.8759" lon="6.45992">
        <ele>1206</ele>
        <time>2018-05-25T12:20:30Z</time>
      </trkpt>
      <trkpt lat="43.87549" lon="6.45985">
        <ele>1204</ele>
        <time>2018-05-25T12:20:42Z</time>
      </trkpt>
      <trkpt lat="43.87526" lon="6.45976">
        <ele>1200</ele>
        <time>2018-05-25T12:20:49Z</time>
      </trkpt>
      <trkpt lat="43.87521" lon="6.45974">
        <ele>1200</ele>
        <time>2018-05-25T12:20:50Z</time>
      </trkpt>
      <trkpt lat="43.87483" lon="6.45963">
        <ele>1198</ele>
        <time>2018-05-25T12:21:01Z</time>
      </trkpt>
      <trkpt lat="43.87481" lon="6.45964">
        <ele>1198</ele>
        <time>2018-05-25T12:21:02Z</time>
      </trkpt>
      <trkpt lat="43.87477" lon="6.45965">
        <ele>1197</ele>
        <time>2018-05-25T12:21:14Z</time>
      </trkpt>
      <trkpt lat="43.87477" lon="6.45966">
        <ele>1197</ele>
        <time>2018-05-25T12:21:39Z</time>
      </trkpt>
      <trkpt lat="43.87478" lon="6.45966">
        <ele>1198</ele>
        <time>2018-05-25T12:22:00Z</time>
      </trkpt>
      <trkpt lat="43.87477" lon="6.45966">
        <ele>1197</ele>
        <time>2018-05-25T12:22:26Z</time>
      </trkpt>
      <trkpt lat="43.87474" lon="6.45969">
        <ele>1197</ele>
        <time>2018-05-25T12:22:53Z</time>
      </trkpt>
      <trkpt lat="43.87473" lon="6.4597">
        <ele>1197</ele>
        <time>2018-05-25T12:23:10Z</time>
      </trkpt>
      <trkpt lat="43.87474" lon="6.45968">
        <ele>1197</ele>
        <time>2018-05-25T12:23:36Z</time>
      </trkpt>
      <trkpt lat="43.87474" lon="6.45968">
        <ele>1197</ele>
        <time>2018-05-25T12:24:04Z</time>
      </trkpt>
      <trkpt lat="43.87474" lon="6.4597">
        <ele>1197</ele>
        <time>2018-05-25T12:24:30Z</time>
      </trkpt>
      <trkpt lat="43.87472" lon="6.45972">
        <ele>1197</ele>
        <time>2018-05-25T12:24:44Z</time>
      </trkpt>
      <trkpt lat="43.87468" lon="6.4597">
        <ele>1196</ele>
        <time>2018-05-25T12:24:56Z</time>
      </trkpt>
      <trkpt lat="43.87466" lon="6.45969">
        <ele>1195</ele>
        <time>2018-05-25T12:24:59Z</time>
      </trkpt>
      <trkpt lat="43.87465" lon="6.45968">
        <ele>1195</ele>
        <time>2018-05-25T12:25:00Z</time>
      </trkpt>
      <trkpt lat="43.87446" lon="6.45955">
        <ele>1191</ele>
        <time>2018-05-25T12:25:12Z</time>
      </trkpt>
      <trkpt lat="43.87425" lon="6.45939">
        <ele>1189</ele>
        <time>2018-05-25T12:25:23Z</time>
      </trkpt>
      <trkpt lat="43.87413" lon="6.4593">
        <ele>1188</ele>
        <time>2018-05-25T12:25:33Z</time>
      </trkpt>
      <trkpt lat="43.87407" lon="6.45928">
        <ele>1187</ele>
        <time>2018-05-25T12:25:42Z</time>
      </trkpt>
      <trkpt lat="43.87398" lon="6.4593">
        <ele>1187</ele>
        <time>2018-05-25T12:25:55Z</time>
      </trkpt>
      <trkpt lat="43.87395" lon="6.45924">
        <ele>1186</ele>
        <time>2018-05-25T12:26:09Z</time>
      </trkpt>
      <trkpt lat="43.87391" lon="6.45924">
        <ele>1185</ele>
        <time>2018-05-25T12:26:22Z</time>
      </trkpt>
      <trkpt lat="43.87385" lon="6.45926">
        <ele>1185</ele>
        <time>2018-05-25T12:26:37Z</time>
      </trkpt>
      <trkpt lat="43.87384" lon="6.45924">
        <ele>1185</ele>
        <time>2018-05-25T12:26:40Z</time>
      </trkpt>
      <trkpt lat="43.87382" lon="6.45923">
        <ele>1185</ele>
        <time>2018-05-25T12:26:41Z</time>
      </trkpt>
      <trkpt lat="43.87381" lon="6.45923">
        <ele>1185</ele>
        <time>2018-05-25T12:26:42Z</time>
      </trkpt>
      <trkpt lat="43.87379" lon="6.45924">
        <ele>1185</ele>
        <time>2018-05-25T12:26:43Z</time>
      </trkpt>
      <trkpt lat="43.87377" lon="6.45924">
        <ele>1185</ele>
        <time>2018-05-25T12:26:44Z</time>
      </trkpt>
      <trkpt lat="43.87375" lon="6.45923">
        <ele>1184</ele>
        <time>2018-05-25T12:26:45Z</time>
      </trkpt>
      <trkpt lat="43.87373" lon="6.45922">
        <ele>1184</ele>
        <time>2018-05-25T12:26:46Z</time>
      </trkpt>
      <trkpt lat="43.87369" lon="6.45919">
        <ele>1184</ele>
        <time>2018-05-25T12:26:49Z</time>
      </trkpt>
      <trkpt lat="43.87368" lon="6.45917">
        <ele>1183</ele>
        <time>2018-05-25T12:26:50Z</time>
      </trkpt>
      <trkpt lat="43.87366" lon="6.45916">
        <ele>1183</ele>
        <time>2018-05-25T12:26:51Z</time>
      </trkpt>
      <trkpt lat="43.87365" lon="6.45915">
        <ele>1183</ele>
        <time>2018-05-25T12:26:52Z</time>
      </trkpt>
      <trkpt lat="43.87364" lon="6.45914">
        <ele>1183</ele>
        <time>2018-05-25T12:26:53Z</time>
      </trkpt>
      <trkpt lat="43.87363" lon="6.45913">
        <ele>1183</ele>
        <time>2018-05-25T12:26:54Z</time>
      </trkpt>
      <trkpt lat="43.87361" lon="6.45912">
        <ele>1183</ele>
        <time>2018-05-25T12:26:55Z</time>
      </trkpt>
      <trkpt lat="43.8736" lon="6.45911">
        <ele>1183</ele>
        <time>2018-05-25T12:26:56Z</time>
      </trkpt>
      <trkpt lat="43.87359" lon="6.45909">
        <ele>1182</ele>
        <time>2018-05-25T12:26:57Z</time>
      </trkpt>
      <trkpt lat="43.87358" lon="6.45907">
        <ele>1182</ele>
        <time>2018-05-25T12:26:58Z</time>
      </trkpt>
      <trkpt lat="43.87358" lon="6.45906">
        <ele>1182</ele>
        <time>2018-05-25T12:26:59Z</time>
      </trkpt>
      <trkpt lat="43.87357" lon="6.45904">
        <ele>1182</ele>
        <time>2018-05-25T12:27:00Z</time>
      </trkpt>
      <trkpt lat="43.87356" lon="6.45903">
        <ele>1182</ele>
        <time>2018-05-25T12:27:01Z</time>
      </trkpt>
      <trkpt lat="43.87355" lon="6.45901">
        <ele>1182</ele>
        <time>2018-05-25T12:27:02Z</time>
      </trkpt>
      <trkpt lat="43.87354" lon="6.459">
        <ele>1182</ele>
        <time>2018-05-25T12:27:03Z</time>
      </trkpt>
      <trkpt lat="43.87352" lon="6.45896">
        <ele>1182</ele>
        <time>2018-05-25T12:27:06Z</time>
      </trkpt>
      <trkpt lat="43.87348" lon="6.45893">
        <ele>1181</ele>
        <time>2018-05-25T12:27:19Z</time>
      </trkpt>
      <trkpt lat="43.87345" lon="6.4589">
        <ele>1181</ele>
        <time>2018-05-25T12:27:34Z</time>
      </trkpt>
      <trkpt lat="43.87341" lon="6.45887">
        <ele>1180</ele>
        <time>2018-05-25T12:27:47Z</time>
      </trkpt>
      <trkpt lat="43.87341" lon="6.45882">
        <ele>1180</ele>
        <time>2018-05-25T12:28:00Z</time>
      </trkpt>
      <trkpt lat="43.8734" lon="6.4588">
        <ele>1180</ele>
        <time>2018-05-25T12:28:19Z</time>
      </trkpt>
      <trkpt lat="43.87337" lon="6.4587">
        <ele>1179</ele>
        <time>2018-05-25T12:28:35Z</time>
      </trkpt>
      <trkpt lat="43.87336" lon="6.45858">
        <ele>1178</ele>
        <time>2018-05-25T12:28:48Z</time>
      </trkpt>
      <trkpt lat="43.87328" lon="6.45845">
        <ele>1174</ele>
        <time>2018-05-25T12:28:59Z</time>
      </trkpt>
      <trkpt lat="43.87323" lon="6.45836">
        <ele>1172</ele>
        <time>2018-05-25T12:29:04Z</time>
      </trkpt>
      <trkpt lat="43.87314" lon="6.4582">
        <ele>1170</ele>
        <time>2018-05-25T12:29:17Z</time>
      </trkpt>
      <trkpt lat="43.87307" lon="6.45814">
        <ele>1170</ele>
        <time>2018-05-25T12:29:32Z</time>
      </trkpt>
      <trkpt lat="43.87306" lon="6.45815">
        <ele>1170</ele>
        <time>2018-05-25T12:29:54Z</time>
      </trkpt>
      <trkpt lat="43.87306" lon="6.45814">
        <ele>1170</ele>
        <time>2018-05-25T12:30:20Z</time>
      </trkpt>
      <trkpt lat="43.87304" lon="6.4581">
        <ele>1169</ele>
        <time>2018-05-25T12:30:41Z</time>
      </trkpt>
      <trkpt lat="43.87301" lon="6.45799">
        <ele>1167</ele>
        <time>2018-05-25T12:30:56Z</time>
      </trkpt>
      <trkpt lat="43.87296" lon="6.45789">
        <ele>1163</ele>
        <time>2018-05-25T12:31:10Z</time>
      </trkpt>
      <trkpt lat="43.87292" lon="6.45776">
        <ele>1160</ele>
        <time>2018-05-25T12:31:25Z</time>
      </trkpt>
      <trkpt lat="43.87288" lon="6.45764">
        <ele>1157</ele>
        <time>2018-05-25T12:31:40Z</time>
      </trkpt>
      <trkpt lat="43.87283" lon="6.45758">
        <ele>1155</ele>
        <time>2018-05-25T12:31:56Z</time>
      </trkpt>
      <trkpt lat="43.87281" lon="6.45747">
        <ele>1153</ele>
        <time>2018-05-25T12:32:09Z</time>
      </trkpt>
      <trkpt lat="43.87275" lon="6.45731">
        <ele>1151</ele>
        <time>2018-05-25T12:32:25Z</time>
      </trkpt>
      <trkpt lat="43.87274" lon="6.45718">
        <ele>1148</ele>
        <time>2018-05-25T12:32:38Z</time>
      </trkpt>
      <trkpt lat="43.8727" lon="6.45707">
        <ele>1145</ele>
        <time>2018-05-25T12:32:51Z</time>
      </trkpt>
      <trkpt lat="43.87264" lon="6.45695">
        <ele>1143</ele>
        <time>2018-05-25T12:33:09Z</time>
      </trkpt>
      <trkpt lat="43.8726" lon="6.45688">
        <ele>1141</ele>
        <time>2018-05-25T12:33:24Z</time>
      </trkpt>
      <trkpt lat="43.87253" lon="6.45679">
        <ele>1137</ele>
        <time>2018-05-25T12:33:38Z</time>
      </trkpt>
      <trkpt lat="43.87249" lon="6.4567">
        <ele>1135</ele>
        <time>2018-05-25T12:33:52Z</time>
      </trkpt>
      <trkpt lat="43.87246" lon="6.45663">
        <ele>1133</ele>
        <time>2018-05-25T12:34:06Z</time>
      </trkpt>
      <trkpt lat="43.87245" lon="6.45661">
        <ele>1132</ele>
        <time>2018-05-25T12:34:21Z</time>
      </trkpt>
      <trkpt lat="43.87246" lon="6.45661">
        <ele>1132</ele>
        <time>2018-05-25T12:34:45Z</time>
      </trkpt>
      <trkpt lat="43.87243" lon="6.45662">
        <ele>1132</ele>
        <time>2018-05-25T12:35:19Z</time>
      </trkpt>
      <trkpt lat="43.87245" lon="6.45664">
        <ele>1133</ele>
        <time>2018-05-25T12:35:43Z</time>
      </trkpt>
      <trkpt lat="43.87245" lon="6.45662">
        <ele>1133</ele>
        <time>2018-05-25T12:36:20Z</time>
      </trkpt>
      <trkpt lat="43.87246" lon="6.45661">
        <ele>1132</ele>
        <time>2018-05-25T12:36:48Z</time>
      </trkpt>
      <trkpt lat="43.87246" lon="6.45664">
        <ele>1133</ele>
        <time>2018-05-25T12:37:13Z</time>
      </trkpt>
      <trkpt lat="43.87245" lon="6.45663">
        <ele>1133</ele>
        <time>2018-05-25T12:37:36Z</time>
      </trkpt>
      <trkpt lat="43.87248" lon="6.45664">
        <ele>1134</ele>
        <time>2018-05-25T12:38:02Z</time>
      </trkpt>
      <trkpt lat="43.87248" lon="6.45662">
        <ele>1133</ele>
        <time>2018-05-25T12:38:19Z</time>
      </trkpt>
      <trkpt lat="43.87241" lon="6.45658">
        <ele>1131</ele>
        <time>2018-05-25T12:38:32Z</time>
      </trkpt>
      <trkpt lat="43.87237" lon="6.4565">
        <ele>1128</ele>
        <time>2018-05-25T12:38:47Z</time>
      </trkpt>
      <trkpt lat="43.87233" lon="6.45651">
        <ele>1128</ele>
        <time>2018-05-25T12:39:02Z</time>
      </trkpt>
      <trkpt lat="43.87231" lon="6.45649">
        <ele>1128</ele>
        <time>2018-05-25T12:39:16Z</time>
      </trkpt>
      <trkpt lat="43.87229" lon="6.45644">
        <ele>1126</ele>
        <time>2018-05-25T12:39:29Z</time>
      </trkpt>
      <trkpt lat="43.87225" lon="6.45639">
        <ele>1125</ele>
        <time>2018-05-25T12:39:43Z</time>
      </trkpt>
      <trkpt lat="43.87221" lon="6.45634">
        <ele>1123</ele>
        <time>2018-05-25T12:40:02Z</time>
      </trkpt>
      <trkpt lat="43.87224" lon="6.45633">
        <ele>1124</ele>
        <time>2018-05-25T12:40:16Z</time>
      </trkpt>
      <trkpt lat="43.87218" lon="6.45631">
        <ele>1122</ele>
        <time>2018-05-25T12:40:31Z</time>
      </trkpt>
      <trkpt lat="43.87216" lon="6.45622">
        <ele>1120</ele>
        <time>2018-05-25T12:40:48Z</time>
      </trkpt>
      <trkpt lat="43.87214" lon="6.45617">
        <ele>1118</ele>
        <time>2018-05-25T12:41:01Z</time>
      </trkpt>
      <trkpt lat="43.87216" lon="6.4561">
        <ele>1117</ele>
        <time>2018-05-25T12:41:17Z</time>
      </trkpt>
      <trkpt lat="43.87216" lon="6.45606">
        <ele>1116</ele>
        <time>2018-05-25T12:41:37Z</time>
      </trkpt>
      <trkpt lat="43.87213" lon="6.45601">
        <ele>1114</ele>
        <time>2018-05-25T12:41:51Z</time>
      </trkpt>
      <trkpt lat="43.87214" lon="6.45595">
        <ele>1113</ele>
        <time>2018-05-25T12:42:04Z</time>
      </trkpt>
      <trkpt lat="43.8721" lon="6.45589">
        <ele>1110</ele>
        <time>2018-05-25T12:42:18Z</time>
      </trkpt>
      <trkpt lat="43.8721" lon="6.45584">
        <ele>1109</ele>
        <time>2018-05-25T12:42:39Z</time>
      </trkpt>
      <trkpt lat="43.87209" lon="6.45577">
        <ele>1107</ele>
        <time>2018-05-25T12:42:58Z</time>
      </trkpt>
      <trkpt lat="43.8721" lon="6.4557">
        <ele>1105</ele>
        <time>2018-05-25T12:43:11Z</time>
      </trkpt>
      <trkpt lat="43.87214" lon="6.4556">
        <ele>1103</ele>
        <time>2018-05-25T12:43:26Z</time>
      </trkpt>
      <trkpt lat="43.87215" lon="6.45546">
        <ele>1099</ele>
        <time>2018-05-25T12:43:41Z</time>
      </trkpt>
      <trkpt lat="43.87218" lon="6.45535">
        <ele>1096</ele>
        <time>2018-05-25T12:43:56Z</time>
      </trkpt>
      <trkpt lat="43.87217" lon="6.45528">
        <ele>1094</ele>
        <time>2018-05-25T12:44:08Z</time>
      </trkpt>
      <trkpt lat="43.87214" lon="6.45518">
        <ele>1091</ele>
        <time>2018-05-25T12:44:22Z</time>
      </trkpt>
      <trkpt lat="43.87212" lon="6.45506">
        <ele>1088</ele>
        <time>2018-05-25T12:44:36Z</time>
      </trkpt>
      <trkpt lat="43.87212" lon="6.45495">
        <ele>1084</ele>
        <time>2018-05-25T12:44:50Z</time>
      </trkpt>
      <trkpt lat="43.87208" lon="6.45487">
        <ele>1083</ele>
        <time>2018-05-25T12:45:03Z</time>
      </trkpt>
      <trkpt lat="43.87206" lon="6.45476">
        <ele>1080</ele>
        <time>2018-05-25T12:45:15Z</time>
      </trkpt>
      <trkpt lat="43.87204" lon="6.45467">
        <ele>1080</ele>
        <time>2018-05-25T12:45:25Z</time>
      </trkpt>
      <trkpt lat="43.87205" lon="6.45454">
        <ele>1080</ele>
        <time>2018-05-25T12:45:39Z</time>
      </trkpt>
      <trkpt lat="43.87208" lon="6.45443">
        <ele>1081</ele>
        <time>2018-05-25T12:45:54Z</time>
      </trkpt>
      <trkpt lat="43.87206" lon="6.45433">
        <ele>1080</ele>
        <time>2018-05-25T12:46:06Z</time>
      </trkpt>
      <trkpt lat="43.87203" lon="6.45429">
        <ele>1080</ele>
        <time>2018-05-25T12:46:22Z</time>
      </trkpt>
      <trkpt lat="43.87204" lon="6.45424">
        <ele>1080</ele>
        <time>2018-05-25T12:46:35Z</time>
      </trkpt>
      <trkpt lat="43.87204" lon="6.45417">
        <ele>1080</ele>
        <time>2018-05-25T12:46:49Z</time>
      </trkpt>
      <trkpt lat="43.87203" lon="6.45421">
        <ele>1080</ele>
        <time>2018-05-25T12:47:04Z</time>
      </trkpt>
      <trkpt lat="43.87203" lon="6.45425">
        <ele>1080</ele>
        <time>2018-05-25T12:47:31Z</time>
      </trkpt>
      <trkpt lat="43.87208" lon="6.45421">
        <ele>1081</ele>
        <time>2018-05-25T12:48:01Z</time>
      </trkpt>
      <trkpt lat="43.87205" lon="6.45419">
        <ele>1080</ele>
        <time>2018-05-25T12:48:24Z</time>
      </trkpt>
      <trkpt lat="43.87201" lon="6.45412">
        <ele>1080</ele>
        <time>2018-05-25T12:48:36Z</time>
      </trkpt>
      <trkpt lat="43.87196" lon="6.45404">
        <ele>1078</ele>
        <time>2018-05-25T12:48:56Z</time>
      </trkpt>
      <trkpt lat="43.87195" lon="6.45402">
        <ele>1078</ele>
        <time>2018-05-25T12:49:05Z</time>
      </trkpt>
      <trkpt lat="43.87188" lon="6.45385">
        <ele>1077</ele>
        <time>2018-05-25T12:49:19Z</time>
      </trkpt>
      <trkpt lat="43.87186" lon="6.45375">
        <ele>1076</ele>
        <time>2018-05-25T12:49:36Z</time>
      </trkpt>
      <trkpt lat="43.87185" lon="6.45369">
        <ele>1076</ele>
        <time>2018-05-25T12:49:49Z</time>
      </trkpt>
      <trkpt lat="43.87186" lon="6.45365">
        <ele>1076</ele>
        <time>2018-05-25T12:49:59Z</time>
      </trkpt>
      <trkpt lat="43.87185" lon="6.45361">
        <ele>1076</ele>
        <time>2018-05-25T12:50:10Z</time>
      </trkpt>
      <trkpt lat="43.8719" lon="6.45357">
        <ele>1075</ele>
        <time>2018-05-25T12:50:35Z</time>
      </trkpt>
      <trkpt lat="43.87188" lon="6.45358">
        <ele>1075</ele>
        <time>2018-05-25T12:50:59Z</time>
      </trkpt>
      <trkpt lat="43.8719" lon="6.45356">
        <ele>1075</ele>
        <time>2018-05-25T12:51:31Z</time>
      </trkpt>
      <trkpt lat="43.87192" lon="6.4536">
        <ele>1076</ele>
        <time>2018-05-25T12:51:53Z</time>
      </trkpt>
      <trkpt lat="43.87188" lon="6.45361">
        <ele>1075</ele>
        <time>2018-05-25T12:52:10Z</time>
      </trkpt>
      <trkpt lat="43.87185" lon="6.45359">
        <ele>1076</ele>
        <time>2018-05-25T12:52:19Z</time>
      </trkpt>
      <trkpt lat="43.87184" lon="6.45352">
        <ele>1075</ele>
        <time>2018-05-25T12:52:22Z</time>
      </trkpt>
      <trkpt lat="43.87184" lon="6.45348">
        <ele>1075</ele>
        <time>2018-05-25T12:52:23Z</time>
      </trkpt>
      <trkpt lat="43.87184" lon="6.45344">
        <ele>1075</ele>
        <time>2018-05-25T12:52:24Z</time>
      </trkpt>
      <trkpt lat="43.87184" lon="6.4534">
        <ele>1075</ele>
        <time>2018-05-25T12:52:25Z</time>
      </trkpt>
      <trkpt lat="43.87186" lon="6.45292">
        <ele>1072</ele>
        <time>2018-05-25T12:52:35Z</time>
      </trkpt>
      <trkpt lat="43.87176" lon="6.45242">
        <ele>1073</ele>
        <time>2018-05-25T12:52:44Z</time>
      </trkpt>
      <trkpt lat="43.87173" lon="6.45186">
        <ele>1074</ele>
        <time>2018-05-25T12:52:55Z</time>
      </trkpt>
      <trkpt lat="43.8717" lon="6.45141">
        <ele>1074</ele>
        <time>2018-05-25T12:53:07Z</time>
      </trkpt>
      <trkpt lat="43.87169" lon="6.45132">
        <ele>1074</ele>
        <time>2018-05-25T12:53:19Z</time>
      </trkpt>
      <trkpt lat="43.87168" lon="6.45128">
        <ele>1073</ele>
        <time>2018-05-25T12:53:40Z</time>
      </trkpt>
      <trkpt lat="43.87167" lon="6.4513">
        <ele>1073</ele>
        <time>2018-05-25T12:54:15Z</time>
      </trkpt>
      <trkpt lat="43.87167" lon="6.45131">
        <ele>1073</ele>
        <time>2018-05-25T12:54:35Z</time>
      </trkpt>
      <trkpt lat="43.87168" lon="6.45133">
        <ele>1074</ele>
        <time>2018-05-25T12:54:57Z</time>
      </trkpt>
      <trkpt lat="43.87169" lon="6.4513">
        <ele>1074</ele>
        <time>2018-05-25T12:55:28Z</time>
      </trkpt>
      <trkpt lat="43.87168" lon="6.45127">
        <ele>1073</ele>
        <time>2018-05-25T12:55:36Z</time>
      </trkpt>
      <trkpt lat="43.87167" lon="6.45126">
        <ele>1073</ele>
        <time>2018-05-25T12:55:37Z</time>
      </trkpt>
      <trkpt lat="43.87164" lon="6.45125">
        <ele>1072</ele>
        <time>2018-05-25T12:55:38Z</time>
      </trkpt>
      <trkpt lat="43.87161" lon="6.45125">
        <ele>1071</ele>
        <time>2018-05-25T12:55:39Z</time>
      </trkpt>
      <trkpt lat="43.87157" lon="6.45125">
        <ele>1070</ele>
        <time>2018-05-25T12:55:40Z</time>
      </trkpt>
      <trkpt lat="43.87152" lon="6.45122">
        <ele>1068</ele>
        <time>2018-05-25T12:55:41Z</time>
      </trkpt>
      <trkpt lat="43.87149" lon="6.45116">
        <ele>1067</ele>
        <time>2018-05-25T12:55:42Z</time>
      </trkpt>
      <trkpt lat="43.87146" lon="6.4511">
        <ele>1066</ele>
        <time>2018-05-25T12:55:43Z</time>
      </trkpt>
      <trkpt lat="43.87143" lon="6.45103">
        <ele>1065</ele>
        <time>2018-05-25T12:55:44Z</time>
      </trkpt>
      <trkpt lat="43.87141" lon="6.45095">
        <ele>1064</ele>
        <time>2018-05-25T12:55:45Z</time>
      </trkpt>
      <trkpt lat="43.87139" lon="6.45087">
        <ele>1064</ele>
        <time>2018-05-25T12:55:46Z</time>
      </trkpt>
      <trkpt lat="43.87137" lon="6.45078">
        <ele>1063</ele>
        <time>2018-05-25T12:55:47Z</time>
      </trkpt>
      <trkpt lat="43.87133" lon="6.4507">
        <ele>1062</ele>
        <time>2018-05-25T12:55:48Z</time>
      </trkpt>
      <trkpt lat="43.87129" lon="6.45064">
        <ele>1061</ele>
        <time>2018-05-25T12:55:49Z</time>
      </trkpt>
      <trkpt lat="43.87123" lon="6.45059">
        <ele>1060</ele>
        <time>2018-05-25T12:55:50Z</time>
      </trkpt>
      <trkpt lat="43.87116" lon="6.45055">
        <ele>1059</ele>
        <time>2018-05-25T12:55:51Z</time>
      </trkpt>
      <trkpt lat="43.87109" lon="6.45052">
        <ele>1057</ele>
        <time>2018-05-25T12:55:52Z</time>
      </trkpt>
      <trkpt lat="43.87102" lon="6.45049">
        <ele>1057</ele>
        <time>2018-05-25T12:55:53Z</time>
      </trkpt>
      <trkpt lat="43.87089" lon="6.45045">
        <ele>1057</ele>
        <time>2018-05-25T12:55:55Z</time>
      </trkpt>
      <trkpt lat="43.87038" lon="6.45034">
        <ele>1056</ele>
        <time>2018-05-25T12:56:03Z</time>
      </trkpt>
      <trkpt lat="43.87032" lon="6.45033">
        <ele>1056</ele>
        <time>2018-05-25T12:56:04Z</time>
      </trkpt>
      <trkpt lat="43.87025" lon="6.45031">
        <ele>1055</ele>
        <time>2018-05-25T12:56:05Z</time>
      </trkpt>
      <trkpt lat="43.86979" lon="6.45017">
        <ele>1054</ele>
        <time>2018-05-25T12:56:15Z</time>
      </trkpt>
      <trkpt lat="43.86976" lon="6.45012">
        <ele>1053</ele>
        <time>2018-05-25T12:56:18Z</time>
      </trkpt>
      <trkpt lat="43.86977" lon="6.45011">
        <ele>1053</ele>
        <time>2018-05-25T12:56:30Z</time>
      </trkpt>
      <trkpt lat="43.86978" lon="6.45008">
        <ele>1053</ele>
        <time>2018-05-25T12:56:41Z</time>
      </trkpt>
      <trkpt lat="43.86979" lon="6.45006">
        <ele>1053</ele>
        <time>2018-05-25T12:56:42Z</time>
      </trkpt>
      <trkpt lat="43.87002" lon="6.44975">
        <ele>1051</ele>
        <time>2018-05-25T12:56:53Z</time>
      </trkpt>
      <trkpt lat="43.8701" lon="6.44959">
        <ele>1051</ele>
        <time>2018-05-25T12:56:56Z</time>
      </trkpt>
      <trkpt lat="43.87019" lon="6.44944">
        <ele>1050</ele>
        <time>2018-05-25T12:56:59Z</time>
      </trkpt>
      <trkpt lat="43.87026" lon="6.44934">
        <ele>1050</ele>
        <time>2018-05-25T12:57:01Z</time>
      </trkpt>
      <trkpt lat="43.87066" lon="6.44864">
        <ele>1047</ele>
        <time>2018-05-25T12:57:13Z</time>
      </trkpt>
      <trkpt lat="43.8707" lon="6.44859">
        <ele>1047</ele>
        <time>2018-05-25T12:57:14Z</time>
      </trkpt>
      <trkpt lat="43.87074" lon="6.44854">
        <ele>1046</ele>
        <time>2018-05-25T12:57:15Z</time>
      </trkpt>
      <trkpt lat="43.87099" lon="6.4482">
        <ele>1046</ele>
        <time>2018-05-25T12:57:21Z</time>
      </trkpt>
      <trkpt lat="43.87106" lon="6.44799">
        <ele>1045</ele>
        <time>2018-05-25T12:57:24Z</time>
      </trkpt>
      <trkpt lat="43.8711" lon="6.44783">
        <ele>1045</ele>
        <time>2018-05-25T12:57:26Z</time>
      </trkpt>
      <trkpt lat="43.87119" lon="6.44728">
        <ele>1044</ele>
        <time>2018-05-25T12:57:33Z</time>
      </trkpt>
      <trkpt lat="43.87122" lon="6.4472">
        <ele>1045</ele>
        <time>2018-05-25T12:57:34Z</time>
      </trkpt>
      <trkpt lat="43.87125" lon="6.44712">
        <ele>1046</ele>
        <time>2018-05-25T12:57:35Z</time>
      </trkpt>
      <trkpt lat="43.87129" lon="6.44705">
        <ele>1046</ele>
        <time>2018-05-25T12:57:36Z</time>
      </trkpt>
      <trkpt lat="43.87133" lon="6.44698">
        <ele>1047</ele>
        <time>2018-05-25T12:57:37Z</time>
      </trkpt>
      <trkpt lat="43.87138" lon="6.44693">
        <ele>1047</ele>
        <time>2018-05-25T12:57:38Z</time>
      </trkpt>
      <trkpt lat="43.87143" lon="6.44689">
        <ele>1047</ele>
        <time>2018-05-25T12:57:39Z</time>
      </trkpt>
      <trkpt lat="43.87149" lon="6.44685">
        <ele>1047</ele>
        <time>2018-05-25T12:57:40Z</time>
      </trkpt>
      <trkpt lat="43.87154" lon="6.44682">
        <ele>1046</ele>
        <time>2018-05-25T12:57:41Z</time>
      </trkpt>
      <trkpt lat="43.8716" lon="6.44679">
        <ele>1046</ele>
        <time>2018-05-25T12:57:42Z</time>
      </trkpt>
      <trkpt lat="43.87238" lon="6.44651">
        <ele>1053</ele>
        <time>2018-05-25T12:57:56Z</time>
      </trkpt>
      <trkpt lat="43.87279" lon="6.44634">
        <ele>1052</ele>
        <time>2018-05-25T12:58:04Z</time>
      </trkpt>
      <trkpt lat="43.87298" lon="6.44614">
        <ele>1047</ele>
        <time>2018-05-25T12:58:08Z</time>
      </trkpt>
      <trkpt lat="43.8734" lon="6.44567">
        <ele>1044</ele>
        <time>2018-05-25T12:58:16Z</time>
      </trkpt>
      <trkpt lat="43.87346" lon="6.44563">
        <ele>1043</ele>
        <time>2018-05-25T12:58:17Z</time>
      </trkpt>
      <trkpt lat="43.87377" lon="6.44541">
        <ele>1043</ele>
        <time>2018-05-25T12:58:22Z</time>
      </trkpt>
      <trkpt lat="43.87405" lon="6.44513">
        <ele>1042</ele>
        <time>2018-05-25T12:58:27Z</time>
      </trkpt>
      <trkpt lat="43.8746" lon="6.4445">
        <ele>1042</ele>
        <time>2018-05-25T12:58:38Z</time>
      </trkpt>
      <trkpt lat="43.87466" lon="6.44445">
        <ele>1042</ele>
        <time>2018-05-25T12:58:39Z</time>
      </trkpt>
      <trkpt lat="43.87536" lon="6.44401">
        <ele>1042</ele>
        <time>2018-05-25T12:58:49Z</time>
      </trkpt>
      <trkpt lat="43.87544" lon="6.444">
        <ele>1041</ele>
        <time>2018-05-25T12:58:50Z</time>
      </trkpt>
      <trkpt lat="43.87551" lon="6.444">
        <ele>1040</ele>
        <time>2018-05-25T12:58:51Z</time>
      </trkpt>
      <trkpt lat="43.87584" lon="6.44405">
        <ele>1038</ele>
        <time>2018-05-25T12:58:56Z</time>
      </trkpt>
      <trkpt lat="43.87591" lon="6.44404">
        <ele>1038</ele>
        <time>2018-05-25T12:58:57Z</time>
      </trkpt>
      <trkpt lat="43.87622" lon="6.44391">
        <ele>1033</ele>
        <time>2018-05-25T12:59:02Z</time>
      </trkpt>
      <trkpt lat="43.87628" lon="6.4439">
        <ele>1032</ele>
        <time>2018-05-25T12:59:03Z</time>
      </trkpt>
      <trkpt lat="43.87641" lon="6.44389">
        <ele>1033</ele>
        <time>2018-05-25T12:59:05Z</time>
      </trkpt>
      <trkpt lat="43.8768" lon="6.44389">
        <ele>1036</ele>
        <time>2018-05-25T12:59:12Z</time>
      </trkpt>
      <trkpt lat="43.87685" lon="6.44386">
        <ele>1038</ele>
        <time>2018-05-25T12:59:13Z</time>
      </trkpt>
      <trkpt lat="43.8769" lon="6.44383">
        <ele>1040</ele>
        <time>2018-05-25T12:59:14Z</time>
      </trkpt>
      <trkpt lat="43.87694" lon="6.44378">
        <ele>1042</ele>
        <time>2018-05-25T12:59:15Z</time>
      </trkpt>
      <trkpt lat="43.87697" lon="6.44374">
        <ele>1044</ele>
        <time>2018-05-25T12:59:16Z</time>
      </trkpt>
      <trkpt lat="43.87701" lon="6.4437">
        <ele>1045</ele>
        <time>2018-05-25T12:59:17Z</time>
      </trkpt>
      <trkpt lat="43.87706" lon="6.44369">
        <ele>1045</ele>
        <time>2018-05-25T12:59:18Z</time>
      </trkpt>
      <trkpt lat="43.87711" lon="6.4437">
        <ele>1045</ele>
        <time>2018-05-25T12:59:19Z</time>
      </trkpt>
      <trkpt lat="43.87716" lon="6.44371">
        <ele>1045</ele>
        <time>2018-05-25T12:59:20Z</time>
      </trkpt>
      <trkpt lat="43.87721" lon="6.44372">
        <ele>1045</ele>
        <time>2018-05-25T12:59:21Z</time>
      </trkpt>
      <trkpt lat="43.87726" lon="6.44374">
        <ele>1041</ele>
        <time>2018-05-25T12:59:22Z</time>
      </trkpt>
      <trkpt lat="43.87731" lon="6.44377">
        <ele>1038</ele>
        <time>2018-05-25T12:59:23Z</time>
      </trkpt>
      <trkpt lat="43.87736" lon="6.44381">
        <ele>1035</ele>
        <time>2018-05-25T12:59:24Z</time>
      </trkpt>
      <trkpt lat="43.87741" lon="6.44386">
        <ele>1032</ele>
        <time>2018-05-25T12:59:25Z</time>
      </trkpt>
      <trkpt lat="43.87745" lon="6.44391">
        <ele>1028</ele>
        <time>2018-05-25T12:59:26Z</time>
      </trkpt>
      <trkpt lat="43.87748" lon="6.44396">
        <ele>1025</ele>
        <time>2018-05-25T12:59:27Z</time>
      </trkpt>
      <trkpt lat="43.87765" lon="6.44429">
        <ele>1040</ele>
        <time>2018-05-25T12:59:37Z</time>
      </trkpt>
      <trkpt lat="43.8777" lon="6.44431">
        <ele>1042</ele>
        <time>2018-05-25T12:59:47Z</time>
      </trkpt>
      <trkpt lat="43.87775" lon="6.44435">
        <ele>1045</ele>
        <time>2018-05-25T13:00:00Z</time>
      </trkpt>
      <trkpt lat="43.87778" lon="6.44436">
        <ele>1046</ele>
        <time>2018-05-25T13:00:17Z</time>
      </trkpt>
      <trkpt lat="43.87778" lon="6.44436">
        <ele>1046</ele>
        <time>2018-05-25T13:00:35Z</time>
      </trkpt>
      <trkpt lat="43.87781" lon="6.44428">
        <ele>1040</ele>
        <time>2018-05-25T13:01:01Z</time>
      </trkpt>
      <trkpt lat="43.8778" lon="6.44429">
        <ele>1040</ele>
        <time>2018-05-25T13:01:20Z</time>
      </trkpt>
      <trkpt lat="43.8778" lon="6.44427">
        <ele>1038</ele>
        <time>2018-05-25T13:01:47Z</time>
      </trkpt>
      <trkpt lat="43.8778" lon="6.44422">
        <ele>1035</ele>
        <time>2018-05-25T13:02:05Z</time>
      </trkpt>
      <trkpt lat="43.87779" lon="6.44421">
        <ele>1034</ele>
        <time>2018-05-25T13:02:29Z</time>
      </trkpt>
      <trkpt lat="43.87779" lon="6.44421">
        <ele>1034</ele>
        <time>2018-05-25T13:02:50Z</time>
      </trkpt>
      <trkpt lat="43.87779" lon="6.44421">
        <ele>1033</ele>
        <time>2018-05-25T13:03:16Z</time>
      </trkpt>
      <trkpt lat="43.8778" lon="6.44419">
        <ele>1032</ele>
        <time>2018-05-25T13:03:37Z</time>
      </trkpt>
      <trkpt lat="43.8778" lon="6.44419">
        <ele>1032</ele>
        <time>2018-05-25T13:03:57Z</time>
      </trkpt>
      <trkpt lat="43.8778" lon="6.4442">
        <ele>1033</ele>
        <time>2018-05-25T13:04:26Z</time>
      </trkpt>
      <trkpt lat="43.87781" lon="6.44422">
        <ele>1035</ele>
        <time>2018-05-25T13:04:47Z</time>
      </trkpt>
      <trkpt lat="43.8778" lon="6.44426">
        <ele>1037</ele>
        <time>2018-05-25T13:05:04Z</time>
      </trkpt>
      <trkpt lat="43.87781" lon="6.44429">
        <ele>1040</ele>
        <time>2018-05-25T13:05:23Z</time>
      </trkpt>
      <trkpt lat="43.87779" lon="6.44432">
        <ele>1042</ele>
        <time>2018-05-25T13:05:46Z</time>
      </trkpt>
      <trkpt lat="43.87778" lon="6.44433">
        <ele>1043</ele>
        <time>2018-05-25T13:06:11Z</time>
      </trkpt>
      <trkpt lat="43.87779" lon="6.44435">
        <ele>1045</ele>
        <time>2018-05-25T13:06:35Z</time>
      </trkpt>
      <trkpt lat="43.8778" lon="6.44437">
        <ele>1047</ele>
        <time>2018-05-25T13:07:03Z</time>
      </trkpt>
      <trkpt lat="43.87779" lon="6.44436">
        <ele>1046</ele>
        <time>2018-05-25T13:07:24Z</time>
      </trkpt>
      <trkpt lat="43.8778" lon="6.44435">
        <ele>1045</ele>
        <time>2018-05-25T13:07:44Z</time>
      </trkpt>
      <trkpt lat="43.8778" lon="6.44429">
        <ele>1040</ele>
        <time>2018-05-25T13:08:06Z</time>
      </trkpt>
      <trkpt lat="43.87781" lon="6.44426">
        <ele>1037</ele>
        <time>2018-05-25T13:08:26Z</time>
      </trkpt>
      <trkpt lat="43.87782" lon="6.44427">
        <ele>1038</ele>
        <time>2018-05-25T13:08:42Z</time>
      </trkpt>
      <trkpt lat="43.87781" lon="6.44422">
        <ele>1034</ele>
        <time>2018-05-25T13:09:04Z</time>
      </trkpt>
      <trkpt lat="43.87781" lon="6.44409">
        <ele>1023</ele>
        <time>2018-05-25T13:09:27Z</time>
      </trkpt>
      <trkpt lat="43.87782" lon="6.44409">
        <ele>1023</ele>
        <time>2018-05-25T13:09:46Z</time>
      </trkpt>
      <trkpt lat="43.87784" lon="6.44408">
        <ele>1023</ele>
        <time>2018-05-25T13:10:12Z</time>
      </trkpt>
      <trkpt lat="43.87784" lon="6.444">
        <ele>1017</ele>
        <time>2018-05-25T13:10:38Z</time>
      </trkpt>
      <trkpt lat="43.87783" lon="6.44403">
        <ele>1018</ele>
        <time>2018-05-25T13:10:57Z</time>
      </trkpt>
      <trkpt lat="43.87783" lon="6.44406">
        <ele>1021</ele>
        <time>2018-05-25T13:11:14Z</time>
      </trkpt>
      <trkpt lat="43.87782" lon="6.44404">
        <ele>1019</ele>
        <time>2018-05-25T13:11:17Z</time>
      </trkpt>
      <trkpt lat="43.87779" lon="6.44405">
        <ele>1020</ele>
        <time>2018-05-25T13:11:20Z</time>
      </trkpt>
      <trkpt lat="43.87777" lon="6.44404">
        <ele>1018</ele>
        <time>2018-05-25T13:11:21Z</time>
      </trkpt>
      <trkpt lat="43.87776" lon="6.44402">
        <ele>1017</ele>
        <time>2018-05-25T13:11:22Z</time>
      </trkpt>
      <trkpt lat="43.87743" lon="6.44362">
        <ele>1034</ele>
        <time>2018-05-25T13:11:38Z</time>
      </trkpt>
      <trkpt lat="43.87693" lon="6.44374">
        <ele>1043</ele>
        <time>2018-05-25T13:11:53Z</time>
      </trkpt>
      <trkpt lat="43.87655" lon="6.44387">
        <ele>1034</ele>
        <time>2018-05-25T13:12:05Z</time>
      </trkpt>
      <trkpt lat="43.87603" lon="6.44397">
        <ele>1035</ele>
        <time>2018-05-25T13:12:22Z</time>
      </trkpt>
      <trkpt lat="43.87562" lon="6.444">
        <ele>1039</ele>
        <time>2018-05-25T13:12:36Z</time>
      </trkpt>
      <trkpt lat="43.87512" lon="6.4441">
        <ele>1042</ele>
        <time>2018-05-25T13:12:52Z</time>
      </trkpt>
      <trkpt lat="43.87459" lon="6.44447">
        <ele>1041</ele>
        <time>2018-05-25T13:13:09Z</time>
      </trkpt>
      <trkpt lat="43.8741" lon="6.44502">
        <ele>1041</ele>
        <time>2018-05-25T13:13:26Z</time>
      </trkpt>
      <trkpt lat="43.87355" lon="6.44552">
        <ele>1041</ele>
        <time>2018-05-25T13:13:43Z</time>
      </trkpt>
      <trkpt lat="43.87314" lon="6.44586">
        <ele>1046</ele>
        <time>2018-05-25T13:13:57Z</time>
      </trkpt>
      <trkpt lat="43.87267" lon="6.44633">
        <ele>1050</ele>
        <time>2018-05-25T13:14:13Z</time>
      </trkpt>
      <trkpt lat="43.87195" lon="6.4466">
        <ele>1048</ele>
        <time>2018-05-25T13:14:32Z</time>
      </trkpt>
      <trkpt lat="43.87131" lon="6.44696">
        <ele>1047</ele>
        <time>2018-05-25T13:14:50Z</time>
      </trkpt>
      <trkpt lat="43.8711" lon="6.4475">
        <ele>1044</ele>
        <time>2018-05-25T13:15:03Z</time>
      </trkpt>
      <trkpt lat="43.8709" lon="6.44824">
        <ele>1046</ele>
        <time>2018-05-25T13:15:20Z</time>
      </trkpt>
      <trkpt lat="43.87052" lon="6.4488">
        <ele>1048</ele>
        <time>2018-05-25T13:15:37Z</time>
      </trkpt>
      <trkpt lat="43.87011" lon="6.44947">
        <ele>1050</ele>
        <time>2018-05-25T13:15:57Z</time>
      </trkpt>
      <trkpt lat="43.86974" lon="6.45008">
        <ele>1053</ele>
        <time>2018-05-25T13:16:16Z</time>
      </trkpt>
      <trkpt lat="43.86967" lon="6.45019">
        <ele>1054</ele>
        <time>2018-05-25T13:16:25Z</time>
      </trkpt>
      <trkpt lat="43.8697" lon="6.45013">
        <ele>1053</ele>
        <time>2018-05-25T13:16:52Z</time>
      </trkpt>
      <trkpt lat="43.86972" lon="6.45015">
        <ele>1053</ele>
        <time>2018-05-25T13:17:15Z</time>
      </trkpt>
      <trkpt lat="43.86973" lon="6.45014">
        <ele>1053</ele>
        <time>2018-05-25T13:17:38Z</time>
      </trkpt>
      <trkpt lat="43.8697" lon="6.45014">
        <ele>1053</ele>
        <time>2018-05-25T13:17:57Z</time>
      </trkpt>
      <trkpt lat="43.86972" lon="6.45014">
        <ele>1053</ele>
        <time>2018-05-25T13:18:18Z</time>
      </trkpt>
      <trkpt lat="43.86973" lon="6.45014">
        <ele>1053</ele>
        <time>2018-05-25T13:18:45Z</time>
      </trkpt>
      <trkpt lat="43.86973" lon="6.45015">
        <ele>1053</ele>
        <time>2018-05-25T13:19:13Z</time>
      </trkpt>
      <trkpt lat="43.86972" lon="6.45012">
        <ele>1053</ele>
        <time>2018-05-25T13:19:41Z</time>
      </trkpt>
      <trkpt lat="43.86972" lon="6.45012">
        <ele>1053</ele>
        <time>2018-05-25T13:20:08Z</time>
      </trkpt>
      <trkpt lat="43.86973" lon="6.45014">
        <ele>1053</ele>
        <time>2018-05-25T13:20:30Z</time>
      </trkpt>
      <trkpt lat="43.86973" lon="6.45012">
        <ele>1053</ele>
        <time>2018-05-25T13:20:55Z</time>
      </trkpt>
      <trkpt lat="43.86971" lon="6.45013">
        <ele>1053</ele>
        <time>2018-05-25T13:21:20Z</time>
      </trkpt>
      <trkpt lat="43.86972" lon="6.45014">
        <ele>1053</ele>
        <time>2018-05-25T13:21:48Z</time>
      </trkpt>
      <trkpt lat="43.86973" lon="6.45012">
        <ele>1053</ele>
        <time>2018-05-25T13:22:18Z</time>
      </trkpt>
      <trkpt lat="43.86971" lon="6.4501">
        <ele>1053</ele>
        <time>2018-05-25T13:22:42Z</time>
      </trkpt>
      <trkpt lat="43.86971" lon="6.45012">
        <ele>1053</ele>
        <time>2018-05-25T13:23:11Z</time>
      </trkpt>
      <trkpt lat="43.86971" lon="6.45013">
        <ele>1053</ele>
        <time>2018-05-25T13:23:40Z</time>
      </trkpt>
      <trkpt lat="43.86971" lon="6.45013">
        <ele>1053</ele>
        <time>2018-05-25T13:24:00Z</time>
      </trkpt>
      <trkpt lat="43.8697" lon="6.45013">
        <ele>1053</ele>
        <time>2018-05-25T13:24:28Z</time>
      </trkpt>
      <trkpt lat="43.86971" lon="6.45014">
        <ele>1053</ele>
        <time>2018-05-25T13:24:52Z</time>
      </trkpt>
      <trkpt lat="43.86971" lon="6.45008">
        <ele>1053</ele>
        <time>2018-05-25T13:25:03Z</time>
      </trkpt>
      <trkpt lat="43.8697" lon="6.45009">
        <ele>1053</ele>
        <time>2018-05-25T13:25:20Z</time>
      </trkpt>
      <trkpt lat="43.86969" lon="6.45008">
        <ele>1053</ele>
        <time>2018-05-25T13:25:31Z</time>
      </trkpt>
      <trkpt lat="43.86968" lon="6.45006">
        <ele>1053</ele>
        <time>2018-05-25T13:25:32Z</time>
      </trkpt>
      <trkpt lat="43.86967" lon="6.45004">
        <ele>1053</ele>
        <time>2018-05-25T13:25:33Z</time>
      </trkpt>
      <trkpt lat="43.86849" lon="6.45222">
        <ele>1064</ele>
        <time>2018-05-25T13:25:47Z</time>
      </trkpt>
      <trkpt lat="43.86789" lon="6.45379">
        <ele>1071</ele>
        <time>2018-05-25T13:26:04Z</time>
      </trkpt>
      <trkpt lat="43.86745" lon="6.4542">
        <ele>1071</ele>
        <time>2018-05-25T13:26:14Z</time>
      </trkpt>
      <trkpt lat="43.86637" lon="6.45465">
        <ele>1075</ele>
        <time>2018-05-25T13:26:20Z</time>
      </trkpt>
      <trkpt lat="43.86567" lon="6.45656">
        <ele>1084</ele>
        <time>2018-05-25T13:26:21Z</time>
      </trkpt>
      <trkpt lat="43.86561" lon="6.45761">
        <ele>1094</ele>
        <time>2018-05-25T13:26:29Z</time>
      </trkpt>
      <trkpt lat="43.86519" lon="6.4592">
        <ele>1103</ele>
        <time>2018-05-25T13:26:30Z</time>
      </trkpt>
      <trkpt lat="43.8649" lon="6.46139">
        <ele>1116</ele>
        <time>2018-05-25T13:26:31Z</time>
      </trkpt>
      <trkpt lat="43.86518" lon="6.46125">
        <ele>1118</ele>
        <time>2018-05-25T13:26:45Z</time>
      </trkpt>
      <trkpt lat="43.86568" lon="6.45973">
        <ele>1120</ele>
        <time>2018-05-25T13:27:00Z</time>
      </trkpt>
      <trkpt lat="43.86633" lon="6.45922">
        <ele>1128</ele>
        <time>2018-05-25T13:27:14Z</time>
      </trkpt>
      <trkpt lat="43.86565" lon="6.46166">
        <ele>1138</ele>
        <time>2018-05-25T13:27:30Z</time>
      </trkpt>
      <trkpt lat="43.86551" lon="6.46364">
        <ele>1147</ele>
        <time>2018-05-25T13:27:46Z</time>
      </trkpt>
      <trkpt lat="43.86486" lon="6.46608">
        <ele>1139</ele>
        <time>2018-05-25T13:28:00Z</time>
      </trkpt>
      <trkpt lat="43.86568" lon="6.46695">
        <ele>1139</ele>
        <time>2018-05-25T13:28:16Z</time>
      </trkpt>
      <trkpt lat="43.86625" lon="6.46789">
        <ele>1134</ele>
        <time>2018-05-25T13:28:31Z</time>
      </trkpt>
      <trkpt lat="43.86728" lon="6.46747">
        <ele>1133</ele>
        <time>2018-05-25T13:28:35Z</time>
      </trkpt>
      <trkpt lat="43.86779" lon="6.46757">
        <ele>1129</ele>
        <time>2018-05-25T13:28:36Z</time>
      </trkpt>
      <trkpt lat="43.8685" lon="6.46725">
        <ele>1133</ele>
        <time>2018-05-25T13:28:37Z</time>
      </trkpt>
      <trkpt lat="43.86908" lon="6.468">
        <ele>1129</ele>
        <time>2018-05-25T13:28:38Z</time>
      </trkpt>
      <trkpt lat="43.86905" lon="6.46937">
        <ele>1127</ele>
        <time>2018-05-25T13:28:54Z</time>
      </trkpt>
      <trkpt lat="43.86871" lon="6.47134">
        <ele>1125</ele>
        <time>2018-05-25T13:29:29Z</time>
      </trkpt>
      <trkpt lat="43.86801" lon="6.472">
        <ele>1114</ele>
        <time>2018-05-25T13:29:57Z</time>
      </trkpt>
      <trkpt lat="43.8672" lon="6.47375">
        <ele>1101</ele>
        <time>2018-05-25T13:30:20Z</time>
      </trkpt>
      <trkpt lat="43.8672" lon="6.47434">
        <ele>1104</ele>
        <time>2018-05-25T13:30:21Z</time>
      </trkpt>
      <trkpt lat="43.86669" lon="6.47523">
        <ele>1100</ele>
        <time>2018-05-25T13:30:33Z</time>
      </trkpt>
      <trkpt lat="43.8667" lon="6.47617">
        <ele>1106</ele>
        <time>2018-05-25T13:30:35Z</time>
      </trkpt>
      <trkpt lat="43.86529" lon="6.47824">
        <ele>1086</ele>
        <time>2018-05-25T13:30:36Z</time>
      </trkpt>
      <trkpt lat="43.86487" lon="6.48098">
        <ele>1085</ele>
        <time>2018-05-25T13:30:37Z</time>
      </trkpt>
      <trkpt lat="43.86422" lon="6.48212">
        <ele>1079</ele>
        <time>2018-05-25T13:30:44Z</time>
      </trkpt>
      <trkpt lat="43.86402" lon="6.48387">
        <ele>1069</ele>
        <time>2018-05-25T13:30:45Z</time>
      </trkpt>
      <trkpt lat="43.86416" lon="6.48435">
        <ele>1067</ele>
        <time>2018-05-25T13:30:47Z</time>
      </trkpt>
      <trkpt lat="43.86423" lon="6.48495">
        <ele>1060</ele>
        <time>2018-05-25T13:30:48Z</time>
      </trkpt>
      <trkpt lat="43.86504" lon="6.48497">
        <ele>1060</ele>
        <time>2018-05-25T13:30:49Z</time>
      </trkpt>
      <trkpt lat="43.86417" lon="6.48575">
        <ele>1049</ele>
        <time>2018-05-25T13:30:59Z</time>
      </trkpt>
      <trkpt lat="43.8634" lon="6.48538">
        <ele>1043</ele>
        <time>2018-05-25T13:31:08Z</time>
      </trkpt>
      <trkpt lat="43.86352" lon="6.48567">
        <ele>1044</ele>
        <time>2018-05-25T13:31:09Z</time>
      </trkpt>
      <trkpt lat="43.86402" lon="6.48618">
        <ele>1044</ele>
        <time>2018-05-25T13:31:10Z</time>
      </trkpt>
      <trkpt lat="43.86443" lon="6.48683">
        <ele>1035</ele>
        <time>2018-05-25T13:31:11Z</time>
      </trkpt>
      <trkpt lat="43.86516" lon="6.48691">
        <ele>1027</ele>
        <time>2018-05-25T13:31:14Z</time>
      </trkpt>
      <trkpt lat="43.86555" lon="6.48629">
        <ele>1030</ele>
        <time>2018-05-25T13:31:15Z</time>
      </trkpt>
      <trkpt lat="43.86662" lon="6.48658">
        <ele>1019</ele>
        <time>2018-05-25T13:31:16Z</time>
      </trkpt>
      <trkpt lat="43.86729" lon="6.48601">
        <ele>1013</ele>
        <time>2018-05-25T13:31:17Z</time>
      </trkpt>
      <trkpt lat="43.86756" lon="6.48618">
        <ele>1003</ele>
        <time>2018-05-25T13:31:18Z</time>
      </trkpt>
      <trkpt lat="43.86677" lon="6.48719">
        <ele>1005</ele>
        <time>2018-05-25T13:31:19Z</time>
      </trkpt>
      <trkpt lat="43.86623" lon="6.48736">
        <ele>1005</ele>
        <time>2018-05-25T13:31:34Z</time>
      </trkpt>
      <trkpt lat="43.86568" lon="6.48885">
        <ele>990</ele>
        <time>2018-05-25T13:31:48Z</time>
      </trkpt>
      <trkpt lat="43.8648" lon="6.48944">
        <ele>982</ele>
        <time>2018-05-25T13:32:03Z</time>
      </trkpt>
      <trkpt lat="43.86309" lon="6.49">
        <ele>970</ele>
        <time>2018-05-25T13:32:08Z</time>
      </trkpt>
      <trkpt lat="43.86276" lon="6.48978">
        <ele>972</ele>
        <time>2018-05-25T13:32:09Z</time>
      </trkpt>
      <trkpt lat="43.86199" lon="6.48979">
        <ele>967</ele>
        <time>2018-05-25T13:32:10Z</time>
      </trkpt>
      <trkpt lat="43.86165" lon="6.48939">
        <ele>967</ele>
        <time>2018-05-25T13:32:11Z</time>
      </trkpt>
      <trkpt lat="43.86163" lon="6.48986">
        <ele>959</ele>
        <time>2018-05-25T13:32:12Z</time>
      </trkpt>
      <trkpt lat="43.86228" lon="6.49065">
        <ele>954</ele>
        <time>2018-05-25T13:32:13Z</time>
      </trkpt>
      <trkpt lat="43.86299" lon="6.49086">
        <ele>947</ele>
        <time>2018-05-25T13:32:14Z</time>
      </trkpt>
      <trkpt lat="43.86392" lon="6.49058">
        <ele>945</ele>
        <time>2018-05-25T13:32:15Z</time>
      </trkpt>
      <trkpt lat="43.86525" lon="6.49056">
        <ele>940</ele>
        <time>2018-05-25T13:32:16Z</time>
      </trkpt>
      <trkpt lat="43.8662" lon="6.49094">
        <ele>934</ele>
        <time>2018-05-25T13:32:29Z</time>
      </trkpt>
      <trkpt lat="43.86654" lon="6.49109">
        <ele>924</ele>
        <time>2018-05-25T13:32:52Z</time>
      </trkpt>
      <trkpt lat="43.86649" lon="6.49161">
        <ele>910</ele>
        <time>2018-05-25T13:33:05Z</time>
      </trkpt>
      <trkpt lat="43.8653" lon="6.49115">
        <ele>914</ele>
        <time>2018-05-25T13:33:13Z</time>
      </trkpt>
      <trkpt lat="43.86473" lon="6.49117">
        <ele>910</ele>
        <time>2018-05-25T13:33:14Z</time>
      </trkpt>
      <trkpt lat="43.86391" lon="6.49152">
        <ele>904</ele>
        <time>2018-05-25T13:33:15Z</time>
      </trkpt>
      <trkpt lat="43.86303" lon="6.4922">
        <ele>897</ele>
        <time>2018-05-25T13:33:16Z</time>
      </trkpt>
      <trkpt lat="43.86172" lon="6.49279">
        <ele>887</ele>
        <time>2018-05-25T13:33:17Z</time>
      </trkpt>
      <trkpt lat="43.86029" lon="6.49262">
        <ele>879</ele>
        <time>2018-05-25T13:33:18Z</time>
      </trkpt>
      <trkpt lat="43.85969" lon="6.49289">
        <ele>865</ele>
        <time>2018-05-25T13:33:27Z</time>
      </trkpt>
      <trkpt lat="43.85968" lon="6.49251">
        <ele>869</ele>
        <time>2018-05-25T13:33:44Z</time>
      </trkpt>
      <trkpt lat="43.8601" lon="6.49167">
        <ele>871</ele>
        <time>2018-05-25T13:33:46Z</time>
      </trkpt>
      <trkpt lat="43.86029" lon="6.49135">
        <ele>871</ele>
        <time>2018-05-25T13:33:52Z</time>
      </trkpt>
      <trkpt lat="43.8603" lon="6.49104">
        <ele>870</ele>
        <time>2018-05-25T13:33:59Z</time>
      </trkpt>
      <trkpt lat="43.86022" lon="6.49025">
        <ele>869</ele>
        <time>2018-05-25T13:34:02Z</time>
      </trkpt>
      <trkpt lat="43.86015" lon="6.48984">
        <ele>865</ele>
        <time>2018-05-25T13:34:03Z</time>
      </trkpt>
      <trkpt lat="43.85999" lon="6.48918">
        <ele>860</ele>
        <time>2018-05-25T13:34:07Z</time>
      </trkpt>
      <trkpt lat="43.85983" lon="6.48932">
        <ele>852</ele>
        <time>2018-05-25T13:34:22Z</time>
      </trkpt>
      <trkpt lat="43.85986" lon="6.4896">
        <ele>851</ele>
        <time>2018-05-25T13:34:44Z</time>
      </trkpt>
      <trkpt lat="43.85994" lon="6.48992">
        <ele>854</ele>
        <time>2018-05-25T13:34:55Z</time>
      </trkpt>
      <trkpt lat="43.85992" lon="6.49045">
        <ele>850</ele>
        <time>2018-05-25T13:34:56Z</time>
      </trkpt>
      <trkpt lat="43.86001" lon="6.49111">
        <ele>852</ele>
        <time>2018-05-25T13:34:57Z</time>
      </trkpt>
      <trkpt lat="43.85906" lon="6.49225">
        <ele>834</ele>
        <time>2018-05-25T13:34:58Z</time>
      </trkpt>
      <trkpt lat="43.85842" lon="6.49367">
        <ele>824</ele>
        <time>2018-05-25T13:34:59Z</time>
      </trkpt>
      <trkpt lat="43.85881" lon="6.4941">
        <ele>823</ele>
        <time>2018-05-25T13:35:00Z</time>
      </trkpt>
      <trkpt lat="43.86082" lon="6.49462">
        <ele>811</ele>
        <time>2018-05-25T13:35:18Z</time>
      </trkpt>
      <trkpt lat="43.861" lon="6.49525">
        <ele>794</ele>
        <time>2018-05-25T13:35:19Z</time>
      </trkpt>
      <trkpt lat="43.86048" lon="6.49537">
        <ele>792</ele>
        <time>2018-05-25T13:35:28Z</time>
      </trkpt>
      <trkpt lat="43.8599" lon="6.49499">
        <ele>795</ele>
        <time>2018-05-25T13:35:29Z</time>
      </trkpt>
      <trkpt lat="43.85761" lon="6.49507">
        <ele>779</ele>
        <time>2018-05-25T13:35:33Z</time>
      </trkpt>
      <trkpt lat="43.85723" lon="6.49557">
        <ele>770</ele>
        <time>2018-05-25T13:35:34Z</time>
      </trkpt>
      <trkpt lat="43.85592" lon="6.49557">
        <ele>763</ele>
        <time>2018-05-25T13:35:40Z</time>
      </trkpt>
      <trkpt lat="43.8557" lon="6.50006">
        <ele>748</ele>
        <time>2018-05-25T13:35:41Z</time>
      </trkpt>
      <trkpt lat="43.8543" lon="6.50204">
        <ele>744</ele>
        <time>2018-05-25T13:35:56Z</time>
      </trkpt>
      <trkpt lat="43.85297" lon="6.50512">
        <ele>746</ele>
        <time>2018-05-25T13:36:10Z</time>
      </trkpt>
      <trkpt lat="43.85177" lon="6.5076">
        <ele>747</ele>
        <time>2018-05-25T13:36:22Z</time>
      </trkpt>
      <trkpt lat="43.84869" lon="6.50917">
        <ele>737</ele>
        <time>2018-05-25T13:36:37Z</time>
      </trkpt>
      <trkpt lat="43.84753" lon="6.51251">
        <ele>734</ele>
        <time>2018-05-25T13:36:52Z</time>
      </trkpt>
      <trkpt lat="43.84604" lon="6.51246">
        <ele>727</ele>
        <time>2018-05-25T13:37:19Z</time>
      </trkpt>
      <trkpt lat="43.84584" lon="6.51321">
        <ele>724</ele>
        <time>2018-05-25T13:37:43Z</time>
      </trkpt>
      <trkpt lat="43.84543" lon="6.51318">
        <ele>721</ele>
        <time>2018-05-25T13:38:00Z</time>
      </trkpt>
      <trkpt lat="43.84473" lon="6.5098">
        <ele>723</ele>
        <time>2018-05-25T13:38:21Z</time>
      </trkpt>
      <trkpt lat="43.84309" lon="6.5038">
        <ele>719</ele>
        <time>2018-05-25T13:38:28Z</time>
      </trkpt>
      <trkpt lat="43.83956" lon="6.49502">
        <ele>717</ele>
        <time>2018-05-25T13:38:29Z</time>
      </trkpt>
      <trkpt lat="43.83957" lon="6.49471">
        <ele>717</ele>
        <time>2018-05-25T13:38:35Z</time>
      </trkpt>
      <trkpt lat="43.83814" lon="6.49445">
        <ele>717</ele>
        <time>2018-05-25T13:38:50Z</time>
      </trkpt>
      <trkpt lat="43.83795" lon="6.49469">
        <ele>715</ele>
        <time>2018-05-25T13:39:01Z</time>
      </trkpt>
      <trkpt lat="43.83769" lon="6.49501">
        <ele>716</ele>
        <time>2018-05-25T13:39:17Z</time>
      </trkpt>
      <trkpt lat="43.83782" lon="6.4957">
        <ele>718</ele>
        <time>2018-05-25T13:39:32Z</time>
      </trkpt>
      <trkpt lat="43.83768" lon="6.49579">
        <ele>719</ele>
        <time>2018-05-25T13:39:49Z</time>
      </trkpt>
    </trkseg>
  </trk>
</gpx>